<?xml version="1.0" encoding="UTF-8" standalone="no" ?>
<gpx xmlns="http://www.topografix.com/GPX/1/1" xmlns:xsi="http://www.w3.org/2001/XMLSchema-instance" xsi:schemaLocation="http://www.topografix.com/GPX/1/1 http://www.topografix.com/GPX/1/1/gpx.xsd" version="1.1" creator="VisuGPX - https://www.visugpx.com">
  <metadata>
    <name>Aller et retour Le Markstein Le Grand Ballon</name>
  </metadata>
  <trk>
    <name><![CDATA[Le Markstein Le Grand Ballon]]></name>
    <trkseg>
      <trkpt lat="47.92337" lon="7.03073">
        <ele>1185.7</ele>
        <time>1970-01-01T00:00:00.000Z</time>
      </trkpt>
      <trkpt lat="47.92335" lon="7.03087">
        <ele>1185.5</ele>
        <time>1970-01-01T00:00:08.000Z</time>
      </trkpt>
      <trkpt lat="47.92332" lon="7.031">
        <ele>1185.3</ele>
        <time>1970-01-01T00:00:16.000Z</time>
      </trkpt>
      <trkpt lat="47.92328" lon="7.03113">
        <ele>1185.1</ele>
        <time>1970-01-01T00:00:24.000Z</time>
      </trkpt>
      <trkpt lat="47.92326" lon="7.03127">
        <ele>1184.8</ele>
        <time>1970-01-01T00:00:32.000Z</time>
      </trkpt>
      <trkpt lat="47.92322" lon="7.0314">
        <ele>1184.6</ele>
        <time>1970-01-01T00:00:40.000Z</time>
      </trkpt>
      <trkpt lat="47.92319" lon="7.03154">
        <ele>1184.2</ele>
        <time>1970-01-01T00:00:48.000Z</time>
      </trkpt>
      <trkpt lat="47.92315" lon="7.03167">
        <ele>1183.6</ele>
        <time>1970-01-01T00:00:56.000Z</time>
      </trkpt>
      <trkpt lat="47.92311" lon="7.03181">
        <ele>1182.8</ele>
        <time>1970-01-01T00:01:04.000Z</time>
      </trkpt>
      <trkpt lat="47.92307" lon="7.03194">
        <ele>1181.8</ele>
        <time>1970-01-01T00:01:12.000Z</time>
      </trkpt>
      <trkpt lat="47.92303" lon="7.03207">
        <ele>1180.8</ele>
        <time>1970-01-01T00:01:20.000Z</time>
      </trkpt>
      <trkpt lat="47.92301" lon="7.03221">
        <ele>1180.4</ele>
        <time>1970-01-01T00:01:28.000Z</time>
      </trkpt>
      <trkpt lat="47.92298" lon="7.03235">
        <ele>1180.3</ele>
        <time>1970-01-01T00:01:37.000Z</time>
      </trkpt>
      <trkpt lat="47.92295" lon="7.03249">
        <ele>1180.1</ele>
        <time>1970-01-01T00:01:58.000Z</time>
      </trkpt>
      <trkpt lat="47.92293" lon="7.03263">
        <ele>1179.8</ele>
        <time>1970-01-01T00:02:07.000Z</time>
      </trkpt>
      <trkpt lat="47.9229" lon="7.03277">
        <ele>1179.5</ele>
        <time>1970-01-01T00:02:16.000Z</time>
      </trkpt>
      <trkpt lat="47.92288" lon="7.03291">
        <ele>1179.1</ele>
        <time>1970-01-01T00:02:25.000Z</time>
      </trkpt>
      <trkpt lat="47.92285" lon="7.03305">
        <ele>1178.8</ele>
        <time>1970-01-01T00:02:33.000Z</time>
      </trkpt>
      <trkpt lat="47.92282" lon="7.03319">
        <ele>1178.4</ele>
        <time>1970-01-01T00:02:42.000Z</time>
      </trkpt>
      <trkpt lat="47.9228" lon="7.03332">
        <ele>1178.1</ele>
        <time>1970-01-01T00:02:49.000Z</time>
      </trkpt>
      <trkpt lat="47.92278" lon="7.03345">
        <ele>1176.6</ele>
        <time>1970-01-01T00:02:57.000Z</time>
      </trkpt>
      <trkpt lat="47.92274" lon="7.03359">
        <ele>1175.9</ele>
        <time>1970-01-01T00:03:05.000Z</time>
      </trkpt>
      <trkpt lat="47.92271" lon="7.03373">
        <ele>1175.2</ele>
        <time>1970-01-01T00:03:13.000Z</time>
      </trkpt>
      <trkpt lat="47.92268" lon="7.03387">
        <ele>1174.5</ele>
        <time>1970-01-01T00:03:21.000Z</time>
      </trkpt>
      <trkpt lat="47.92266" lon="7.034">
        <ele>1173.9</ele>
        <time>1970-01-01T00:03:29.000Z</time>
      </trkpt>
      <trkpt lat="47.92271" lon="7.03412">
        <ele>1173.4</ele>
        <time>1970-01-01T00:03:37.000Z</time>
      </trkpt>
      <trkpt lat="47.92275" lon="7.03424">
        <ele>1173.2</ele>
        <time>1970-01-01T00:03:45.000Z</time>
      </trkpt>
      <trkpt lat="47.92277" lon="7.03437">
        <ele>1173.1</ele>
        <time>1970-01-01T00:03:55.000Z</time>
      </trkpt>
      <trkpt lat="47.92278" lon="7.03451">
        <ele>1173</ele>
        <time>1970-01-01T00:04:33.000Z</time>
      </trkpt>
      <trkpt lat="47.92278" lon="7.03464">
        <ele>1173</ele>
        <time>1970-01-01T00:04:46.000Z</time>
      </trkpt>
      <trkpt lat="47.9228" lon="7.03478">
        <ele>1173</ele>
        <time>1970-01-01T00:04:54.000Z</time>
      </trkpt>
      <trkpt lat="47.92281" lon="7.03492">
        <ele>1173</ele>
        <time>1970-01-01T00:05:02.000Z</time>
      </trkpt>
      <trkpt lat="47.92282" lon="7.03505">
        <ele>1173</ele>
        <time>1970-01-01T00:05:10.000Z</time>
      </trkpt>
      <trkpt lat="47.92283" lon="7.0352">
        <ele>1173</ele>
        <time>1970-01-01T00:05:19.000Z</time>
      </trkpt>
      <trkpt lat="47.92285" lon="7.03533">
        <ele>1173</ele>
        <time>1970-01-01T00:05:27.000Z</time>
      </trkpt>
      <trkpt lat="47.92287" lon="7.03547">
        <ele>1173</ele>
        <time>1970-01-01T00:05:36.000Z</time>
      </trkpt>
      <trkpt lat="47.92289" lon="7.03561">
        <ele>1173</ele>
        <time>1970-01-01T00:05:45.000Z</time>
      </trkpt>
      <trkpt lat="47.9229" lon="7.03575">
        <ele>1173</ele>
        <time>1970-01-01T00:05:54.000Z</time>
      </trkpt>
      <trkpt lat="47.92291" lon="7.03589">
        <ele>1173</ele>
        <time>1970-01-01T00:06:02.000Z</time>
      </trkpt>
      <trkpt lat="47.92291" lon="7.03603">
        <ele>1173</ele>
        <time>1970-01-01T00:06:11.000Z</time>
      </trkpt>
      <trkpt lat="47.92292" lon="7.03617">
        <ele>1173</ele>
        <time>1970-01-01T00:06:19.000Z</time>
      </trkpt>
      <trkpt lat="47.92291" lon="7.03631">
        <ele>1173</ele>
        <time>1970-01-01T00:06:28.000Z</time>
      </trkpt>
      <trkpt lat="47.92291" lon="7.03645">
        <ele>1173</ele>
        <time>1970-01-01T00:06:37.000Z</time>
      </trkpt>
      <trkpt lat="47.92289" lon="7.03659">
        <ele>1173</ele>
        <time>1970-01-01T00:06:46.000Z</time>
      </trkpt>
      <trkpt lat="47.92284" lon="7.03672">
        <ele>1173</ele>
        <time>1970-01-01T00:06:56.000Z</time>
      </trkpt>
      <trkpt lat="47.92279" lon="7.03684">
        <ele>1173</ele>
        <time>1970-01-01T00:07:05.000Z</time>
      </trkpt>
      <trkpt lat="47.92274" lon="7.03694">
        <ele>1173</ele>
        <time>1970-01-01T00:07:13.000Z</time>
      </trkpt>
      <trkpt lat="47.92267" lon="7.03705">
        <ele>1173</ele>
        <time>1970-01-01T00:07:22.000Z</time>
      </trkpt>
      <trkpt lat="47.92261" lon="7.03715">
        <ele>1173</ele>
        <time>1970-01-01T00:07:30.000Z</time>
      </trkpt>
      <trkpt lat="47.92256" lon="7.03727">
        <ele>1173.4</ele>
        <time>1970-01-01T00:07:40.000Z</time>
      </trkpt>
      <trkpt lat="47.92252" lon="7.03739">
        <ele>1173.7</ele>
        <time>1970-01-01T00:07:50.000Z</time>
      </trkpt>
      <trkpt lat="47.92247" lon="7.03751">
        <ele>1174.2</ele>
        <time>1970-01-01T00:07:59.000Z</time>
      </trkpt>
      <trkpt lat="47.92242" lon="7.03764">
        <ele>1174.6</ele>
        <time>1970-01-01T00:08:09.000Z</time>
      </trkpt>
      <trkpt lat="47.92237" lon="7.03776">
        <ele>1174.8</ele>
        <time>1970-01-01T00:08:18.000Z</time>
      </trkpt>
      <trkpt lat="47.92232" lon="7.03788">
        <ele>1175.1</ele>
        <time>1970-01-01T00:08:27.000Z</time>
      </trkpt>
      <trkpt lat="47.92226" lon="7.03799">
        <ele>1175.3</ele>
        <time>1970-01-01T00:08:36.000Z</time>
      </trkpt>
      <trkpt lat="47.9222" lon="7.03809">
        <ele>1175.5</ele>
        <time>1970-01-01T00:08:45.000Z</time>
      </trkpt>
      <trkpt lat="47.92211" lon="7.03819">
        <ele>1175.8</ele>
        <time>1970-01-01T00:08:55.000Z</time>
      </trkpt>
      <trkpt lat="47.92204" lon="7.03828">
        <ele>1176</ele>
        <time>1970-01-01T00:09:05.000Z</time>
      </trkpt>
      <trkpt lat="47.92197" lon="7.03837">
        <ele>1176.3</ele>
        <time>1970-01-01T00:09:12.000Z</time>
      </trkpt>
      <trkpt lat="47.9219" lon="7.03846">
        <ele>1176.5</ele>
        <time>1970-01-01T00:09:22.000Z</time>
      </trkpt>
      <trkpt lat="47.92183" lon="7.03856">
        <ele>1176.7</ele>
        <time>1970-01-01T00:09:29.000Z</time>
      </trkpt>
      <trkpt lat="47.92177" lon="7.03865">
        <ele>1177</ele>
        <time>1970-01-01T00:09:36.000Z</time>
      </trkpt>
      <trkpt lat="47.9217" lon="7.03874">
        <ele>1177.2</ele>
        <time>1970-01-01T00:09:44.000Z</time>
      </trkpt>
      <trkpt lat="47.92163" lon="7.03884">
        <ele>1177.5</ele>
        <time>1970-01-01T00:09:54.000Z</time>
      </trkpt>
      <trkpt lat="47.92155" lon="7.03893">
        <ele>1177.8</ele>
        <time>1970-01-01T00:10:02.000Z</time>
      </trkpt>
      <trkpt lat="47.92149" lon="7.03902">
        <ele>1178.2</ele>
        <time>1970-01-01T00:10:15.000Z</time>
      </trkpt>
      <trkpt lat="47.92142" lon="7.03911">
        <ele>1178.4</ele>
        <time>1970-01-01T00:10:26.000Z</time>
      </trkpt>
      <trkpt lat="47.92137" lon="7.03923">
        <ele>1178.6</ele>
        <time>1970-01-01T00:10:36.000Z</time>
      </trkpt>
      <trkpt lat="47.92131" lon="7.03935">
        <ele>1178.8</ele>
        <time>1970-01-01T00:10:45.000Z</time>
      </trkpt>
      <trkpt lat="47.92125" lon="7.03946">
        <ele>1178.9</ele>
        <time>1970-01-01T00:10:53.000Z</time>
      </trkpt>
      <trkpt lat="47.92119" lon="7.03957">
        <ele>1179</ele>
        <time>1970-01-01T00:11:00.000Z</time>
      </trkpt>
      <trkpt lat="47.92111" lon="7.03966">
        <ele>1179.1</ele>
        <time>1970-01-01T00:11:09.000Z</time>
      </trkpt>
      <trkpt lat="47.92103" lon="7.03973">
        <ele>1179.2</ele>
        <time>1970-01-01T00:11:17.000Z</time>
      </trkpt>
      <trkpt lat="47.92095" lon="7.03979">
        <ele>1179.4</ele>
        <time>1970-01-01T00:11:25.000Z</time>
      </trkpt>
      <trkpt lat="47.92086" lon="7.03985">
        <ele>1179.6</ele>
        <time>1970-01-01T00:11:34.000Z</time>
      </trkpt>
      <trkpt lat="47.92077" lon="7.03989">
        <ele>1179.9</ele>
        <time>1970-01-01T00:11:43.000Z</time>
      </trkpt>
      <trkpt lat="47.92068" lon="7.03993">
        <ele>1180.1</ele>
        <time>1970-01-01T00:11:53.000Z</time>
      </trkpt>
      <trkpt lat="47.9206" lon="7.03999">
        <ele>1180.3</ele>
        <time>1970-01-01T00:12:03.000Z</time>
      </trkpt>
      <trkpt lat="47.9205" lon="7.03999">
        <ele>1180.5</ele>
        <time>1970-01-01T00:12:14.000Z</time>
      </trkpt>
      <trkpt lat="47.92042" lon="7.04002">
        <ele>1180.6</ele>
        <time>1970-01-01T00:12:22.000Z</time>
      </trkpt>
      <trkpt lat="47.92034" lon="7.04007">
        <ele>1180.7</ele>
        <time>1970-01-01T00:12:34.000Z</time>
      </trkpt>
      <trkpt lat="47.92027" lon="7.04017">
        <ele>1180.9</ele>
        <time>1970-01-01T00:12:44.000Z</time>
      </trkpt>
      <trkpt lat="47.92018" lon="7.04023">
        <ele>1181.2</ele>
        <time>1970-01-01T00:12:54.000Z</time>
      </trkpt>
      <trkpt lat="47.9201" lon="7.04028">
        <ele>1181.6</ele>
        <time>1970-01-01T00:13:04.000Z</time>
      </trkpt>
      <trkpt lat="47.92" lon="7.04031">
        <ele>1181.9</ele>
        <time>1970-01-01T00:13:15.000Z</time>
      </trkpt>
      <trkpt lat="47.91991" lon="7.04033">
        <ele>1182</ele>
        <time>1970-01-01T00:13:24.000Z</time>
      </trkpt>
      <trkpt lat="47.91983" lon="7.04038">
        <ele>1181.9</ele>
        <time>1970-01-01T00:13:34.000Z</time>
      </trkpt>
      <trkpt lat="47.91975" lon="7.04048">
        <ele>1181.7</ele>
        <time>1970-01-01T00:13:40.000Z</time>
      </trkpt>
      <trkpt lat="47.91968" lon="7.04056">
        <ele>1181.4</ele>
        <time>1970-01-01T00:13:46.000Z</time>
      </trkpt>
      <trkpt lat="47.91959" lon="7.04064">
        <ele>1181.1</ele>
        <time>1970-01-01T00:13:54.000Z</time>
      </trkpt>
      <trkpt lat="47.91952" lon="7.04072">
        <ele>1180.9</ele>
        <time>1970-01-01T00:14:02.000Z</time>
      </trkpt>
      <trkpt lat="47.91944" lon="7.0408">
        <ele>1180.6</ele>
        <time>1970-01-01T00:14:12.000Z</time>
      </trkpt>
      <trkpt lat="47.91935" lon="7.04081">
        <ele>1180.4</ele>
        <time>1970-01-01T00:14:21.000Z</time>
      </trkpt>
      <trkpt lat="47.91926" lon="7.04081">
        <ele>1180.2</ele>
        <time>1970-01-01T00:14:28.000Z</time>
      </trkpt>
      <trkpt lat="47.91916" lon="7.04083">
        <ele>1180.1</ele>
        <time>1970-01-01T00:14:37.000Z</time>
      </trkpt>
      <trkpt lat="47.91906" lon="7.04086">
        <ele>1179.9</ele>
        <time>1970-01-01T00:14:46.000Z</time>
      </trkpt>
      <trkpt lat="47.91896" lon="7.04088">
        <ele>1179.8</ele>
        <time>1970-01-01T00:14:55.000Z</time>
      </trkpt>
      <trkpt lat="47.91887" lon="7.04092">
        <ele>1179.7</ele>
        <time>1970-01-01T00:15:03.000Z</time>
      </trkpt>
      <trkpt lat="47.91878" lon="7.04099">
        <ele>1179.6</ele>
        <time>1970-01-01T00:15:12.000Z</time>
      </trkpt>
      <trkpt lat="47.91875" lon="7.04111">
        <ele>1179.5</ele>
        <time>1970-01-01T00:15:17.000Z</time>
      </trkpt>
      <trkpt lat="47.91867" lon="7.04118">
        <ele>1179.3</ele>
        <time>1970-01-01T00:15:25.000Z</time>
      </trkpt>
      <trkpt lat="47.91858" lon="7.04121">
        <ele>1179.1</ele>
        <time>1970-01-01T00:15:33.000Z</time>
      </trkpt>
      <trkpt lat="47.91849" lon="7.04126">
        <ele>1178.9</ele>
        <time>1970-01-01T00:15:40.000Z</time>
      </trkpt>
      <trkpt lat="47.91839" lon="7.04131">
        <ele>1178.8</ele>
        <time>1970-01-01T00:15:48.000Z</time>
      </trkpt>
      <trkpt lat="47.9183" lon="7.04136">
        <ele>1178.9</ele>
        <time>1970-01-01T00:15:57.000Z</time>
      </trkpt>
      <trkpt lat="47.91821" lon="7.04141">
        <ele>1179</ele>
        <time>1970-01-01T00:16:06.000Z</time>
      </trkpt>
      <trkpt lat="47.91812" lon="7.04145">
        <ele>1179.1</ele>
        <time>1970-01-01T00:16:14.000Z</time>
      </trkpt>
      <trkpt lat="47.91804" lon="7.0415">
        <ele>1179.2</ele>
        <time>1970-01-01T00:19:02.000Z</time>
      </trkpt>
      <trkpt lat="47.91796" lon="7.04159">
        <ele>1179.1</ele>
        <time>1970-01-01T00:19:11.000Z</time>
      </trkpt>
      <trkpt lat="47.91788" lon="7.04167">
        <ele>1178.9</ele>
        <time>1970-01-01T00:19:22.000Z</time>
      </trkpt>
      <trkpt lat="47.91779" lon="7.04173">
        <ele>1178.4</ele>
        <time>1970-01-01T00:19:30.000Z</time>
      </trkpt>
      <trkpt lat="47.91771" lon="7.04179">
        <ele>1178</ele>
        <time>1970-01-01T00:19:41.000Z</time>
      </trkpt>
      <trkpt lat="47.91763" lon="7.04185">
        <ele>1177.4</ele>
        <time>1970-01-01T00:19:48.000Z</time>
      </trkpt>
      <trkpt lat="47.91754" lon="7.0419">
        <ele>1176.6</ele>
        <time>1970-01-01T00:19:59.000Z</time>
      </trkpt>
      <trkpt lat="47.91745" lon="7.04197">
        <ele>1175.9</ele>
        <time>1970-01-01T00:20:07.000Z</time>
      </trkpt>
      <trkpt lat="47.91738" lon="7.04205">
        <ele>1175.2</ele>
        <time>1970-01-01T00:20:15.000Z</time>
      </trkpt>
      <trkpt lat="47.91731" lon="7.04213">
        <ele>1174.5</ele>
        <time>1970-01-01T00:20:24.000Z</time>
      </trkpt>
      <trkpt lat="47.91726" lon="7.04225">
        <ele>1174.4</ele>
        <time>1970-01-01T00:20:34.000Z</time>
      </trkpt>
      <trkpt lat="47.91719" lon="7.04235">
        <ele>1174.4</ele>
        <time>1970-01-01T00:20:45.000Z</time>
      </trkpt>
      <trkpt lat="47.91714" lon="7.04246">
        <ele>1174.8</ele>
        <time>1970-01-01T00:20:55.000Z</time>
      </trkpt>
      <trkpt lat="47.91708" lon="7.04256">
        <ele>1175.6</ele>
        <time>1970-01-01T00:21:09.000Z</time>
      </trkpt>
      <trkpt lat="47.91705" lon="7.04269">
        <ele>1176.6</ele>
        <time>1970-01-01T00:21:16.000Z</time>
      </trkpt>
      <trkpt lat="47.91699" lon="7.04279">
        <ele>1177.9</ele>
        <time>1970-01-01T00:21:29.000Z</time>
      </trkpt>
      <trkpt lat="47.91691" lon="7.04285">
        <ele>1179.1</ele>
        <time>1970-01-01T00:21:40.000Z</time>
      </trkpt>
      <trkpt lat="47.91683" lon="7.04291">
        <ele>1180.2</ele>
        <time>1970-01-01T00:21:52.000Z</time>
      </trkpt>
      <trkpt lat="47.91677" lon="7.04303">
        <ele>1181.4</ele>
        <time>1970-01-01T00:22:04.000Z</time>
      </trkpt>
      <trkpt lat="47.91673" lon="7.04315">
        <ele>1182.4</ele>
        <time>1970-01-01T00:22:10.000Z</time>
      </trkpt>
      <trkpt lat="47.91666" lon="7.04325">
        <ele>1183.2</ele>
        <time>1970-01-01T00:22:27.000Z</time>
      </trkpt>
      <trkpt lat="47.91659" lon="7.04334">
        <ele>1184</ele>
        <time>1970-01-01T00:22:39.000Z</time>
      </trkpt>
      <trkpt lat="47.91651" lon="7.04341">
        <ele>1184.7</ele>
        <time>1970-01-01T00:22:49.000Z</time>
      </trkpt>
      <trkpt lat="47.91647" lon="7.04353">
        <ele>1185.3</ele>
        <time>1970-01-01T00:22:57.000Z</time>
      </trkpt>
      <trkpt lat="47.91639" lon="7.04362">
        <ele>1185.8</ele>
        <time>1970-01-01T00:23:05.000Z</time>
      </trkpt>
      <trkpt lat="47.91631" lon="7.04369">
        <ele>1186.2</ele>
        <time>1970-01-01T00:23:13.000Z</time>
      </trkpt>
      <trkpt lat="47.91623" lon="7.04375">
        <ele>1186.6</ele>
        <time>1970-01-01T00:23:21.000Z</time>
      </trkpt>
      <trkpt lat="47.91613" lon="7.04376">
        <ele>1186.8</ele>
        <time>1970-01-01T00:23:35.000Z</time>
      </trkpt>
      <trkpt lat="47.91603" lon="7.04381">
        <ele>1187</ele>
        <time>1970-01-01T00:23:42.000Z</time>
      </trkpt>
      <trkpt lat="47.91594" lon="7.04386">
        <ele>1187</ele>
        <time>1970-01-01T00:23:49.000Z</time>
      </trkpt>
      <trkpt lat="47.91586" lon="7.04393">
        <ele>1186.8</ele>
        <time>1970-01-01T00:23:56.000Z</time>
      </trkpt>
      <trkpt lat="47.91579" lon="7.044">
        <ele>1186.5</ele>
        <time>1970-01-01T00:24:04.000Z</time>
      </trkpt>
      <trkpt lat="47.9157" lon="7.04405">
        <ele>1186.3</ele>
        <time>1970-01-01T00:24:12.000Z</time>
      </trkpt>
      <trkpt lat="47.91561" lon="7.0441">
        <ele>1186.2</ele>
        <time>1970-01-01T00:24:21.000Z</time>
      </trkpt>
      <trkpt lat="47.91551" lon="7.04415">
        <ele>1186.2</ele>
        <time>1970-01-01T00:24:31.000Z</time>
      </trkpt>
      <trkpt lat="47.91542" lon="7.04418">
        <ele>1186.2</ele>
        <time>1970-01-01T00:24:40.000Z</time>
      </trkpt>
      <trkpt lat="47.91533" lon="7.04422">
        <ele>1186.2</ele>
        <time>1970-01-01T00:24:50.000Z</time>
      </trkpt>
      <trkpt lat="47.91523" lon="7.04425">
        <ele>1186.3</ele>
        <time>1970-01-01T00:24:59.000Z</time>
      </trkpt>
      <trkpt lat="47.91514" lon="7.04426">
        <ele>1186.2</ele>
        <time>1970-01-01T00:25:10.000Z</time>
      </trkpt>
      <trkpt lat="47.91505" lon="7.04427">
        <ele>1186.2</ele>
        <time>1970-01-01T00:25:19.000Z</time>
      </trkpt>
      <trkpt lat="47.91495" lon="7.04428">
        <ele>1186</ele>
        <time>1970-01-01T00:25:27.000Z</time>
      </trkpt>
      <trkpt lat="47.91485" lon="7.04429">
        <ele>1185.8</ele>
        <time>1970-01-01T00:25:36.000Z</time>
      </trkpt>
      <trkpt lat="47.91476" lon="7.0443">
        <ele>1185.6</ele>
        <time>1970-01-01T00:25:45.000Z</time>
      </trkpt>
      <trkpt lat="47.91466" lon="7.04429">
        <ele>1185.3</ele>
        <time>1970-01-01T00:25:54.000Z</time>
      </trkpt>
      <trkpt lat="47.91457" lon="7.0443">
        <ele>1184.8</ele>
        <time>1970-01-01T00:26:02.000Z</time>
      </trkpt>
      <trkpt lat="47.91448" lon="7.04434">
        <ele>1184.5</ele>
        <time>1970-01-01T00:26:12.000Z</time>
      </trkpt>
      <trkpt lat="47.91439" lon="7.04435">
        <ele>1184.2</ele>
        <time>1970-01-01T00:26:22.000Z</time>
      </trkpt>
      <trkpt lat="47.9143" lon="7.04441">
        <ele>1183.8</ele>
        <time>1970-01-01T00:26:35.000Z</time>
      </trkpt>
      <trkpt lat="47.9142" lon="7.04442">
        <ele>1183.4</ele>
        <time>1970-01-01T00:26:43.000Z</time>
      </trkpt>
      <trkpt lat="47.91411" lon="7.04447">
        <ele>1182.8</ele>
        <time>1970-01-01T00:26:51.000Z</time>
      </trkpt>
      <trkpt lat="47.91403" lon="7.04456">
        <ele>1182.3</ele>
        <time>1970-01-01T00:26:59.000Z</time>
      </trkpt>
      <trkpt lat="47.91397" lon="7.04465">
        <ele>1181.8</ele>
        <time>1970-01-01T00:27:08.000Z</time>
      </trkpt>
      <trkpt lat="47.9139" lon="7.04476">
        <ele>1180.9</ele>
        <time>1970-01-01T00:27:17.000Z</time>
      </trkpt>
      <trkpt lat="47.91382" lon="7.04485">
        <ele>1180.1</ele>
        <time>1970-01-01T00:27:25.000Z</time>
      </trkpt>
      <trkpt lat="47.91376" lon="7.04495">
        <ele>1179.6</ele>
        <time>1970-01-01T00:27:34.000Z</time>
      </trkpt>
      <trkpt lat="47.91371" lon="7.04508">
        <ele>1179.3</ele>
        <time>1970-01-01T00:27:44.000Z</time>
      </trkpt>
      <trkpt lat="47.91366" lon="7.0452">
        <ele>1178.9</ele>
        <time>1970-01-01T00:27:52.000Z</time>
      </trkpt>
      <trkpt lat="47.91361" lon="7.04532">
        <ele>1178.7</ele>
        <time>1970-01-01T00:28:03.000Z</time>
      </trkpt>
      <trkpt lat="47.91355" lon="7.04542">
        <ele>1178.4</ele>
        <time>1970-01-01T00:28:11.000Z</time>
      </trkpt>
      <trkpt lat="47.91349" lon="7.04552">
        <ele>1178.3</ele>
        <time>1970-01-01T00:28:19.000Z</time>
      </trkpt>
      <trkpt lat="47.91343" lon="7.04563">
        <ele>1178.1</ele>
        <time>1970-01-01T00:28:28.000Z</time>
      </trkpt>
      <trkpt lat="47.91337" lon="7.04576">
        <ele>1178</ele>
        <time>1970-01-01T00:28:37.000Z</time>
      </trkpt>
      <trkpt lat="47.91332" lon="7.04588">
        <ele>1177.8</ele>
        <time>1970-01-01T00:28:46.000Z</time>
      </trkpt>
      <trkpt lat="47.91326" lon="7.04599">
        <ele>1177.7</ele>
        <time>1970-01-01T00:28:56.000Z</time>
      </trkpt>
      <trkpt lat="47.91323" lon="7.04613">
        <ele>1177.7</ele>
        <time>1970-01-01T00:29:06.000Z</time>
      </trkpt>
      <trkpt lat="47.91317" lon="7.04624">
        <ele>1177.8</ele>
        <time>1970-01-01T00:29:15.000Z</time>
      </trkpt>
      <trkpt lat="47.91312" lon="7.04636">
        <ele>1177.9</ele>
        <time>1970-01-01T00:29:24.000Z</time>
      </trkpt>
      <trkpt lat="47.91307" lon="7.04649">
        <ele>1178.1</ele>
        <time>1970-01-01T00:29:34.000Z</time>
      </trkpt>
      <trkpt lat="47.91302" lon="7.04661">
        <ele>1178.4</ele>
        <time>1970-01-01T00:29:43.000Z</time>
      </trkpt>
      <trkpt lat="47.91299" lon="7.04675">
        <ele>1178.9</ele>
        <time>1970-01-01T00:29:55.000Z</time>
      </trkpt>
      <trkpt lat="47.91296" lon="7.04688">
        <ele>1179.4</ele>
        <time>1970-01-01T00:30:07.000Z</time>
      </trkpt>
      <trkpt lat="47.91292" lon="7.04701">
        <ele>1180</ele>
        <time>1970-01-01T00:30:20.000Z</time>
      </trkpt>
      <trkpt lat="47.91285" lon="7.04709">
        <ele>1180.5</ele>
        <time>1970-01-01T00:30:33.000Z</time>
      </trkpt>
      <trkpt lat="47.91277" lon="7.04702">
        <ele>1181</ele>
        <time>1970-01-01T00:30:45.000Z</time>
      </trkpt>
      <trkpt lat="47.91281" lon="7.04714">
        <ele>1181.7</ele>
        <time>1970-01-01T00:33:05.000Z</time>
      </trkpt>
      <trkpt lat="47.91284" lon="7.04727">
        <ele>1182.4</ele>
        <time>1970-01-01T00:33:32.000Z</time>
      </trkpt>
      <trkpt lat="47.9128" lon="7.0474">
        <ele>1182.7</ele>
        <time>1970-01-01T00:33:42.000Z</time>
      </trkpt>
      <trkpt lat="47.91276" lon="7.04752">
        <ele>1182.7</ele>
        <time>1970-01-01T00:33:52.000Z</time>
      </trkpt>
      <trkpt lat="47.91273" lon="7.04766">
        <ele>1182.7</ele>
        <time>1970-01-01T00:34:02.000Z</time>
      </trkpt>
      <trkpt lat="47.9127" lon="7.04779">
        <ele>1182.2</ele>
        <time>1970-01-01T00:34:13.000Z</time>
      </trkpt>
      <trkpt lat="47.91266" lon="7.04792">
        <ele>1181.1</ele>
        <time>1970-01-01T00:34:24.000Z</time>
      </trkpt>
      <trkpt lat="47.91262" lon="7.04803">
        <ele>1180</ele>
        <time>1970-01-01T00:34:34.000Z</time>
      </trkpt>
      <trkpt lat="47.91258" lon="7.04817">
        <ele>1178.3</ele>
        <time>1970-01-01T00:34:45.000Z</time>
      </trkpt>
      <trkpt lat="47.91255" lon="7.0483">
        <ele>1176.6</ele>
        <time>1970-01-01T00:34:54.000Z</time>
      </trkpt>
      <trkpt lat="47.91251" lon="7.04843">
        <ele>1175</ele>
        <time>1970-01-01T00:35:03.000Z</time>
      </trkpt>
      <trkpt lat="47.91244" lon="7.04852">
        <ele>1173.8</ele>
        <time>1970-01-01T00:35:15.000Z</time>
      </trkpt>
      <trkpt lat="47.91236" lon="7.04861">
        <ele>1172.8</ele>
        <time>1970-01-01T00:35:24.000Z</time>
      </trkpt>
      <trkpt lat="47.91229" lon="7.0487">
        <ele>1172.2</ele>
        <time>1970-01-01T00:35:32.000Z</time>
      </trkpt>
      <trkpt lat="47.91221" lon="7.04878">
        <ele>1171.8</ele>
        <time>1970-01-01T00:35:41.000Z</time>
      </trkpt>
      <trkpt lat="47.91216" lon="7.0489">
        <ele>1171.5</ele>
        <time>1970-01-01T00:35:50.000Z</time>
      </trkpt>
      <trkpt lat="47.91208" lon="7.04898">
        <ele>1171.3</ele>
        <time>1970-01-01T00:35:58.000Z</time>
      </trkpt>
      <trkpt lat="47.91204" lon="7.0491">
        <ele>1171</ele>
        <time>1970-01-01T00:36:07.000Z</time>
      </trkpt>
      <trkpt lat="47.91198" lon="7.0492">
        <ele>1170.6</ele>
        <time>1970-01-01T00:36:20.000Z</time>
      </trkpt>
      <trkpt lat="47.9119" lon="7.04929">
        <ele>1170.2</ele>
        <time>1970-01-01T00:36:35.000Z</time>
      </trkpt>
      <trkpt lat="47.91182" lon="7.04938">
        <ele>1169.7</ele>
        <time>1970-01-01T00:36:44.000Z</time>
      </trkpt>
      <trkpt lat="47.91175" lon="7.04948">
        <ele>1169.5</ele>
        <time>1970-01-01T00:36:55.000Z</time>
      </trkpt>
      <trkpt lat="47.91168" lon="7.04957">
        <ele>1169.5</ele>
        <time>1970-01-01T00:37:09.000Z</time>
      </trkpt>
      <trkpt lat="47.9116" lon="7.04963">
        <ele>1169.7</ele>
        <time>1970-01-01T00:37:19.000Z</time>
      </trkpt>
      <trkpt lat="47.91153" lon="7.04973">
        <ele>1170</ele>
        <time>1970-01-01T00:37:29.000Z</time>
      </trkpt>
      <trkpt lat="47.91146" lon="7.04982">
        <ele>1170.5</ele>
        <time>1970-01-01T00:37:41.000Z</time>
      </trkpt>
      <trkpt lat="47.91139" lon="7.04992">
        <ele>1171.1</ele>
        <time>1970-01-01T00:37:52.000Z</time>
      </trkpt>
      <trkpt lat="47.91131" lon="7.05">
        <ele>1171.9</ele>
        <time>1970-01-01T00:38:04.000Z</time>
      </trkpt>
      <trkpt lat="47.91126" lon="7.05009">
        <ele>1172.5</ele>
        <time>1970-01-01T00:38:18.000Z</time>
      </trkpt>
      <trkpt lat="47.91119" lon="7.05018">
        <ele>1173.4</ele>
        <time>1970-01-01T00:38:32.000Z</time>
      </trkpt>
      <trkpt lat="47.91113" lon="7.05029">
        <ele>1174.3</ele>
        <time>1970-01-01T00:38:43.000Z</time>
      </trkpt>
      <trkpt lat="47.91108" lon="7.05041">
        <ele>1175.2</ele>
        <time>1970-01-01T00:38:54.000Z</time>
      </trkpt>
      <trkpt lat="47.911" lon="7.05047">
        <ele>1176.2</ele>
        <time>1970-01-01T00:39:06.000Z</time>
      </trkpt>
      <trkpt lat="47.91092" lon="7.05057">
        <ele>1177.3</ele>
        <time>1970-01-01T00:39:17.000Z</time>
      </trkpt>
      <trkpt lat="47.91085" lon="7.05064">
        <ele>1178.4</ele>
        <time>1970-01-01T00:39:27.000Z</time>
      </trkpt>
      <trkpt lat="47.91079" lon="7.05076">
        <ele>1179.9</ele>
        <time>1970-01-01T00:39:37.000Z</time>
      </trkpt>
      <trkpt lat="47.91074" lon="7.05088">
        <ele>1181.4</ele>
        <time>1970-01-01T00:39:48.000Z</time>
      </trkpt>
      <trkpt lat="47.91072" lon="7.05102">
        <ele>1182.6</ele>
        <time>1970-01-01T00:39:58.000Z</time>
      </trkpt>
      <trkpt lat="47.91071" lon="7.05116">
        <ele>1183.3</ele>
        <time>1970-01-01T00:40:08.000Z</time>
      </trkpt>
      <trkpt lat="47.9107" lon="7.0513">
        <ele>1183.7</ele>
        <time>1970-01-01T00:40:18.000Z</time>
      </trkpt>
      <trkpt lat="47.9107" lon="7.05144">
        <ele>1183.9</ele>
        <time>1970-01-01T00:40:27.000Z</time>
      </trkpt>
      <trkpt lat="47.91069" lon="7.05159">
        <ele>1183.8</ele>
        <time>1970-01-01T00:40:37.000Z</time>
      </trkpt>
      <trkpt lat="47.91068" lon="7.05173">
        <ele>1183.7</ele>
        <time>1970-01-01T00:40:46.000Z</time>
      </trkpt>
      <trkpt lat="47.91067" lon="7.05187">
        <ele>1183.3</ele>
        <time>1970-01-01T00:40:55.000Z</time>
      </trkpt>
      <trkpt lat="47.91066" lon="7.05201">
        <ele>1182.8</ele>
        <time>1970-01-01T00:41:03.000Z</time>
      </trkpt>
      <trkpt lat="47.91065" lon="7.05215">
        <ele>1182.2</ele>
        <time>1970-01-01T00:41:11.000Z</time>
      </trkpt>
      <trkpt lat="47.91065" lon="7.05228">
        <ele>1181.5</ele>
        <time>1970-01-01T00:41:19.000Z</time>
      </trkpt>
      <trkpt lat="47.91066" lon="7.05242">
        <ele>1180.8</ele>
        <time>1970-01-01T00:41:28.000Z</time>
      </trkpt>
      <trkpt lat="47.91066" lon="7.05256">
        <ele>1180.1</ele>
        <time>1970-01-01T00:41:38.000Z</time>
      </trkpt>
      <trkpt lat="47.91065" lon="7.05269">
        <ele>1179.4</ele>
        <time>1970-01-01T00:41:49.000Z</time>
      </trkpt>
      <trkpt lat="47.91066" lon="7.05283">
        <ele>1178.7</ele>
        <time>1970-01-01T00:42:00.000Z</time>
      </trkpt>
      <trkpt lat="47.91071" lon="7.05294">
        <ele>1178</ele>
        <time>1970-01-01T00:42:13.000Z</time>
      </trkpt>
      <trkpt lat="47.91072" lon="7.05307">
        <ele>1177.3</ele>
        <time>1970-01-01T00:42:26.000Z</time>
      </trkpt>
      <trkpt lat="47.91072" lon="7.0532">
        <ele>1176.5</ele>
        <time>1970-01-01T00:42:41.000Z</time>
      </trkpt>
      <trkpt lat="47.91068" lon="7.05332">
        <ele>1175.8</ele>
        <time>1970-01-01T00:42:54.000Z</time>
      </trkpt>
      <trkpt lat="47.91066" lon="7.05346">
        <ele>1175.3</ele>
        <time>1970-01-01T00:43:05.000Z</time>
      </trkpt>
      <trkpt lat="47.91066" lon="7.0536">
        <ele>1174.9</ele>
        <time>1970-01-01T00:43:17.000Z</time>
      </trkpt>
      <trkpt lat="47.91067" lon="7.05374">
        <ele>1175.1</ele>
        <time>1970-01-01T00:43:29.000Z</time>
      </trkpt>
      <trkpt lat="47.9107" lon="7.05386">
        <ele>1175.7</ele>
        <time>1970-01-01T00:43:41.000Z</time>
      </trkpt>
      <trkpt lat="47.91071" lon="7.054">
        <ele>1176.7</ele>
        <time>1970-01-01T00:43:55.000Z</time>
      </trkpt>
      <trkpt lat="47.91071" lon="7.05415">
        <ele>1178</ele>
        <time>1970-01-01T00:44:08.000Z</time>
      </trkpt>
      <trkpt lat="47.91071" lon="7.05428">
        <ele>1179.6</ele>
        <time>1970-01-01T00:44:21.000Z</time>
      </trkpt>
      <trkpt lat="47.91073" lon="7.05441">
        <ele>1181.4</ele>
        <time>1970-01-01T00:44:32.000Z</time>
      </trkpt>
      <trkpt lat="47.91074" lon="7.05456">
        <ele>1183.5</ele>
        <time>1970-01-01T00:44:44.000Z</time>
      </trkpt>
      <trkpt lat="47.91075" lon="7.05469">
        <ele>1185.5</ele>
        <time>1970-01-01T00:44:55.000Z</time>
      </trkpt>
      <trkpt lat="47.91077" lon="7.05483">
        <ele>1187.7</ele>
        <time>1970-01-01T00:45:06.000Z</time>
      </trkpt>
      <trkpt lat="47.91079" lon="7.05497">
        <ele>1190.2</ele>
        <time>1970-01-01T00:45:16.000Z</time>
      </trkpt>
      <trkpt lat="47.9108" lon="7.0551">
        <ele>1192.4</ele>
        <time>1970-01-01T00:45:27.000Z</time>
      </trkpt>
      <trkpt lat="47.9108" lon="7.05525">
        <ele>1194.2</ele>
        <time>1970-01-01T00:45:38.000Z</time>
      </trkpt>
      <trkpt lat="47.91082" lon="7.05538">
        <ele>1195.4</ele>
        <time>1970-01-01T00:45:46.000Z</time>
      </trkpt>
      <trkpt lat="47.91083" lon="7.05553">
        <ele>1196.6</ele>
        <time>1970-01-01T00:45:54.000Z</time>
      </trkpt>
      <trkpt lat="47.91083" lon="7.05567">
        <ele>1197.7</ele>
        <time>1970-01-01T00:46:03.000Z</time>
      </trkpt>
      <trkpt lat="47.91083" lon="7.05581">
        <ele>1198.6</ele>
        <time>1970-01-01T00:46:12.000Z</time>
      </trkpt>
      <trkpt lat="47.91082" lon="7.05594">
        <ele>1199.4</ele>
        <time>1970-01-01T00:46:22.000Z</time>
      </trkpt>
      <trkpt lat="47.91081" lon="7.05607">
        <ele>1200.1</ele>
        <time>1970-01-01T00:46:33.000Z</time>
      </trkpt>
      <trkpt lat="47.9108" lon="7.05621">
        <ele>1200.6</ele>
        <time>1970-01-01T00:46:44.000Z</time>
      </trkpt>
      <trkpt lat="47.91081" lon="7.05636">
        <ele>1200.9</ele>
        <time>1970-01-01T00:46:54.000Z</time>
      </trkpt>
      <trkpt lat="47.91082" lon="7.0565">
        <ele>1201.2</ele>
        <time>1970-01-01T00:47:02.000Z</time>
      </trkpt>
      <trkpt lat="47.91079" lon="7.05664">
        <ele>1201.3</ele>
        <time>1970-01-01T00:47:12.000Z</time>
      </trkpt>
      <trkpt lat="47.91079" lon="7.05678">
        <ele>1201.3</ele>
        <time>1970-01-01T00:47:20.000Z</time>
      </trkpt>
      <trkpt lat="47.91078" lon="7.05692">
        <ele>1201.3</ele>
        <time>1970-01-01T00:47:30.000Z</time>
      </trkpt>
      <trkpt lat="47.9108" lon="7.05705">
        <ele>1201.3</ele>
        <time>1970-01-01T00:47:40.000Z</time>
      </trkpt>
      <trkpt lat="47.91079" lon="7.05719">
        <ele>1201.3</ele>
        <time>1970-01-01T00:47:53.000Z</time>
      </trkpt>
      <trkpt lat="47.91082" lon="7.05733">
        <ele>1201.2</ele>
        <time>1970-01-01T00:48:02.000Z</time>
      </trkpt>
      <trkpt lat="47.91083" lon="7.05746">
        <ele>1201</ele>
        <time>1970-01-01T00:48:12.000Z</time>
      </trkpt>
      <trkpt lat="47.91085" lon="7.05759">
        <ele>1200.6</ele>
        <time>1970-01-01T00:48:24.000Z</time>
      </trkpt>
      <trkpt lat="47.91088" lon="7.05772">
        <ele>1200</ele>
        <time>1970-01-01T00:48:36.000Z</time>
      </trkpt>
      <trkpt lat="47.91093" lon="7.05784">
        <ele>1199.3</ele>
        <time>1970-01-01T00:48:46.000Z</time>
      </trkpt>
      <trkpt lat="47.91091" lon="7.05799">
        <ele>1198.4</ele>
        <time>1970-01-01T00:48:55.000Z</time>
      </trkpt>
      <trkpt lat="47.91091" lon="7.05813">
        <ele>1197.8</ele>
        <time>1970-01-01T00:49:07.000Z</time>
      </trkpt>
      <trkpt lat="47.91092" lon="7.05827">
        <ele>1197.4</ele>
        <time>1970-01-01T00:49:18.000Z</time>
      </trkpt>
      <trkpt lat="47.91093" lon="7.05842">
        <ele>1197.4</ele>
        <time>1970-01-01T00:49:26.000Z</time>
      </trkpt>
      <trkpt lat="47.91096" lon="7.05855">
        <ele>1197.6</ele>
        <time>1970-01-01T00:49:36.000Z</time>
      </trkpt>
      <trkpt lat="47.91103" lon="7.05865">
        <ele>1198.1</ele>
        <time>1970-01-01T00:49:45.000Z</time>
      </trkpt>
      <trkpt lat="47.91107" lon="7.05877">
        <ele>1198.7</ele>
        <time>1970-01-01T00:49:55.000Z</time>
      </trkpt>
      <trkpt lat="47.91115" lon="7.05885">
        <ele>1199.4</ele>
        <time>1970-01-01T00:50:06.000Z</time>
      </trkpt>
      <trkpt lat="47.9112" lon="7.05897">
        <ele>1200.1</ele>
        <time>1970-01-01T00:50:16.000Z</time>
      </trkpt>
      <trkpt lat="47.91123" lon="7.0591">
        <ele>1200.7</ele>
        <time>1970-01-01T00:50:26.000Z</time>
      </trkpt>
      <trkpt lat="47.91129" lon="7.0592">
        <ele>1201</ele>
        <time>1970-01-01T00:50:33.000Z</time>
      </trkpt>
      <trkpt lat="47.91135" lon="7.05931">
        <ele>1201.2</ele>
        <time>1970-01-01T00:50:41.000Z</time>
      </trkpt>
      <trkpt lat="47.91138" lon="7.05944">
        <ele>1201.2</ele>
        <time>1970-01-01T00:50:49.000Z</time>
      </trkpt>
      <trkpt lat="47.9114" lon="7.05957">
        <ele>1201.2</ele>
        <time>1970-01-01T00:50:57.000Z</time>
      </trkpt>
      <trkpt lat="47.91145" lon="7.05969">
        <ele>1201</ele>
        <time>1970-01-01T00:51:07.000Z</time>
      </trkpt>
      <trkpt lat="47.91148" lon="7.05982">
        <ele>1200.7</ele>
        <time>1970-01-01T00:51:14.000Z</time>
      </trkpt>
      <trkpt lat="47.91151" lon="7.05995">
        <ele>1200.3</ele>
        <time>1970-01-01T00:51:22.000Z</time>
      </trkpt>
      <trkpt lat="47.91153" lon="7.06008">
        <ele>1199.9</ele>
        <time>1970-01-01T00:51:29.000Z</time>
      </trkpt>
      <trkpt lat="47.91155" lon="7.06022">
        <ele>1199.9</ele>
        <time>1970-01-01T00:51:39.000Z</time>
      </trkpt>
      <trkpt lat="47.91157" lon="7.06035">
        <ele>1200</ele>
        <time>1970-01-01T00:51:47.000Z</time>
      </trkpt>
      <trkpt lat="47.91157" lon="7.06049">
        <ele>1200.2</ele>
        <time>1970-01-01T00:51:56.000Z</time>
      </trkpt>
      <trkpt lat="47.91158" lon="7.06064">
        <ele>1200.4</ele>
        <time>1970-01-01T00:52:07.000Z</time>
      </trkpt>
      <trkpt lat="47.91155" lon="7.06078">
        <ele>1200.6</ele>
        <time>1970-01-01T00:52:17.000Z</time>
      </trkpt>
      <trkpt lat="47.91153" lon="7.06091">
        <ele>1200.5</ele>
        <time>1970-01-01T00:52:27.000Z</time>
      </trkpt>
      <trkpt lat="47.91151" lon="7.06104">
        <ele>1200.4</ele>
        <time>1970-01-01T00:52:37.000Z</time>
      </trkpt>
      <trkpt lat="47.91148" lon="7.06117">
        <ele>1200.2</ele>
        <time>1970-01-01T00:52:49.000Z</time>
      </trkpt>
      <trkpt lat="47.91145" lon="7.06131">
        <ele>1200</ele>
        <time>1970-01-01T00:53:00.000Z</time>
      </trkpt>
      <trkpt lat="47.9114" lon="7.06143">
        <ele>1200</ele>
        <time>1970-01-01T00:53:07.000Z</time>
      </trkpt>
      <trkpt lat="47.91135" lon="7.06155">
        <ele>1200.2</ele>
        <time>1970-01-01T00:53:16.000Z</time>
      </trkpt>
      <trkpt lat="47.91133" lon="7.06169">
        <ele>1200.5</ele>
        <time>1970-01-01T00:53:29.000Z</time>
      </trkpt>
      <trkpt lat="47.91128" lon="7.06181">
        <ele>1200.8</ele>
        <time>1970-01-01T00:53:39.000Z</time>
      </trkpt>
      <trkpt lat="47.91125" lon="7.06194">
        <ele>1201</ele>
        <time>1970-01-01T00:53:49.000Z</time>
      </trkpt>
      <trkpt lat="47.9112" lon="7.06207">
        <ele>1201</ele>
        <time>1970-01-01T00:53:56.000Z</time>
      </trkpt>
      <trkpt lat="47.91117" lon="7.06222">
        <ele>1201</ele>
        <time>1970-01-01T00:54:12.000Z</time>
      </trkpt>
      <trkpt lat="47.91114" lon="7.06235">
        <ele>1200.9</ele>
        <time>1970-01-01T00:54:20.000Z</time>
      </trkpt>
      <trkpt lat="47.91113" lon="7.06248">
        <ele>1200.8</ele>
        <time>1970-01-01T00:54:29.000Z</time>
      </trkpt>
      <trkpt lat="47.91111" lon="7.06262">
        <ele>1200.7</ele>
        <time>1970-01-01T00:54:38.000Z</time>
      </trkpt>
      <trkpt lat="47.91107" lon="7.06275">
        <ele>1200.5</ele>
        <time>1970-01-01T00:54:48.000Z</time>
      </trkpt>
      <trkpt lat="47.91109" lon="7.06288">
        <ele>1200.4</ele>
        <time>1970-01-01T00:54:59.000Z</time>
      </trkpt>
      <trkpt lat="47.9111" lon="7.06301">
        <ele>1200.2</ele>
        <time>1970-01-01T00:55:10.000Z</time>
      </trkpt>
      <trkpt lat="47.91111" lon="7.06315">
        <ele>1200.1</ele>
        <time>1970-01-01T00:55:23.000Z</time>
      </trkpt>
      <trkpt lat="47.9111" lon="7.06329">
        <ele>1199.9</ele>
        <time>1970-01-01T00:55:32.000Z</time>
      </trkpt>
      <trkpt lat="47.91112" lon="7.06343">
        <ele>1199.7</ele>
        <time>1970-01-01T00:55:39.000Z</time>
      </trkpt>
      <trkpt lat="47.91109" lon="7.06356">
        <ele>1199.4</ele>
        <time>1970-01-01T00:55:51.000Z</time>
      </trkpt>
      <trkpt lat="47.91106" lon="7.0637">
        <ele>1199.1</ele>
        <time>1970-01-01T00:56:01.000Z</time>
      </trkpt>
      <trkpt lat="47.91101" lon="7.06381">
        <ele>1198.8</ele>
        <time>1970-01-01T00:56:09.000Z</time>
      </trkpt>
      <trkpt lat="47.91095" lon="7.06393">
        <ele>1198.5</ele>
        <time>1970-01-01T00:56:22.000Z</time>
      </trkpt>
      <trkpt lat="47.91088" lon="7.06402">
        <ele>1198.4</ele>
        <time>1970-01-01T00:56:29.000Z</time>
      </trkpt>
      <trkpt lat="47.91086" lon="7.06415">
        <ele>1198.3</ele>
        <time>1970-01-01T00:56:36.000Z</time>
      </trkpt>
      <trkpt lat="47.91081" lon="7.06427">
        <ele>1198.3</ele>
        <time>1970-01-01T00:56:44.000Z</time>
      </trkpt>
      <trkpt lat="47.91077" lon="7.06438">
        <ele>1198.3</ele>
        <time>1970-01-01T00:56:53.000Z</time>
      </trkpt>
      <trkpt lat="47.91072" lon="7.0645">
        <ele>1198.3</ele>
        <time>1970-01-01T00:57:01.000Z</time>
      </trkpt>
      <trkpt lat="47.91067" lon="7.06464">
        <ele>1198.2</ele>
        <time>1970-01-01T00:57:08.000Z</time>
      </trkpt>
      <trkpt lat="47.91064" lon="7.06477">
        <ele>1198.1</ele>
        <time>1970-01-01T00:57:21.000Z</time>
      </trkpt>
      <trkpt lat="47.91059" lon="7.06488">
        <ele>1198</ele>
        <time>1970-01-01T00:57:29.000Z</time>
      </trkpt>
      <trkpt lat="47.91053" lon="7.06498">
        <ele>1198.1</ele>
        <time>1970-01-01T00:57:37.000Z</time>
      </trkpt>
      <trkpt lat="47.91048" lon="7.0651">
        <ele>1198.2</ele>
        <time>1970-01-01T00:57:46.000Z</time>
      </trkpt>
      <trkpt lat="47.91042" lon="7.0652">
        <ele>1198.3</ele>
        <time>1970-01-01T00:57:54.000Z</time>
      </trkpt>
      <trkpt lat="47.91036" lon="7.06531">
        <ele>1198.3</ele>
        <time>1970-01-01T00:58:04.000Z</time>
      </trkpt>
      <trkpt lat="47.9103" lon="7.06541">
        <ele>1198.1</ele>
        <time>1970-01-01T00:58:12.000Z</time>
      </trkpt>
      <trkpt lat="47.91023" lon="7.06552">
        <ele>1197.9</ele>
        <time>1970-01-01T00:58:21.000Z</time>
      </trkpt>
      <trkpt lat="47.91017" lon="7.06564">
        <ele>1197.6</ele>
        <time>1970-01-01T00:58:30.000Z</time>
      </trkpt>
      <trkpt lat="47.91011" lon="7.06574">
        <ele>1197.5</ele>
        <time>1970-01-01T00:58:39.000Z</time>
      </trkpt>
      <trkpt lat="47.91005" lon="7.06584">
        <ele>1197.4</ele>
        <time>1970-01-01T00:58:47.000Z</time>
      </trkpt>
      <trkpt lat="47.91" lon="7.06596">
        <ele>1197.2</ele>
        <time>1970-01-01T00:58:56.000Z</time>
      </trkpt>
      <trkpt lat="47.90994" lon="7.06607">
        <ele>1196.8</ele>
        <time>1970-01-01T00:59:05.000Z</time>
      </trkpt>
      <trkpt lat="47.90987" lon="7.06616">
        <ele>1196.2</ele>
        <time>1970-01-01T00:59:13.000Z</time>
      </trkpt>
      <trkpt lat="47.90982" lon="7.06627">
        <ele>1195.5</ele>
        <time>1970-01-01T00:59:22.000Z</time>
      </trkpt>
      <trkpt lat="47.90975" lon="7.06636">
        <ele>1194.7</ele>
        <time>1970-01-01T00:59:31.000Z</time>
      </trkpt>
      <trkpt lat="47.90967" lon="7.06645">
        <ele>1193.9</ele>
        <time>1970-01-01T00:59:40.000Z</time>
      </trkpt>
      <trkpt lat="47.90959" lon="7.06654">
        <ele>1193.1</ele>
        <time>1970-01-01T00:59:49.000Z</time>
      </trkpt>
      <trkpt lat="47.90953" lon="7.06664">
        <ele>1192.4</ele>
        <time>1970-01-01T00:59:59.000Z</time>
      </trkpt>
      <trkpt lat="47.90946" lon="7.06673">
        <ele>1191.5</ele>
        <time>1970-01-01T01:00:10.000Z</time>
      </trkpt>
      <trkpt lat="47.90939" lon="7.06683">
        <ele>1190.4</ele>
        <time>1970-01-01T01:00:19.000Z</time>
      </trkpt>
      <trkpt lat="47.90932" lon="7.06693">
        <ele>1189.6</ele>
        <time>1970-01-01T01:00:28.000Z</time>
      </trkpt>
      <trkpt lat="47.90923" lon="7.06701">
        <ele>1189.3</ele>
        <time>1970-01-01T01:00:37.000Z</time>
      </trkpt>
      <trkpt lat="47.90916" lon="7.06711">
        <ele>1189.2</ele>
        <time>1970-01-01T01:00:46.000Z</time>
      </trkpt>
      <trkpt lat="47.90908" lon="7.06718">
        <ele>1189.1</ele>
        <time>1970-01-01T01:00:55.000Z</time>
      </trkpt>
      <trkpt lat="47.90898" lon="7.06724">
        <ele>1188.9</ele>
        <time>1970-01-01T01:01:04.000Z</time>
      </trkpt>
      <trkpt lat="47.90889" lon="7.06729">
        <ele>1188.8</ele>
        <time>1970-01-01T01:01:13.000Z</time>
      </trkpt>
      <trkpt lat="47.90881" lon="7.06737">
        <ele>1188.7</ele>
        <time>1970-01-01T01:01:23.000Z</time>
      </trkpt>
      <trkpt lat="47.90873" lon="7.06746">
        <ele>1188.5</ele>
        <time>1970-01-01T01:01:32.000Z</time>
      </trkpt>
      <trkpt lat="47.90866" lon="7.06754">
        <ele>1188.4</ele>
        <time>1970-01-01T01:01:41.000Z</time>
      </trkpt>
      <trkpt lat="47.90858" lon="7.0676">
        <ele>1188.3</ele>
        <time>1970-01-01T01:01:54.000Z</time>
      </trkpt>
      <trkpt lat="47.90849" lon="7.06766">
        <ele>1188.1</ele>
        <time>1970-01-01T01:02:04.000Z</time>
      </trkpt>
      <trkpt lat="47.9084" lon="7.06766">
        <ele>1188.2</ele>
        <time>1970-01-01T01:02:17.000Z</time>
      </trkpt>
      <trkpt lat="47.90832" lon="7.06774">
        <ele>1188.4</ele>
        <time>1970-01-01T01:06:32.000Z</time>
      </trkpt>
      <trkpt lat="47.90825" lon="7.06783">
        <ele>1188.7</ele>
        <time>1970-01-01T01:06:41.000Z</time>
      </trkpt>
      <trkpt lat="47.90817" lon="7.06792">
        <ele>1189</ele>
        <time>1970-01-01T01:06:51.000Z</time>
      </trkpt>
      <trkpt lat="47.90809" lon="7.06796">
        <ele>1189.3</ele>
        <time>1970-01-01T01:07:00.000Z</time>
      </trkpt>
      <trkpt lat="47.908" lon="7.06799">
        <ele>1189.6</ele>
        <time>1970-01-01T01:07:09.000Z</time>
      </trkpt>
      <trkpt lat="47.90791" lon="7.06804">
        <ele>1190</ele>
        <time>1970-01-01T01:07:19.000Z</time>
      </trkpt>
      <trkpt lat="47.90786" lon="7.06816">
        <ele>1190.5</ele>
        <time>1970-01-01T01:07:28.000Z</time>
      </trkpt>
      <trkpt lat="47.90779" lon="7.06825">
        <ele>1191.2</ele>
        <time>1970-01-01T01:07:37.000Z</time>
      </trkpt>
      <trkpt lat="47.90771" lon="7.06833">
        <ele>1192.1</ele>
        <time>1970-01-01T01:07:47.000Z</time>
      </trkpt>
      <trkpt lat="47.90763" lon="7.06842">
        <ele>1193.2</ele>
        <time>1970-01-01T01:07:58.000Z</time>
      </trkpt>
      <trkpt lat="47.90755" lon="7.06849">
        <ele>1194.4</ele>
        <time>1970-01-01T01:08:10.000Z</time>
      </trkpt>
      <trkpt lat="47.90747" lon="7.06857">
        <ele>1195.5</ele>
        <time>1970-01-01T01:08:23.000Z</time>
      </trkpt>
      <trkpt lat="47.90739" lon="7.06864">
        <ele>1196.7</ele>
        <time>1970-01-01T01:08:36.000Z</time>
      </trkpt>
      <trkpt lat="47.90731" lon="7.06871">
        <ele>1197.9</ele>
        <time>1970-01-01T01:08:48.000Z</time>
      </trkpt>
      <trkpt lat="47.90723" lon="7.06878">
        <ele>1199.1</ele>
        <time>1970-01-01T01:09:01.000Z</time>
      </trkpt>
      <trkpt lat="47.90715" lon="7.06886">
        <ele>1200.1</ele>
        <time>1970-01-01T01:09:14.000Z</time>
      </trkpt>
      <trkpt lat="47.90708" lon="7.06894">
        <ele>1201.1</ele>
        <time>1970-01-01T01:09:26.000Z</time>
      </trkpt>
      <trkpt lat="47.90702" lon="7.06904">
        <ele>1202</ele>
        <time>1970-01-01T01:09:38.000Z</time>
      </trkpt>
      <trkpt lat="47.90696" lon="7.06916">
        <ele>1203.1</ele>
        <time>1970-01-01T01:09:51.000Z</time>
      </trkpt>
      <trkpt lat="47.90691" lon="7.06927">
        <ele>1204.2</ele>
        <time>1970-01-01T01:10:04.000Z</time>
      </trkpt>
      <trkpt lat="47.90685" lon="7.06939">
        <ele>1205.6</ele>
        <time>1970-01-01T01:10:17.000Z</time>
      </trkpt>
      <trkpt lat="47.90679" lon="7.06949">
        <ele>1206.9</ele>
        <time>1970-01-01T01:10:30.000Z</time>
      </trkpt>
      <trkpt lat="47.90674" lon="7.0696">
        <ele>1208.4</ele>
        <time>1970-01-01T01:10:42.000Z</time>
      </trkpt>
      <trkpt lat="47.90669" lon="7.06972">
        <ele>1210.1</ele>
        <time>1970-01-01T01:10:56.000Z</time>
      </trkpt>
      <trkpt lat="47.9066" lon="7.06976">
        <ele>1211.8</ele>
        <time>1970-01-01T01:11:11.000Z</time>
      </trkpt>
      <trkpt lat="47.90653" lon="7.06984">
        <ele>1213.6</ele>
        <time>1970-01-01T01:11:24.000Z</time>
      </trkpt>
      <trkpt lat="47.90644" lon="7.06987">
        <ele>1215.3</ele>
        <time>1970-01-01T01:11:39.000Z</time>
      </trkpt>
      <trkpt lat="47.90636" lon="7.06992">
        <ele>1216.7</ele>
        <time>1970-01-01T01:11:52.000Z</time>
      </trkpt>
      <trkpt lat="47.90626" lon="7.06994">
        <ele>1218</ele>
        <time>1970-01-01T01:12:05.000Z</time>
      </trkpt>
      <trkpt lat="47.90617" lon="7.06999">
        <ele>1219.2</ele>
        <time>1970-01-01T01:12:18.000Z</time>
      </trkpt>
      <trkpt lat="47.90609" lon="7.07003">
        <ele>1220.2</ele>
        <time>1970-01-01T01:12:30.000Z</time>
      </trkpt>
      <trkpt lat="47.906" lon="7.07006">
        <ele>1221.1</ele>
        <time>1970-01-01T01:12:42.000Z</time>
      </trkpt>
      <trkpt lat="47.9059" lon="7.07007">
        <ele>1222.4</ele>
        <time>1970-01-01T01:12:56.000Z</time>
      </trkpt>
      <trkpt lat="47.90581" lon="7.0701">
        <ele>1224.2</ele>
        <time>1970-01-01T01:13:10.000Z</time>
      </trkpt>
      <trkpt lat="47.90573" lon="7.07014">
        <ele>1226.3</ele>
        <time>1970-01-01T01:13:26.000Z</time>
      </trkpt>
      <trkpt lat="47.90565" lon="7.07019">
        <ele>1229</ele>
        <time>1970-01-01T01:13:44.000Z</time>
      </trkpt>
      <trkpt lat="47.90556" lon="7.07023">
        <ele>1231.9</ele>
        <time>1970-01-01T01:14:05.000Z</time>
      </trkpt>
      <trkpt lat="47.90548" lon="7.07027">
        <ele>1234.7</ele>
        <time>1970-01-01T01:14:27.000Z</time>
      </trkpt>
      <trkpt lat="47.90543" lon="7.07037">
        <ele>1237.5</ele>
        <time>1970-01-01T01:14:49.000Z</time>
      </trkpt>
      <trkpt lat="47.90536" lon="7.07045">
        <ele>1240.4</ele>
        <time>1970-01-01T01:15:12.000Z</time>
      </trkpt>
      <trkpt lat="47.90527" lon="7.07046">
        <ele>1243.1</ele>
        <time>1970-01-01T01:15:32.000Z</time>
      </trkpt>
      <trkpt lat="47.9052" lon="7.07052">
        <ele>1245.5</ele>
        <time>1970-01-01T01:15:53.000Z</time>
      </trkpt>
      <trkpt lat="47.90512" lon="7.07061">
        <ele>1247.3</ele>
        <time>1970-01-01T01:16:10.000Z</time>
      </trkpt>
      <trkpt lat="47.90512" lon="7.07075">
        <ele>1248.9</ele>
        <time>1970-01-01T01:16:32.000Z</time>
      </trkpt>
      <trkpt lat="47.90511" lon="7.07088">
        <ele>1251.1</ele>
        <time>1970-01-01T01:16:48.000Z</time>
      </trkpt>
      <trkpt lat="47.90508" lon="7.071">
        <ele>1253.1</ele>
        <time>1970-01-01T01:17:09.000Z</time>
      </trkpt>
      <trkpt lat="47.90507" lon="7.07113">
        <ele>1254.7</ele>
        <time>1970-01-01T01:17:24.000Z</time>
      </trkpt>
      <trkpt lat="47.90505" lon="7.07127">
        <ele>1256.1</ele>
        <time>1970-01-01T01:21:29.000Z</time>
      </trkpt>
      <trkpt lat="47.90507" lon="7.0714">
        <ele>1257.4</ele>
        <time>1970-01-01T01:21:41.000Z</time>
      </trkpt>
      <trkpt lat="47.9051" lon="7.07153">
        <ele>1258.6</ele>
        <time>1970-01-01T01:21:51.000Z</time>
      </trkpt>
      <trkpt lat="47.90506" lon="7.07165">
        <ele>1259.7</ele>
        <time>1970-01-01T01:22:04.000Z</time>
      </trkpt>
      <trkpt lat="47.90503" lon="7.07179">
        <ele>1260.9</ele>
        <time>1970-01-01T01:22:14.000Z</time>
      </trkpt>
      <trkpt lat="47.90503" lon="7.07193">
        <ele>1262.3</ele>
        <time>1970-01-01T01:22:24.000Z</time>
      </trkpt>
      <trkpt lat="47.90501" lon="7.07206">
        <ele>1263.9</ele>
        <time>1970-01-01T01:22:38.000Z</time>
      </trkpt>
      <trkpt lat="47.90499" lon="7.07219">
        <ele>1265.5</ele>
        <time>1970-01-01T01:22:57.000Z</time>
      </trkpt>
      <trkpt lat="47.90494" lon="7.0723">
        <ele>1266.8</ele>
        <time>1970-01-01T01:23:11.000Z</time>
      </trkpt>
      <trkpt lat="47.90494" lon="7.07244">
        <ele>1267.7</ele>
        <time>1970-01-01T01:23:25.000Z</time>
      </trkpt>
      <trkpt lat="47.90491" lon="7.07257">
        <ele>1268.2</ele>
        <time>1970-01-01T01:23:37.000Z</time>
      </trkpt>
      <trkpt lat="47.90489" lon="7.0727">
        <ele>1268.5</ele>
        <time>1970-01-01T01:23:48.000Z</time>
      </trkpt>
      <trkpt lat="47.90482" lon="7.0728">
        <ele>1268.8</ele>
        <time>1970-01-01T01:23:57.000Z</time>
      </trkpt>
      <trkpt lat="47.90477" lon="7.07291">
        <ele>1269.4</ele>
        <time>1970-01-01T01:24:09.000Z</time>
      </trkpt>
      <trkpt lat="47.90471" lon="7.07302">
        <ele>1270.1</ele>
        <time>1970-01-01T01:24:20.000Z</time>
      </trkpt>
      <trkpt lat="47.90466" lon="7.07314">
        <ele>1271</ele>
        <time>1970-01-01T01:24:34.000Z</time>
      </trkpt>
      <trkpt lat="47.90462" lon="7.07326">
        <ele>1271.9</ele>
        <time>1970-01-01T01:24:47.000Z</time>
      </trkpt>
      <trkpt lat="47.9046" lon="7.0734">
        <ele>1273.1</ele>
        <time>1970-01-01T01:25:03.000Z</time>
      </trkpt>
      <trkpt lat="47.90458" lon="7.07354">
        <ele>1274.2</ele>
        <time>1970-01-01T01:25:15.000Z</time>
      </trkpt>
      <trkpt lat="47.90456" lon="7.07368">
        <ele>1275</ele>
        <time>1970-01-01T01:25:26.000Z</time>
      </trkpt>
      <trkpt lat="47.90454" lon="7.07383">
        <ele>1275.5</ele>
        <time>1970-01-01T01:25:37.000Z</time>
      </trkpt>
      <trkpt lat="47.90452" lon="7.07397">
        <ele>1275.6</ele>
        <time>1970-01-01T01:25:47.000Z</time>
      </trkpt>
      <trkpt lat="47.90452" lon="7.07411">
        <ele>1275.4</ele>
        <time>1970-01-01T01:25:56.000Z</time>
      </trkpt>
      <trkpt lat="47.90449" lon="7.07424">
        <ele>1274.9</ele>
        <time>1970-01-01T01:26:09.000Z</time>
      </trkpt>
      <trkpt lat="47.90445" lon="7.07437">
        <ele>1274.3</ele>
        <time>1970-01-01T01:26:21.000Z</time>
      </trkpt>
      <trkpt lat="47.90442" lon="7.0745">
        <ele>1273.7</ele>
        <time>1970-01-01T01:26:30.000Z</time>
      </trkpt>
      <trkpt lat="47.90441" lon="7.07464">
        <ele>1273.5</ele>
        <time>1970-01-01T01:26:38.000Z</time>
      </trkpt>
      <trkpt lat="47.90444" lon="7.07478">
        <ele>1273.6</ele>
        <time>1970-01-01T01:26:48.000Z</time>
      </trkpt>
      <trkpt lat="47.90443" lon="7.07492">
        <ele>1274.2</ele>
        <time>1970-01-01T01:27:00.000Z</time>
      </trkpt>
      <trkpt lat="47.90438" lon="7.07505">
        <ele>1274.9</ele>
        <time>1970-01-01T01:27:12.000Z</time>
      </trkpt>
      <trkpt lat="47.90435" lon="7.07518">
        <ele>1275.7</ele>
        <time>1970-01-01T01:27:20.000Z</time>
      </trkpt>
      <trkpt lat="47.90434" lon="7.07531">
        <ele>1276.6</ele>
        <time>1970-01-01T01:29:54.000Z</time>
      </trkpt>
      <trkpt lat="47.90432" lon="7.07545">
        <ele>1277.5</ele>
        <time>1970-01-01T01:30:05.000Z</time>
      </trkpt>
      <trkpt lat="47.90427" lon="7.07557">
        <ele>1278.5</ele>
        <time>1970-01-01T01:30:16.000Z</time>
      </trkpt>
      <trkpt lat="47.90423" lon="7.0757">
        <ele>1279.2</ele>
        <time>1970-01-01T01:30:24.000Z</time>
      </trkpt>
      <trkpt lat="47.90422" lon="7.07584">
        <ele>1280.1</ele>
        <time>1970-01-01T01:30:33.000Z</time>
      </trkpt>
      <trkpt lat="47.90421" lon="7.07598">
        <ele>1281.2</ele>
        <time>1970-01-01T01:30:43.000Z</time>
      </trkpt>
      <trkpt lat="47.90419" lon="7.07612">
        <ele>1282.9</ele>
        <time>1970-01-01T01:30:55.000Z</time>
      </trkpt>
      <trkpt lat="47.90415" lon="7.07624">
        <ele>1284.9</ele>
        <time>1970-01-01T01:31:11.000Z</time>
      </trkpt>
      <trkpt lat="47.90411" lon="7.07636">
        <ele>1287.2</ele>
        <time>1970-01-01T01:31:27.000Z</time>
      </trkpt>
      <trkpt lat="47.90408" lon="7.07648">
        <ele>1289.4</ele>
        <time>1970-01-01T01:31:47.000Z</time>
      </trkpt>
      <trkpt lat="47.90403" lon="7.0766">
        <ele>1291.1</ele>
        <time>1970-01-01T01:32:02.000Z</time>
      </trkpt>
      <trkpt lat="47.90397" lon="7.07671">
        <ele>1292.3</ele>
        <time>1970-01-01T01:32:19.000Z</time>
      </trkpt>
      <trkpt lat="47.90391" lon="7.07681">
        <ele>1292.9</ele>
        <time>1970-01-01T01:32:35.000Z</time>
      </trkpt>
      <trkpt lat="47.90381" lon="7.07683">
        <ele>1293.2</ele>
        <time>1970-01-01T01:32:45.000Z</time>
      </trkpt>
      <trkpt lat="47.90377" lon="7.07695">
        <ele>1293.7</ele>
        <time>1970-01-01T01:32:56.000Z</time>
      </trkpt>
      <trkpt lat="47.90371" lon="7.07706">
        <ele>1294.6</ele>
        <time>1970-01-01T01:33:12.000Z</time>
      </trkpt>
      <trkpt lat="47.90364" lon="7.07714">
        <ele>1295.6</ele>
        <time>1970-01-01T01:33:26.000Z</time>
      </trkpt>
      <trkpt lat="47.9036" lon="7.07728">
        <ele>1296.7</ele>
        <time>1970-01-01T01:33:39.000Z</time>
      </trkpt>
      <trkpt lat="47.90353" lon="7.07736">
        <ele>1298</ele>
        <time>1970-01-01T01:33:51.000Z</time>
      </trkpt>
      <trkpt lat="47.90348" lon="7.07747">
        <ele>1299.6</ele>
        <time>1970-01-01T01:34:04.000Z</time>
      </trkpt>
      <trkpt lat="47.90343" lon="7.07758">
        <ele>1301.4</ele>
        <time>1970-01-01T01:34:18.000Z</time>
      </trkpt>
      <trkpt lat="47.90339" lon="7.0777">
        <ele>1303.3</ele>
        <time>1970-01-01T01:34:35.000Z</time>
      </trkpt>
      <trkpt lat="47.90333" lon="7.0778">
        <ele>1305.2</ele>
        <time>1970-01-01T01:34:52.000Z</time>
      </trkpt>
      <trkpt lat="47.90327" lon="7.07789">
        <ele>1307</ele>
        <time>1970-01-01T01:35:04.000Z</time>
      </trkpt>
      <trkpt lat="47.90323" lon="7.07801">
        <ele>1308.9</ele>
        <time>1970-01-01T01:35:18.000Z</time>
      </trkpt>
      <trkpt lat="47.90318" lon="7.07813">
        <ele>1311.2</ele>
        <time>1970-01-01T01:35:33.000Z</time>
      </trkpt>
      <trkpt lat="47.90314" lon="7.07825">
        <ele>1313.7</ele>
        <time>1970-01-01T01:35:52.000Z</time>
      </trkpt>
      <trkpt lat="47.90309" lon="7.07836">
        <ele>1316.2</ele>
        <time>1970-01-01T01:36:10.000Z</time>
      </trkpt>
      <trkpt lat="47.90304" lon="7.07847">
        <ele>1318.4</ele>
        <time>1970-01-01T01:36:28.000Z</time>
      </trkpt>
      <trkpt lat="47.90297" lon="7.07857">
        <ele>1320.3</ele>
        <time>1970-01-01T01:36:41.000Z</time>
      </trkpt>
      <trkpt lat="47.9029" lon="7.07866">
        <ele>1321.9</ele>
        <time>1970-01-01T01:36:55.000Z</time>
      </trkpt>
      <trkpt lat="47.90283" lon="7.07874">
        <ele>1323.6</ele>
        <time>1970-01-01T01:37:09.000Z</time>
      </trkpt>
      <trkpt lat="47.90276" lon="7.07884">
        <ele>1325.2</ele>
        <time>1970-01-01T01:37:23.000Z</time>
      </trkpt>
      <trkpt lat="47.90269" lon="7.07892">
        <ele>1327</ele>
        <time>1970-01-01T01:37:36.000Z</time>
      </trkpt>
      <trkpt lat="47.90267" lon="7.07905">
        <ele>1328.5</ele>
        <time>1970-01-01T01:37:48.000Z</time>
      </trkpt>
      <trkpt lat="47.90265" lon="7.07919">
        <ele>1329.6</ele>
        <time>1970-01-01T01:38:01.000Z</time>
      </trkpt>
      <trkpt lat="47.90263" lon="7.07933">
        <ele>1330.5</ele>
        <time>1970-01-01T01:38:19.000Z</time>
      </trkpt>
      <trkpt lat="47.90262" lon="7.07946">
        <ele>1331.4</ele>
        <time>1970-01-01T01:38:30.000Z</time>
      </trkpt>
      <trkpt lat="47.90263" lon="7.0796">
        <ele>1332.4</ele>
        <time>1970-01-01T01:38:46.000Z</time>
      </trkpt>
      <trkpt lat="47.90264" lon="7.07974">
        <ele>1333.4</ele>
        <time>1970-01-01T01:38:57.000Z</time>
      </trkpt>
      <trkpt lat="47.90263" lon="7.07987">
        <ele>1334.5</ele>
        <time>1970-01-01T01:39:08.000Z</time>
      </trkpt>
      <trkpt lat="47.90262" lon="7.08001">
        <ele>1334.6</ele>
        <time>1970-01-01T01:39:23.000Z</time>
      </trkpt>
      <trkpt lat="47.90265" lon="7.08014">
        <ele>1334</ele>
        <time>1970-01-01T01:39:34.000Z</time>
      </trkpt>
      <trkpt lat="47.90272" lon="7.08023">
        <ele>1333.4</ele>
        <time>1970-01-01T01:39:45.000Z</time>
      </trkpt>
      <trkpt lat="47.9028" lon="7.0803">
        <ele>1332.6</ele>
        <time>1970-01-01T01:39:57.000Z</time>
      </trkpt>
      <trkpt lat="47.90288" lon="7.08038">
        <ele>1331.6</ele>
        <time>1970-01-01T01:40:09.000Z</time>
      </trkpt>
      <trkpt lat="47.90293" lon="7.08049">
        <ele>1330.6</ele>
        <time>1970-01-01T01:40:17.000Z</time>
      </trkpt>
      <trkpt lat="47.903" lon="7.08058">
        <ele>1329.5</ele>
        <time>1970-01-01T01:40:27.000Z</time>
      </trkpt>
      <trkpt lat="47.90307" lon="7.08066">
        <ele>1328.8</ele>
        <time>1970-01-01T01:40:36.000Z</time>
      </trkpt>
      <trkpt lat="47.90315" lon="7.08077">
        <ele>1327.9</ele>
        <time>1970-01-01T01:40:43.000Z</time>
      </trkpt>
      <trkpt lat="47.9032" lon="7.08089">
        <ele>1327</ele>
        <time>1970-01-01T01:41:03.000Z</time>
      </trkpt>
      <trkpt lat="47.90325" lon="7.08101">
        <ele>1325.6</ele>
        <time>1970-01-01T01:41:14.000Z</time>
      </trkpt>
      <trkpt lat="47.90328" lon="7.08114">
        <ele>1324.2</ele>
        <time>1970-01-01T01:41:24.000Z</time>
      </trkpt>
      <trkpt lat="47.9033" lon="7.08127">
        <ele>1322.6</ele>
        <time>1970-01-01T01:44:04.000Z</time>
      </trkpt>
      <trkpt lat="47.90333" lon="7.0814">
        <ele>1320.4</ele>
        <time>1970-01-01T01:44:16.000Z</time>
      </trkpt>
      <trkpt lat="47.90334" lon="7.08154">
        <ele>1317.9</ele>
        <time>1970-01-01T01:44:31.000Z</time>
      </trkpt>
      <trkpt lat="47.90339" lon="7.08164">
        <ele>1315.6</ele>
        <time>1970-01-01T01:44:44.000Z</time>
      </trkpt>
      <trkpt lat="47.9034" lon="7.08178">
        <ele>1312.7</ele>
        <time>1970-01-01T01:44:57.000Z</time>
      </trkpt>
      <trkpt lat="47.90341" lon="7.08192">
        <ele>1310.5</ele>
        <time>1970-01-01T01:45:10.000Z</time>
      </trkpt>
      <trkpt lat="47.90336" lon="7.08202">
        <ele>1308.3</ele>
        <time>1970-01-01T01:45:21.000Z</time>
      </trkpt>
      <trkpt lat="47.90331" lon="7.08213">
        <ele>1306.3</ele>
        <time>1970-01-01T01:45:32.000Z</time>
      </trkpt>
      <trkpt lat="47.90328" lon="7.08226">
        <ele>1304</ele>
        <time>1970-01-01T01:45:43.000Z</time>
      </trkpt>
      <trkpt lat="47.9033" lon="7.08239">
        <ele>1301.9</ele>
        <time>1970-01-01T01:45:53.000Z</time>
      </trkpt>
      <trkpt lat="47.90331" lon="7.08253">
        <ele>1299.3</ele>
        <time>1970-01-01T01:46:09.000Z</time>
      </trkpt>
      <trkpt lat="47.90332" lon="7.08266">
        <ele>1296.8</ele>
        <time>1970-01-01T01:46:24.000Z</time>
      </trkpt>
      <trkpt lat="47.90337" lon="7.08279">
        <ele>1294.2</ele>
        <time>1970-01-01T01:46:36.000Z</time>
      </trkpt>
      <trkpt lat="47.90335" lon="7.08292">
        <ele>1291.2</ele>
        <time>1970-01-01T01:46:52.000Z</time>
      </trkpt>
      <trkpt lat="47.90336" lon="7.08306">
        <ele>1288.2</ele>
        <time>1970-01-01T01:47:04.000Z</time>
      </trkpt>
      <trkpt lat="47.90338" lon="7.08319">
        <ele>1285.5</ele>
        <time>1970-01-01T01:47:19.000Z</time>
      </trkpt>
      <trkpt lat="47.9034" lon="7.08332">
        <ele>1282.8</ele>
        <time>1970-01-01T01:47:32.000Z</time>
      </trkpt>
      <trkpt lat="47.9034" lon="7.08345">
        <ele>1280</ele>
        <time>1970-01-01T01:47:48.000Z</time>
      </trkpt>
      <trkpt lat="47.90343" lon="7.08359">
        <ele>1277.3</ele>
        <time>1970-01-01T01:47:59.000Z</time>
      </trkpt>
      <trkpt lat="47.90343" lon="7.08372">
        <ele>1274.8</ele>
        <time>1970-01-01T01:48:10.000Z</time>
      </trkpt>
      <trkpt lat="47.90343" lon="7.08386">
        <ele>1272.1</ele>
        <time>1970-01-01T01:48:24.000Z</time>
      </trkpt>
      <trkpt lat="47.90346" lon="7.08399">
        <ele>1270.1</ele>
        <time>1970-01-01T01:48:32.000Z</time>
      </trkpt>
      <trkpt lat="47.90346" lon="7.08412">
        <ele>1268.2</ele>
        <time>1970-01-01T01:48:43.000Z</time>
      </trkpt>
      <trkpt lat="47.90348" lon="7.08424">
        <ele>1266.3</ele>
        <time>1970-01-01T01:48:52.000Z</time>
      </trkpt>
      <trkpt lat="47.90351" lon="7.08437">
        <ele>1264.5</ele>
        <time>1970-01-01T01:49:00.000Z</time>
      </trkpt>
      <trkpt lat="47.90356" lon="7.08448">
        <ele>1262.7</ele>
        <time>1970-01-01T01:49:09.000Z</time>
      </trkpt>
      <trkpt lat="47.90359" lon="7.08458">
        <ele>1261.1</ele>
        <time>1970-01-01T01:49:19.000Z</time>
      </trkpt>
      <trkpt lat="47.90364" lon="7.08469">
        <ele>1259</ele>
        <time>1970-01-01T01:49:34.000Z</time>
      </trkpt>
      <trkpt lat="47.90362" lon="7.08481">
        <ele>1257.4</ele>
        <time>1970-01-01T01:49:47.000Z</time>
      </trkpt>
      <trkpt lat="47.90368" lon="7.0849">
        <ele>1255.5</ele>
        <time>1970-01-01T01:50:00.000Z</time>
      </trkpt>
      <trkpt lat="47.90367" lon="7.08502">
        <ele>1253.6</ele>
        <time>1970-01-01T01:50:09.000Z</time>
      </trkpt>
      <trkpt lat="47.90366" lon="7.08513">
        <ele>1251.5</ele>
        <time>1970-01-01T01:50:19.000Z</time>
      </trkpt>
      <trkpt lat="47.90366" lon="7.08527">
        <ele>1248.9</ele>
        <time>1970-01-01T01:50:30.000Z</time>
      </trkpt>
      <trkpt lat="47.90371" lon="7.0854">
        <ele>1246.5</ele>
        <time>1970-01-01T01:50:39.000Z</time>
      </trkpt>
      <trkpt lat="47.90376" lon="7.08552">
        <ele>1245</ele>
        <time>1970-01-01T01:50:48.000Z</time>
      </trkpt>
      <trkpt lat="47.90381" lon="7.08564">
        <ele>1243.2</ele>
        <time>1970-01-01T01:50:58.000Z</time>
      </trkpt>
      <trkpt lat="47.90385" lon="7.08577">
        <ele>1241.6</ele>
        <time>1970-01-01T01:51:10.000Z</time>
      </trkpt>
      <trkpt lat="47.90389" lon="7.08589">
        <ele>1240</ele>
        <time>1970-01-01T01:51:21.000Z</time>
      </trkpt>
      <trkpt lat="47.90394" lon="7.086">
        <ele>1238.5</ele>
        <time>1970-01-01T01:51:31.000Z</time>
      </trkpt>
      <trkpt lat="47.904" lon="7.0861">
        <ele>1237.1</ele>
        <time>1970-01-01T01:51:40.000Z</time>
      </trkpt>
      <trkpt lat="47.90407" lon="7.0862">
        <ele>1235.9</ele>
        <time>1970-01-01T01:51:49.000Z</time>
      </trkpt>
      <trkpt lat="47.90412" lon="7.08631">
        <ele>1234.8</ele>
        <time>1970-01-01T01:51:58.000Z</time>
      </trkpt>
      <trkpt lat="47.90417" lon="7.08642">
        <ele>1233.7</ele>
        <time>1970-01-01T01:52:07.000Z</time>
      </trkpt>
      <trkpt lat="47.90421" lon="7.08653">
        <ele>1232.5</ele>
        <time>1970-01-01T01:52:17.000Z</time>
      </trkpt>
      <trkpt lat="47.90425" lon="7.08666">
        <ele>1231.4</ele>
        <time>1970-01-01T01:52:26.000Z</time>
      </trkpt>
      <trkpt lat="47.90429" lon="7.08679">
        <ele>1230.4</ele>
        <time>1970-01-01T01:52:35.000Z</time>
      </trkpt>
      <trkpt lat="47.90433" lon="7.08691">
        <ele>1229.7</ele>
        <time>1970-01-01T01:52:44.000Z</time>
      </trkpt>
      <trkpt lat="47.90438" lon="7.08703">
        <ele>1229.1</ele>
        <time>1970-01-01T01:52:55.000Z</time>
      </trkpt>
      <trkpt lat="47.90443" lon="7.08715">
        <ele>1228.9</ele>
        <time>1970-01-01T01:53:03.000Z</time>
      </trkpt>
      <trkpt lat="47.90447" lon="7.08728">
        <ele>1228.7</ele>
        <time>1970-01-01T01:53:12.000Z</time>
      </trkpt>
      <trkpt lat="47.90452" lon="7.08741">
        <ele>1228.6</ele>
        <time>1970-01-01T01:53:21.000Z</time>
      </trkpt>
      <trkpt lat="47.90457" lon="7.08753">
        <ele>1228.5</ele>
        <time>1970-01-01T01:53:30.000Z</time>
      </trkpt>
      <trkpt lat="47.90462" lon="7.08766">
        <ele>1228.5</ele>
        <time>1970-01-01T01:53:39.000Z</time>
      </trkpt>
      <trkpt lat="47.90466" lon="7.08777">
        <ele>1228.5</ele>
        <time>1970-01-01T01:53:48.000Z</time>
      </trkpt>
      <trkpt lat="47.9047" lon="7.0879">
        <ele>1228.5</ele>
        <time>1970-01-01T01:53:58.000Z</time>
      </trkpt>
      <trkpt lat="47.90472" lon="7.08804">
        <ele>1228.5</ele>
        <time>1970-01-01T01:54:08.000Z</time>
      </trkpt>
      <trkpt lat="47.90474" lon="7.08818">
        <ele>1228.3</ele>
        <time>1970-01-01T01:54:17.000Z</time>
      </trkpt>
      <trkpt lat="47.90475" lon="7.08831">
        <ele>1228.1</ele>
        <time>1970-01-01T01:54:26.000Z</time>
      </trkpt>
      <trkpt lat="47.90476" lon="7.08844">
        <ele>1227.5</ele>
        <time>1970-01-01T01:55:32.000Z</time>
      </trkpt>
      <trkpt lat="47.90473" lon="7.08857">
        <ele>1226.7</ele>
        <time>1970-01-01T01:55:43.000Z</time>
      </trkpt>
      <trkpt lat="47.90477" lon="7.0887">
        <ele>1226.3</ele>
        <time>1970-01-01T01:55:55.000Z</time>
      </trkpt>
      <trkpt lat="47.90483" lon="7.0888">
        <ele>1226</ele>
        <time>1970-01-01T01:56:06.000Z</time>
      </trkpt>
      <trkpt lat="47.90485" lon="7.08894">
        <ele>1226</ele>
        <time>1970-01-01T01:56:14.000Z</time>
      </trkpt>
      <trkpt lat="47.90488" lon="7.08908">
        <ele>1226.1</ele>
        <time>1970-01-01T01:56:22.000Z</time>
      </trkpt>
      <trkpt lat="47.90491" lon="7.0892">
        <ele>1226.2</ele>
        <time>1970-01-01T01:56:30.000Z</time>
      </trkpt>
      <trkpt lat="47.90494" lon="7.08934">
        <ele>1226.3</ele>
        <time>1970-01-01T01:56:41.000Z</time>
      </trkpt>
      <trkpt lat="47.90501" lon="7.08942">
        <ele>1226.4</ele>
        <time>1970-01-01T01:56:51.000Z</time>
      </trkpt>
      <trkpt lat="47.90508" lon="7.0895">
        <ele>1226.5</ele>
        <time>1970-01-01T01:57:03.000Z</time>
      </trkpt>
      <trkpt lat="47.90515" lon="7.08959">
        <ele>1226.5</ele>
        <time>1970-01-01T01:57:12.000Z</time>
      </trkpt>
      <trkpt lat="47.90518" lon="7.08973">
        <ele>1226.3</ele>
        <time>1970-01-01T01:57:22.000Z</time>
      </trkpt>
      <trkpt lat="47.90515" lon="7.08986">
        <ele>1226.3</ele>
        <time>1970-01-01T01:57:32.000Z</time>
      </trkpt>
      <trkpt lat="47.90511" lon="7.08999">
        <ele>1225.7</ele>
        <time>1970-01-01T01:57:50.000Z</time>
      </trkpt>
      <trkpt lat="47.90508" lon="7.09012">
        <ele>1225.6</ele>
        <time>1970-01-01T01:57:59.000Z</time>
      </trkpt>
      <trkpt lat="47.90505" lon="7.09026">
        <ele>1224.5</ele>
        <time>1970-01-01T01:58:11.000Z</time>
      </trkpt>
      <trkpt lat="47.905" lon="7.09038">
        <ele>1225.2</ele>
        <time>1970-01-01T01:58:29.000Z</time>
      </trkpt>
      <trkpt lat="47.90495" lon="7.09048">
        <ele>1226.4</ele>
        <time>1970-01-01T01:58:42.000Z</time>
      </trkpt>
      <trkpt lat="47.90487" lon="7.09057">
        <ele>1227.4</ele>
        <time>1970-01-01T01:58:52.000Z</time>
      </trkpt>
      <trkpt lat="47.90481" lon="7.09067">
        <ele>1228.2</ele>
        <time>1970-01-01T01:59:01.000Z</time>
      </trkpt>
      <trkpt lat="47.90474" lon="7.09077">
        <ele>1228.9</ele>
        <time>1970-01-01T01:59:12.000Z</time>
      </trkpt>
      <trkpt lat="47.90467" lon="7.09087">
        <ele>1229.6</ele>
        <time>1970-01-01T01:59:22.000Z</time>
      </trkpt>
      <trkpt lat="47.90461" lon="7.09098">
        <ele>1230.5</ele>
        <time>1970-01-01T01:59:32.000Z</time>
      </trkpt>
      <trkpt lat="47.90456" lon="7.09109">
        <ele>1231.4</ele>
        <time>1970-01-01T01:59:42.000Z</time>
      </trkpt>
      <trkpt lat="47.90453" lon="7.09122">
        <ele>1232.3</ele>
        <time>1970-01-01T01:59:53.000Z</time>
      </trkpt>
      <trkpt lat="47.90449" lon="7.09135">
        <ele>1233.1</ele>
        <time>1970-01-01T02:00:06.000Z</time>
      </trkpt>
      <trkpt lat="47.90445" lon="7.09148">
        <ele>1234.1</ele>
        <time>1970-01-01T02:00:19.000Z</time>
      </trkpt>
      <trkpt lat="47.90441" lon="7.0916">
        <ele>1235.3</ele>
        <time>1970-01-01T02:00:32.000Z</time>
      </trkpt>
      <trkpt lat="47.90437" lon="7.09173">
        <ele>1236.7</ele>
        <time>1970-01-01T02:00:45.000Z</time>
      </trkpt>
      <trkpt lat="47.90432" lon="7.09185">
        <ele>1238.1</ele>
        <time>1970-01-01T02:00:58.000Z</time>
      </trkpt>
      <trkpt lat="47.90429" lon="7.09197">
        <ele>1239.7</ele>
        <time>1970-01-01T02:01:11.000Z</time>
      </trkpt>
      <trkpt lat="47.90425" lon="7.0921">
        <ele>1241.3</ele>
        <time>1970-01-01T02:01:25.000Z</time>
      </trkpt>
      <trkpt lat="47.90423" lon="7.09223">
        <ele>1243.1</ele>
        <time>1970-01-01T02:01:39.000Z</time>
      </trkpt>
      <trkpt lat="47.90418" lon="7.09235">
        <ele>1244.7</ele>
        <time>1970-01-01T02:01:54.000Z</time>
      </trkpt>
      <trkpt lat="47.90414" lon="7.09248">
        <ele>1246.4</ele>
        <time>1970-01-01T02:02:11.000Z</time>
      </trkpt>
      <trkpt lat="47.90409" lon="7.0926">
        <ele>1248.2</ele>
        <time>1970-01-01T02:02:26.000Z</time>
      </trkpt>
      <trkpt lat="47.90406" lon="7.09273">
        <ele>1249.9</ele>
        <time>1970-01-01T02:02:40.000Z</time>
      </trkpt>
      <trkpt lat="47.90402" lon="7.09285">
        <ele>1251.8</ele>
        <time>1970-01-01T02:02:55.000Z</time>
      </trkpt>
      <trkpt lat="47.90397" lon="7.09296">
        <ele>1253.6</ele>
        <time>1970-01-01T02:03:12.000Z</time>
      </trkpt>
      <trkpt lat="47.90388" lon="7.09296">
        <ele>1255.5</ele>
        <time>1970-01-01T02:03:28.000Z</time>
      </trkpt>
      <trkpt lat="47.90379" lon="7.09293">
        <ele>1257.1</ele>
        <time>1970-01-01T02:03:41.000Z</time>
      </trkpt>
      <trkpt lat="47.9037" lon="7.09289">
        <ele>1258.9</ele>
        <time>1970-01-01T02:03:54.000Z</time>
      </trkpt>
      <trkpt lat="47.90361" lon="7.09291">
        <ele>1260.6</ele>
        <time>1970-01-01T02:04:06.000Z</time>
      </trkpt>
      <trkpt lat="47.90352" lon="7.09288">
        <ele>1262.2</ele>
        <time>1970-01-01T02:04:20.000Z</time>
      </trkpt>
      <trkpt lat="47.90343" lon="7.09287">
        <ele>1263.8</ele>
        <time>1970-01-01T02:04:35.000Z</time>
      </trkpt>
      <trkpt lat="47.90334" lon="7.09285">
        <ele>1265.3</ele>
        <time>1970-01-01T02:04:48.000Z</time>
      </trkpt>
      <trkpt lat="47.90324" lon="7.09285">
        <ele>1266.9</ele>
        <time>1970-01-01T02:05:02.000Z</time>
      </trkpt>
      <trkpt lat="47.90315" lon="7.09285">
        <ele>1268.7</ele>
        <time>1970-01-01T02:05:16.000Z</time>
      </trkpt>
      <trkpt lat="47.90306" lon="7.09285">
        <ele>1270.4</ele>
        <time>1970-01-01T02:05:30.000Z</time>
      </trkpt>
      <trkpt lat="47.90297" lon="7.09285">
        <ele>1272</ele>
        <time>1970-01-01T02:05:44.000Z</time>
      </trkpt>
      <trkpt lat="47.90288" lon="7.09287">
        <ele>1273.7</ele>
        <time>1970-01-01T02:05:57.000Z</time>
      </trkpt>
      <trkpt lat="47.90279" lon="7.0929">
        <ele>1275.6</ele>
        <time>1970-01-01T02:06:09.000Z</time>
      </trkpt>
      <trkpt lat="47.9027" lon="7.09292">
        <ele>1277.5</ele>
        <time>1970-01-01T02:06:24.000Z</time>
      </trkpt>
      <trkpt lat="47.90261" lon="7.09292">
        <ele>1279.6</ele>
        <time>1970-01-01T02:06:39.000Z</time>
      </trkpt>
      <trkpt lat="47.90253" lon="7.09296">
        <ele>1281.4</ele>
        <time>1970-01-01T02:06:53.000Z</time>
      </trkpt>
      <trkpt lat="47.90247" lon="7.09298">
        <ele>1282.9</ele>
        <time>1970-01-01T02:07:05.000Z</time>
      </trkpt>
      <trkpt lat="47.90237" lon="7.09306">
        <ele>1285.2</ele>
        <time>1970-01-01T02:07:16.000Z</time>
      </trkpt>
      <trkpt lat="47.9023" lon="7.09314">
        <ele>1287.1</ele>
        <time>1970-01-01T02:07:29.000Z</time>
      </trkpt>
      <trkpt lat="47.90222" lon="7.09321">
        <ele>1289.1</ele>
        <time>1970-01-01T02:07:40.000Z</time>
      </trkpt>
      <trkpt lat="47.90215" lon="7.09329">
        <ele>1290.9</ele>
        <time>1970-01-01T02:07:53.000Z</time>
      </trkpt>
      <trkpt lat="47.90208" lon="7.0934">
        <ele>1292.8</ele>
        <time>1970-01-01T02:08:06.000Z</time>
      </trkpt>
      <trkpt lat="47.90202" lon="7.09348">
        <ele>1294.5</ele>
        <time>1970-01-01T02:08:15.000Z</time>
      </trkpt>
      <trkpt lat="47.90198" lon="7.09361">
        <ele>1296.2</ele>
        <time>1970-01-01T02:08:25.000Z</time>
      </trkpt>
      <trkpt lat="47.90192" lon="7.09373">
        <ele>1297.7</ele>
        <time>1970-01-01T02:08:37.000Z</time>
      </trkpt>
      <trkpt lat="47.90188" lon="7.09385">
        <ele>1298.7</ele>
        <time>1970-01-01T02:08:48.000Z</time>
      </trkpt>
      <trkpt lat="47.90183" lon="7.09398">
        <ele>1299.5</ele>
        <time>1970-01-01T02:08:59.000Z</time>
      </trkpt>
      <trkpt lat="47.90181" lon="7.09411">
        <ele>1300</ele>
        <time>1970-01-01T02:09:12.000Z</time>
      </trkpt>
      <trkpt lat="47.90184" lon="7.09424">
        <ele>1300.4</ele>
        <time>1970-01-01T02:09:25.000Z</time>
      </trkpt>
      <trkpt lat="47.90187" lon="7.09438">
        <ele>1300.9</ele>
        <time>1970-01-01T02:09:37.000Z</time>
      </trkpt>
      <trkpt lat="47.90188" lon="7.09451">
        <ele>1301.3</ele>
        <time>1970-01-01T02:09:52.000Z</time>
      </trkpt>
      <trkpt lat="47.90186" lon="7.09465">
        <ele>1302.9</ele>
        <time>1970-01-01T02:10:05.000Z</time>
      </trkpt>
      <trkpt lat="47.9018" lon="7.09476">
        <ele>1303.9</ele>
        <time>1970-01-01T02:10:17.000Z</time>
      </trkpt>
      <trkpt lat="47.90174" lon="7.09487">
        <ele>1305</ele>
        <time>1970-01-01T02:10:32.000Z</time>
      </trkpt>
      <trkpt lat="47.90167" lon="7.09494">
        <ele>1306.1</ele>
        <time>1970-01-01T02:10:50.000Z</time>
      </trkpt>
      <trkpt lat="47.90159" lon="7.09503">
        <ele>1308.1</ele>
        <time>1970-01-01T02:11:07.000Z</time>
      </trkpt>
      <trkpt lat="47.9015" lon="7.09506">
        <ele>1309.8</ele>
        <time>1970-01-01T02:11:18.000Z</time>
      </trkpt>
      <trkpt lat="47.90142" lon="7.09513">
        <ele>1311.4</ele>
        <time>1970-01-01T02:11:37.000Z</time>
      </trkpt>
      <trkpt lat="47.90133" lon="7.09519">
        <ele>1312.8</ele>
        <time>1970-01-01T02:11:53.000Z</time>
      </trkpt>
      <trkpt lat="47.90126" lon="7.09527">
        <ele>1313.9</ele>
        <time>1970-01-01T02:12:05.000Z</time>
      </trkpt>
      <trkpt lat="47.90118" lon="7.09534">
        <ele>1315.4</ele>
        <time>1970-01-01T02:12:17.000Z</time>
      </trkpt>
      <trkpt lat="47.9011" lon="7.09541">
        <ele>1317</ele>
        <time>1970-01-01T02:12:28.000Z</time>
      </trkpt>
      <trkpt lat="47.90102" lon="7.09549">
        <ele>1318.7</ele>
        <time>1970-01-01T02:12:41.000Z</time>
      </trkpt>
      <trkpt lat="47.90094" lon="7.09556">
        <ele>1320.6</ele>
        <time>1970-01-01T02:12:59.000Z</time>
      </trkpt>
      <trkpt lat="47.90086" lon="7.09563">
        <ele>1322.6</ele>
        <time>1970-01-01T02:13:18.000Z</time>
      </trkpt>
      <trkpt lat="47.90078" lon="7.09569">
        <ele>1324.1</ele>
        <time>1970-01-01T02:13:35.000Z</time>
      </trkpt>
      <trkpt lat="47.90069" lon="7.09573">
        <ele>1325.4</ele>
        <time>1970-01-01T02:13:51.000Z</time>
      </trkpt>
      <trkpt lat="47.90061" lon="7.09579">
        <ele>1326.5</ele>
        <time>1970-01-01T02:14:04.000Z</time>
      </trkpt>
      <trkpt lat="47.90052" lon="7.09583">
        <ele>1328.1</ele>
        <time>1970-01-01T02:14:16.000Z</time>
      </trkpt>
      <trkpt lat="47.90044" lon="7.0959">
        <ele>1329.6</ele>
        <time>1970-01-01T02:14:30.000Z</time>
      </trkpt>
      <trkpt lat="47.90038" lon="7.096">
        <ele>1331.7</ele>
        <time>1970-01-01T02:14:45.000Z</time>
      </trkpt>
      <trkpt lat="47.90032" lon="7.0961">
        <ele>1333.4</ele>
        <time>1970-01-01T02:15:05.000Z</time>
      </trkpt>
      <trkpt lat="47.90025" lon="7.0962">
        <ele>1335.1</ele>
        <time>1970-01-01T02:15:19.000Z</time>
      </trkpt>
      <trkpt lat="47.9002" lon="7.09631">
        <ele>1336.8</ele>
        <time>1970-01-01T02:15:33.000Z</time>
      </trkpt>
      <trkpt lat="47.90015" lon="7.09642">
        <ele>1338.1</ele>
        <time>1970-01-01T02:15:47.000Z</time>
      </trkpt>
      <trkpt lat="47.90009" lon="7.09652">
        <ele>1339.2</ele>
        <time>1970-01-01T02:16:00.000Z</time>
      </trkpt>
      <trkpt lat="47.90002" lon="7.09662">
        <ele>1340.6</ele>
        <time>1970-01-01T02:16:11.000Z</time>
      </trkpt>
      <trkpt lat="47.89997" lon="7.09673">
        <ele>1342.3</ele>
        <time>1970-01-01T02:16:26.000Z</time>
      </trkpt>
      <trkpt lat="47.89994" lon="7.09686">
        <ele>1344</ele>
        <time>1970-01-01T02:16:45.000Z</time>
      </trkpt>
      <trkpt lat="47.89989" lon="7.09698">
        <ele>1345.9</ele>
        <time>1970-01-01T02:16:58.000Z</time>
      </trkpt>
      <trkpt lat="47.89982" lon="7.09707">
        <ele>1347.9</ele>
        <time>1970-01-01T02:17:12.000Z</time>
      </trkpt>
      <trkpt lat="47.89978" lon="7.09718">
        <ele>1349.4</ele>
        <time>1970-01-01T02:17:28.000Z</time>
      </trkpt>
      <trkpt lat="47.89972" lon="7.09729">
        <ele>1350.7</ele>
        <time>1970-01-01T02:17:43.000Z</time>
      </trkpt>
      <trkpt lat="47.89967" lon="7.0974">
        <ele>1351.8</ele>
        <time>1970-01-01T02:17:59.000Z</time>
      </trkpt>
      <trkpt lat="47.89962" lon="7.09753">
        <ele>1353.2</ele>
        <time>1970-01-01T02:18:12.000Z</time>
      </trkpt>
      <trkpt lat="47.89955" lon="7.09763">
        <ele>1354.8</ele>
        <time>1970-01-01T02:18:26.000Z</time>
      </trkpt>
      <trkpt lat="47.89949" lon="7.09773">
        <ele>1356.5</ele>
        <time>1970-01-01T02:18:38.000Z</time>
      </trkpt>
      <trkpt lat="47.89946" lon="7.09787">
        <ele>1358.3</ele>
        <time>1970-01-01T02:18:53.000Z</time>
      </trkpt>
      <trkpt lat="47.8994" lon="7.09796">
        <ele>1359.6</ele>
        <time>1970-01-01T02:19:19.000Z</time>
      </trkpt>
      <trkpt lat="47.89937" lon="7.09809">
        <ele>1360.7</ele>
        <time>1970-01-01T02:19:32.000Z</time>
      </trkpt>
      <trkpt lat="47.89933" lon="7.09821">
        <ele>1361.8</ele>
        <time>1970-01-01T02:19:45.000Z</time>
      </trkpt>
      <trkpt lat="47.89928" lon="7.09832">
        <ele>1362.5</ele>
        <time>1970-01-01T02:19:58.000Z</time>
      </trkpt>
      <trkpt lat="47.89924" lon="7.09844">
        <ele>1363.4</ele>
        <time>1970-01-01T02:20:12.000Z</time>
      </trkpt>
      <trkpt lat="47.89919" lon="7.09855">
        <ele>1364.7</ele>
        <time>1970-01-01T02:20:27.000Z</time>
      </trkpt>
      <trkpt lat="47.89915" lon="7.09867">
        <ele>1366.1</ele>
        <time>1970-01-01T02:20:46.000Z</time>
      </trkpt>
      <trkpt lat="47.89911" lon="7.09879">
        <ele>1367.5</ele>
        <time>1970-01-01T02:20:59.000Z</time>
      </trkpt>
      <trkpt lat="47.89906" lon="7.0989">
        <ele>1369</ele>
        <time>1970-01-01T02:21:10.000Z</time>
      </trkpt>
      <trkpt lat="47.89899" lon="7.099">
        <ele>1370.3</ele>
        <time>1970-01-01T02:21:21.000Z</time>
      </trkpt>
      <trkpt lat="47.89897" lon="7.09914">
        <ele>1371.9</ele>
        <time>1970-01-01T02:21:32.000Z</time>
      </trkpt>
      <trkpt lat="47.899" lon="7.09927">
        <ele>1373.4</ele>
        <time>1970-01-01T02:21:45.000Z</time>
      </trkpt>
      <trkpt lat="47.89908" lon="7.09935">
        <ele>1375</ele>
        <time>1970-01-01T02:21:58.000Z</time>
      </trkpt>
      <trkpt lat="47.89916" lon="7.09943">
        <ele>1376.5</ele>
        <time>1970-01-01T02:22:11.000Z</time>
      </trkpt>
      <trkpt lat="47.89923" lon="7.09951">
        <ele>1377.8</ele>
        <time>1970-01-01T02:22:21.000Z</time>
      </trkpt>
      <trkpt lat="47.89931" lon="7.09959">
        <ele>1379.3</ele>
        <time>1970-01-01T02:22:33.000Z</time>
      </trkpt>
      <trkpt lat="47.89938" lon="7.09969">
        <ele>1381.1</ele>
        <time>1970-01-01T02:22:44.000Z</time>
      </trkpt>
      <trkpt lat="47.89945" lon="7.09976">
        <ele>1382.8</ele>
        <time>1970-01-01T02:22:59.000Z</time>
      </trkpt>
      <trkpt lat="47.8995" lon="7.09988">
        <ele>1384.7</ele>
        <time>1970-01-01T02:23:12.000Z</time>
      </trkpt>
      <trkpt lat="47.89959" lon="7.09992">
        <ele>1386.4</ele>
        <time>1970-01-01T02:23:28.000Z</time>
      </trkpt>
      <trkpt lat="47.89968" lon="7.09995">
        <ele>1388.1</ele>
        <time>1970-01-01T02:23:40.000Z</time>
      </trkpt>
      <trkpt lat="47.89976" lon="7.09997">
        <ele>1389.9</ele>
        <time>1970-01-01T02:23:55.000Z</time>
      </trkpt>
      <trkpt lat="47.89986" lon="7.09995">
        <ele>1391.5</ele>
        <time>1970-01-01T02:24:07.000Z</time>
      </trkpt>
      <trkpt lat="47.89995" lon="7.09996">
        <ele>1393.2</ele>
        <time>1970-01-01T02:24:20.000Z</time>
      </trkpt>
      <trkpt lat="47.90004" lon="7.0999">
        <ele>1395.3</ele>
        <time>1970-01-01T02:24:32.000Z</time>
      </trkpt>
      <trkpt lat="47.90012" lon="7.09983">
        <ele>1397.3</ele>
        <time>1970-01-01T02:24:48.000Z</time>
      </trkpt>
      <trkpt lat="47.90021" lon="7.09978">
        <ele>1399.3</ele>
        <time>1970-01-01T02:25:01.000Z</time>
      </trkpt>
      <trkpt lat="47.90021" lon="7.09966">
        <ele>1401.1</ele>
        <time>1970-01-01T02:25:19.000Z</time>
      </trkpt>
      <trkpt lat="47.90016" lon="7.09956">
        <ele>1400.8</ele>
        <time>1970-01-01T02:25:47.000Z</time>
      </trkpt>
      <trkpt lat="47.90011" lon="7.09944">
        <ele>1400.1</ele>
        <time>1970-01-01T02:25:59.000Z</time>
      </trkpt>
      <trkpt lat="47.90008" lon="7.0993">
        <ele>1399.3</ele>
        <time>1970-01-01T02:26:14.000Z</time>
      </trkpt>
      <trkpt lat="47.90016" lon="7.09921">
        <ele>1399</ele>
        <time>1970-01-01T02:26:28.000Z</time>
      </trkpt>
      <trkpt lat="47.90025" lon="7.09916">
        <ele>1400.2</ele>
        <time>1970-01-01T02:26:38.000Z</time>
      </trkpt>
      <trkpt lat="47.90033" lon="7.09911">
        <ele>1401.3</ele>
        <time>1970-01-01T02:29:50.000Z</time>
      </trkpt>
      <trkpt lat="47.90042" lon="7.09908">
        <ele>1404.9</ele>
        <time>1970-01-01T02:29:59.000Z</time>
      </trkpt>
      <trkpt lat="47.90049" lon="7.09898">
        <ele>1404.7</ele>
        <time>1970-01-01T02:30:09.000Z</time>
      </trkpt>
      <trkpt lat="47.90056" lon="7.09889">
        <ele>1404.5</ele>
        <time>1970-01-01T02:30:19.000Z</time>
      </trkpt>
      <trkpt lat="47.90065" lon="7.09884">
        <ele>1404.2</ele>
        <time>1970-01-01T02:30:31.000Z</time>
      </trkpt>
      <trkpt lat="47.90074" lon="7.0988">
        <ele>1403.9</ele>
        <time>1970-01-01T02:30:43.000Z</time>
      </trkpt>
      <trkpt lat="47.90081" lon="7.09871">
        <ele>1403.7</ele>
        <time>1970-01-01T02:30:53.000Z</time>
      </trkpt>
      <trkpt lat="47.90087" lon="7.09861">
        <ele>1403.7</ele>
        <time>1970-01-01T02:31:03.000Z</time>
      </trkpt>
      <trkpt lat="47.90094" lon="7.09852">
        <ele>1403.8</ele>
        <time>1970-01-01T02:31:12.000Z</time>
      </trkpt>
      <trkpt lat="47.90102" lon="7.09844">
        <ele>1403.8</ele>
        <time>1970-01-01T02:31:22.000Z</time>
      </trkpt>
      <trkpt lat="47.90111" lon="7.09847">
        <ele>1403.6</ele>
        <time>1970-01-01T02:31:32.000Z</time>
      </trkpt>
      <trkpt lat="47.90116" lon="7.09835">
        <ele>1403.2</ele>
        <time>1970-01-01T02:31:44.000Z</time>
      </trkpt>
      <trkpt lat="47.90108" lon="7.09831">
        <ele>1399.6</ele>
        <time>1970-01-01T02:31:58.000Z</time>
      </trkpt>
      <trkpt lat="47.901" lon="7.09824">
        <ele>1398.7</ele>
        <time>1970-01-01T02:32:15.000Z</time>
      </trkpt>
      <trkpt lat="47.90093" lon="7.09817">
        <ele>1398.9</ele>
        <time>1970-01-01T02:32:41.000Z</time>
      </trkpt>
      <trkpt lat="47.90096" lon="7.09829">
        <ele>1399.1</ele>
        <time>1970-01-01T02:36:09.000Z</time>
      </trkpt>
      <trkpt lat="47.90094" lon="7.09816">
        <ele>1399.3</ele>
        <time>1970-01-01T02:36:30.000Z</time>
      </trkpt>
      <trkpt lat="47.901" lon="7.09826">
        <ele>1399.5</ele>
        <time>1970-01-01T02:38:46.000Z</time>
      </trkpt>
      <trkpt lat="47.90108" lon="7.09831">
        <ele>1399.7</ele>
        <time>1970-01-01T02:38:55.000Z</time>
      </trkpt>
      <trkpt lat="47.90116" lon="7.09835">
        <ele>1401.1</ele>
        <time>1970-01-01T02:39:07.000Z</time>
      </trkpt>
      <trkpt lat="47.90109" lon="7.09842">
        <ele>1400.2</ele>
        <time>1970-01-01T02:39:20.000Z</time>
      </trkpt>
      <trkpt lat="47.90118" lon="7.0984">
        <ele>1401.1</ele>
        <time>1970-01-01T02:39:52.000Z</time>
      </trkpt>
      <trkpt lat="47.90128" lon="7.09844">
        <ele>1401.3</ele>
        <time>1970-01-01T02:40:07.000Z</time>
      </trkpt>
      <trkpt lat="47.90136" lon="7.09851">
        <ele>1402</ele>
        <time>1970-01-01T02:40:15.000Z</time>
      </trkpt>
      <trkpt lat="47.90145" lon="7.09856">
        <ele>1403</ele>
        <time>1970-01-01T02:40:24.000Z</time>
      </trkpt>
      <trkpt lat="47.90154" lon="7.09861">
        <ele>1404.1</ele>
        <time>1970-01-01T02:40:32.000Z</time>
      </trkpt>
      <trkpt lat="47.90162" lon="7.09867">
        <ele>1405</ele>
        <time>1970-01-01T02:40:39.000Z</time>
      </trkpt>
      <trkpt lat="47.90172" lon="7.09872">
        <ele>1406.1</ele>
        <time>1970-01-01T02:40:47.000Z</time>
      </trkpt>
      <trkpt lat="47.9018" lon="7.09879">
        <ele>1407.1</ele>
        <time>1970-01-01T02:40:56.000Z</time>
      </trkpt>
      <trkpt lat="47.90187" lon="7.09887">
        <ele>1407.5</ele>
        <time>1970-01-01T02:41:05.000Z</time>
      </trkpt>
      <trkpt lat="47.90196" lon="7.09892">
        <ele>1407.4</ele>
        <time>1970-01-01T02:41:13.000Z</time>
      </trkpt>
      <trkpt lat="47.90204" lon="7.09896">
        <ele>1407.3</ele>
        <time>1970-01-01T02:41:22.000Z</time>
      </trkpt>
      <trkpt lat="47.90213" lon="7.09901">
        <ele>1407.2</ele>
        <time>1970-01-01T02:41:31.000Z</time>
      </trkpt>
      <trkpt lat="47.90222" lon="7.09906">
        <ele>1407</ele>
        <time>1970-01-01T02:41:40.000Z</time>
      </trkpt>
      <trkpt lat="47.90231" lon="7.0991">
        <ele>1405.6</ele>
        <time>1970-01-01T02:41:48.000Z</time>
      </trkpt>
      <trkpt lat="47.90239" lon="7.09915">
        <ele>1404.3</ele>
        <time>1970-01-01T02:41:56.000Z</time>
      </trkpt>
      <trkpt lat="47.90248" lon="7.0992">
        <ele>1403</ele>
        <time>1970-01-01T02:42:04.000Z</time>
      </trkpt>
      <trkpt lat="47.90257" lon="7.09924">
        <ele>1401.7</ele>
        <time>1970-01-01T02:42:14.000Z</time>
      </trkpt>
      <trkpt lat="47.90267" lon="7.09922">
        <ele>1401.2</ele>
        <time>1970-01-01T02:42:29.000Z</time>
      </trkpt>
      <trkpt lat="47.90276" lon="7.09917">
        <ele>1400.8</ele>
        <time>1970-01-01T02:42:38.000Z</time>
      </trkpt>
      <trkpt lat="47.90285" lon="7.09913">
        <ele>1400</ele>
        <time>1970-01-01T02:42:48.000Z</time>
      </trkpt>
      <trkpt lat="47.90293" lon="7.09906">
        <ele>1398.7</ele>
        <time>1970-01-01T02:42:58.000Z</time>
      </trkpt>
      <trkpt lat="47.90302" lon="7.09901">
        <ele>1397.3</ele>
        <time>1970-01-01T02:43:09.000Z</time>
      </trkpt>
      <trkpt lat="47.90309" lon="7.09893">
        <ele>1395.9</ele>
        <time>1970-01-01T02:43:20.000Z</time>
      </trkpt>
      <trkpt lat="47.90318" lon="7.09892">
        <ele>1394.8</ele>
        <time>1970-01-01T02:43:32.000Z</time>
      </trkpt>
      <trkpt lat="47.90327" lon="7.09896">
        <ele>1393.6</ele>
        <time>1970-01-01T02:43:41.000Z</time>
      </trkpt>
      <trkpt lat="47.90335" lon="7.09901">
        <ele>1392.6</ele>
        <time>1970-01-01T02:43:51.000Z</time>
      </trkpt>
      <trkpt lat="47.90343" lon="7.09908">
        <ele>1391.6</ele>
        <time>1970-01-01T02:44:02.000Z</time>
      </trkpt>
      <trkpt lat="47.90351" lon="7.09915">
        <ele>1390.5</ele>
        <time>1970-01-01T02:44:15.000Z</time>
      </trkpt>
      <trkpt lat="47.90359" lon="7.09921">
        <ele>1389.3</ele>
        <time>1970-01-01T02:44:27.000Z</time>
      </trkpt>
      <trkpt lat="47.90365" lon="7.09931">
        <ele>1387.8</ele>
        <time>1970-01-01T02:44:40.000Z</time>
      </trkpt>
      <trkpt lat="47.90371" lon="7.09941">
        <ele>1386.4</ele>
        <time>1970-01-01T02:44:54.000Z</time>
      </trkpt>
      <trkpt lat="47.90377" lon="7.09952">
        <ele>1385</ele>
        <time>1970-01-01T02:45:07.000Z</time>
      </trkpt>
      <trkpt lat="47.90382" lon="7.09964">
        <ele>1383.7</ele>
        <time>1970-01-01T02:45:19.000Z</time>
      </trkpt>
      <trkpt lat="47.90384" lon="7.09978">
        <ele>1382.5</ele>
        <time>1970-01-01T02:45:32.000Z</time>
      </trkpt>
      <trkpt lat="47.90387" lon="7.0999">
        <ele>1381.2</ele>
        <time>1970-01-01T02:45:45.000Z</time>
      </trkpt>
      <trkpt lat="47.9039" lon="7.10003">
        <ele>1379.9</ele>
        <time>1970-01-01T02:45:57.000Z</time>
      </trkpt>
      <trkpt lat="47.90394" lon="7.10015">
        <ele>1378.6</ele>
        <time>1970-01-01T02:46:09.000Z</time>
      </trkpt>
      <trkpt lat="47.90397" lon="7.10029">
        <ele>1377.1</ele>
        <time>1970-01-01T02:46:21.000Z</time>
      </trkpt>
      <trkpt lat="47.90399" lon="7.10043">
        <ele>1375.5</ele>
        <time>1970-01-01T02:46:33.000Z</time>
      </trkpt>
      <trkpt lat="47.90402" lon="7.10055">
        <ele>1374</ele>
        <time>1970-01-01T02:46:44.000Z</time>
      </trkpt>
      <trkpt lat="47.90406" lon="7.10068">
        <ele>1372.4</ele>
        <time>1970-01-01T02:46:54.000Z</time>
      </trkpt>
      <trkpt lat="47.9041" lon="7.1008">
        <ele>1370.6</ele>
        <time>1970-01-01T02:47:05.000Z</time>
      </trkpt>
      <trkpt lat="47.90415" lon="7.1009">
        <ele>1368.8</ele>
        <time>1970-01-01T02:47:18.000Z</time>
      </trkpt>
      <trkpt lat="47.90417" lon="7.10105">
        <ele>1367</ele>
        <time>1970-01-01T02:47:28.000Z</time>
      </trkpt>
      <trkpt lat="47.90417" lon="7.1012">
        <ele>1365.4</ele>
        <time>1970-01-01T02:47:37.000Z</time>
      </trkpt>
      <trkpt lat="47.90414" lon="7.10133">
        <ele>1364.4</ele>
        <time>1970-01-01T02:47:46.000Z</time>
      </trkpt>
      <trkpt lat="47.90413" lon="7.10147">
        <ele>1363.7</ele>
        <time>1970-01-01T02:47:55.000Z</time>
      </trkpt>
      <trkpt lat="47.90412" lon="7.1016">
        <ele>1363.3</ele>
        <time>1970-01-01T02:48:04.000Z</time>
      </trkpt>
      <trkpt lat="47.90412" lon="7.10174">
        <ele>1362.8</ele>
        <time>1970-01-01T02:48:14.000Z</time>
      </trkpt>
      <trkpt lat="47.90408" lon="7.10187">
        <ele>1361.8</ele>
        <time>1970-01-01T02:48:25.000Z</time>
      </trkpt>
      <trkpt lat="47.90407" lon="7.10201">
        <ele>1360.2</ele>
        <time>1970-01-01T02:48:36.000Z</time>
      </trkpt>
      <trkpt lat="47.90406" lon="7.10216">
        <ele>1358.3</ele>
        <time>1970-01-01T02:48:46.000Z</time>
      </trkpt>
      <trkpt lat="47.90406" lon="7.10229">
        <ele>1356.2</ele>
        <time>1970-01-01T02:48:58.000Z</time>
      </trkpt>
      <trkpt lat="47.90414" lon="7.10236">
        <ele>1353.8</ele>
        <time>1970-01-01T02:49:15.000Z</time>
      </trkpt>
      <trkpt lat="47.90423" lon="7.10234">
        <ele>1351.5</ele>
        <time>1970-01-01T02:49:31.000Z</time>
      </trkpt>
      <trkpt lat="47.90432" lon="7.10233">
        <ele>1346.6</ele>
        <time>1970-01-01T02:49:47.000Z</time>
      </trkpt>
      <trkpt lat="47.90439" lon="7.10224">
        <ele>1345.1</ele>
        <time>1970-01-01T02:50:53.000Z</time>
      </trkpt>
      <trkpt lat="47.90448" lon="7.10227">
        <ele>1343.7</ele>
        <time>1970-01-01T02:51:05.000Z</time>
      </trkpt>
      <trkpt lat="47.90455" lon="7.10236">
        <ele>1343.3</ele>
        <time>1970-01-01T02:51:16.000Z</time>
      </trkpt>
      <trkpt lat="47.90448" lon="7.10244">
        <ele>1343.3</ele>
        <time>1970-01-01T03:55:31.000Z</time>
      </trkpt>
      <trkpt lat="47.90447" lon="7.1023">
        <ele>1342.7</ele>
        <time>1970-01-01T03:56:20.000Z</time>
      </trkpt>
      <trkpt lat="47.90448" lon="7.10216">
        <ele>1342.3</ele>
        <time>1970-01-01T03:56:29.000Z</time>
      </trkpt>
      <trkpt lat="47.90447" lon="7.10202">
        <ele>1341.7</ele>
        <time>1970-01-01T03:56:39.000Z</time>
      </trkpt>
      <trkpt lat="47.90449" lon="7.10188">
        <ele>1340.5</ele>
        <time>1970-01-01T03:56:50.000Z</time>
      </trkpt>
      <trkpt lat="47.90456" lon="7.1018">
        <ele>1338.7</ele>
        <time>1970-01-01T03:57:00.000Z</time>
      </trkpt>
      <trkpt lat="47.90466" lon="7.10177">
        <ele>1336.5</ele>
        <time>1970-01-01T03:57:10.000Z</time>
      </trkpt>
      <trkpt lat="47.90474" lon="7.1018">
        <ele>1334.6</ele>
        <time>1970-01-01T03:57:28.000Z</time>
      </trkpt>
      <trkpt lat="47.90479" lon="7.10192">
        <ele>1332.7</ele>
        <time>1970-01-01T03:57:37.000Z</time>
      </trkpt>
      <trkpt lat="47.90484" lon="7.10204">
        <ele>1330.9</ele>
        <time>1970-01-01T03:57:45.000Z</time>
      </trkpt>
      <trkpt lat="47.90493" lon="7.10199">
        <ele>1329.3</ele>
        <time>1970-01-01T03:57:57.000Z</time>
      </trkpt>
      <trkpt lat="47.90499" lon="7.10189">
        <ele>1327.9</ele>
        <time>1970-01-01T03:58:08.000Z</time>
      </trkpt>
      <trkpt lat="47.90503" lon="7.10176">
        <ele>1326.3</ele>
        <time>1970-01-01T03:58:18.000Z</time>
      </trkpt>
      <trkpt lat="47.90506" lon="7.10162">
        <ele>1325</ele>
        <time>1970-01-01T03:58:27.000Z</time>
      </trkpt>
      <trkpt lat="47.90508" lon="7.10148">
        <ele>1323.8</ele>
        <time>1970-01-01T03:58:36.000Z</time>
      </trkpt>
      <trkpt lat="47.90508" lon="7.10134">
        <ele>1322.7</ele>
        <time>1970-01-01T03:58:44.000Z</time>
      </trkpt>
      <trkpt lat="47.9051" lon="7.1012">
        <ele>1321.6</ele>
        <time>1970-01-01T03:58:54.000Z</time>
      </trkpt>
      <trkpt lat="47.90512" lon="7.10106">
        <ele>1320.5</ele>
        <time>1970-01-01T03:59:03.000Z</time>
      </trkpt>
      <trkpt lat="47.90513" lon="7.10093">
        <ele>1319.3</ele>
        <time>1970-01-01T03:59:12.000Z</time>
      </trkpt>
      <trkpt lat="47.90513" lon="7.10078">
        <ele>1318.1</ele>
        <time>1970-01-01T03:59:21.000Z</time>
      </trkpt>
      <trkpt lat="47.90515" lon="7.10064">
        <ele>1316.8</ele>
        <time>1970-01-01T03:59:30.000Z</time>
      </trkpt>
      <trkpt lat="47.90517" lon="7.10051">
        <ele>1315.6</ele>
        <time>1970-01-01T03:59:39.000Z</time>
      </trkpt>
      <trkpt lat="47.90517" lon="7.10036">
        <ele>1314.4</ele>
        <time>1970-01-01T03:59:48.000Z</time>
      </trkpt>
      <trkpt lat="47.90517" lon="7.10022">
        <ele>1313.4</ele>
        <time>1970-01-01T03:59:57.000Z</time>
      </trkpt>
      <trkpt lat="47.90519" lon="7.10007">
        <ele>1312.2</ele>
        <time>1970-01-01T04:00:06.000Z</time>
      </trkpt>
      <trkpt lat="47.9052" lon="7.09992">
        <ele>1310.8</ele>
        <time>1970-01-01T04:00:15.000Z</time>
      </trkpt>
      <trkpt lat="47.9052" lon="7.09978">
        <ele>1309.5</ele>
        <time>1970-01-01T04:00:24.000Z</time>
      </trkpt>
      <trkpt lat="47.90521" lon="7.09963">
        <ele>1308.3</ele>
        <time>1970-01-01T04:00:33.000Z</time>
      </trkpt>
      <trkpt lat="47.90522" lon="7.09949">
        <ele>1307.1</ele>
        <time>1970-01-01T04:00:43.000Z</time>
      </trkpt>
      <trkpt lat="47.90526" lon="7.09935">
        <ele>1305.6</ele>
        <time>1970-01-01T04:00:52.000Z</time>
      </trkpt>
      <trkpt lat="47.90528" lon="7.09921">
        <ele>1304.3</ele>
        <time>1970-01-01T04:01:01.000Z</time>
      </trkpt>
      <trkpt lat="47.90529" lon="7.09908">
        <ele>1303.2</ele>
        <time>1970-01-01T04:01:09.000Z</time>
      </trkpt>
      <trkpt lat="47.90531" lon="7.09893">
        <ele>1302</ele>
        <time>1970-01-01T04:01:18.000Z</time>
      </trkpt>
      <trkpt lat="47.90533" lon="7.0988">
        <ele>1301</ele>
        <time>1970-01-01T04:01:26.000Z</time>
      </trkpt>
      <trkpt lat="47.90533" lon="7.09867">
        <ele>1299.8</ele>
        <time>1970-01-01T04:01:34.000Z</time>
      </trkpt>
      <trkpt lat="47.90533" lon="7.09852">
        <ele>1298.8</ele>
        <time>1970-01-01T04:01:43.000Z</time>
      </trkpt>
      <trkpt lat="47.90533" lon="7.09838">
        <ele>1297.6</ele>
        <time>1970-01-01T04:01:51.000Z</time>
      </trkpt>
      <trkpt lat="47.90533" lon="7.09824">
        <ele>1296.2</ele>
        <time>1970-01-01T04:01:59.000Z</time>
      </trkpt>
      <trkpt lat="47.90532" lon="7.0981">
        <ele>1294.9</ele>
        <time>1970-01-01T04:02:08.000Z</time>
      </trkpt>
      <trkpt lat="47.90532" lon="7.09796">
        <ele>1293.8</ele>
        <time>1970-01-01T04:02:16.000Z</time>
      </trkpt>
      <trkpt lat="47.9053" lon="7.09782">
        <ele>1292.5</ele>
        <time>1970-01-01T04:02:25.000Z</time>
      </trkpt>
      <trkpt lat="47.9053" lon="7.09768">
        <ele>1291.3</ele>
        <time>1970-01-01T04:02:33.000Z</time>
      </trkpt>
      <trkpt lat="47.90527" lon="7.09755">
        <ele>1290</ele>
        <time>1970-01-01T04:02:42.000Z</time>
      </trkpt>
      <trkpt lat="47.90525" lon="7.09742">
        <ele>1288.7</ele>
        <time>1970-01-01T04:02:50.000Z</time>
      </trkpt>
      <trkpt lat="47.90523" lon="7.09729">
        <ele>1287.6</ele>
        <time>1970-01-01T04:02:58.000Z</time>
      </trkpt>
      <trkpt lat="47.90521" lon="7.09715">
        <ele>1286.5</ele>
        <time>1970-01-01T04:03:07.000Z</time>
      </trkpt>
      <trkpt lat="47.90519" lon="7.09701">
        <ele>1285.3</ele>
        <time>1970-01-01T04:03:17.000Z</time>
      </trkpt>
      <trkpt lat="47.90518" lon="7.09688">
        <ele>1284.1</ele>
        <time>1970-01-01T04:03:25.000Z</time>
      </trkpt>
      <trkpt lat="47.90517" lon="7.09675">
        <ele>1282.9</ele>
        <time>1970-01-01T04:03:33.000Z</time>
      </trkpt>
      <trkpt lat="47.90519" lon="7.09661">
        <ele>1281.8</ele>
        <time>1970-01-01T04:03:42.000Z</time>
      </trkpt>
      <trkpt lat="47.90523" lon="7.09649">
        <ele>1280.6</ele>
        <time>1970-01-01T04:03:51.000Z</time>
      </trkpt>
      <trkpt lat="47.90526" lon="7.09636">
        <ele>1279.4</ele>
        <time>1970-01-01T04:04:00.000Z</time>
      </trkpt>
      <trkpt lat="47.90529" lon="7.09621">
        <ele>1278</ele>
        <time>1970-01-01T04:04:09.000Z</time>
      </trkpt>
      <trkpt lat="47.90528" lon="7.09608">
        <ele>1276.9</ele>
        <time>1970-01-01T04:04:17.000Z</time>
      </trkpt>
      <trkpt lat="47.90528" lon="7.09594">
        <ele>1275.5</ele>
        <time>1970-01-01T04:04:26.000Z</time>
      </trkpt>
      <trkpt lat="47.90528" lon="7.09579">
        <ele>1274.1</ele>
        <time>1970-01-01T04:04:35.000Z</time>
      </trkpt>
      <trkpt lat="47.90528" lon="7.09564">
        <ele>1272.9</ele>
        <time>1970-01-01T04:04:44.000Z</time>
      </trkpt>
      <trkpt lat="47.90527" lon="7.0955">
        <ele>1271.7</ele>
        <time>1970-01-01T04:04:53.000Z</time>
      </trkpt>
      <trkpt lat="47.90526" lon="7.09536">
        <ele>1270.4</ele>
        <time>1970-01-01T04:05:02.000Z</time>
      </trkpt>
      <trkpt lat="47.90524" lon="7.09522">
        <ele>1269.1</ele>
        <time>1970-01-01T04:05:11.000Z</time>
      </trkpt>
      <trkpt lat="47.90519" lon="7.09511">
        <ele>1267.9</ele>
        <time>1970-01-01T04:05:19.000Z</time>
      </trkpt>
      <trkpt lat="47.90515" lon="7.09498">
        <ele>1266.7</ele>
        <time>1970-01-01T04:05:28.000Z</time>
      </trkpt>
      <trkpt lat="47.9051" lon="7.09486">
        <ele>1265.5</ele>
        <time>1970-01-01T04:05:37.000Z</time>
      </trkpt>
      <trkpt lat="47.90506" lon="7.09473">
        <ele>1264.4</ele>
        <time>1970-01-01T04:05:46.000Z</time>
      </trkpt>
      <trkpt lat="47.90502" lon="7.09459">
        <ele>1263</ele>
        <time>1970-01-01T04:05:55.000Z</time>
      </trkpt>
      <trkpt lat="47.90498" lon="7.09446">
        <ele>1261.8</ele>
        <time>1970-01-01T04:06:04.000Z</time>
      </trkpt>
      <trkpt lat="47.90495" lon="7.09432">
        <ele>1260.6</ele>
        <time>1970-01-01T04:06:13.000Z</time>
      </trkpt>
      <trkpt lat="47.9049" lon="7.09419">
        <ele>1259.2</ele>
        <time>1970-01-01T04:06:22.000Z</time>
      </trkpt>
      <trkpt lat="47.90487" lon="7.09407">
        <ele>1258</ele>
        <time>1970-01-01T04:06:30.000Z</time>
      </trkpt>
      <trkpt lat="47.90486" lon="7.09393">
        <ele>1256.8</ele>
        <time>1970-01-01T04:06:39.000Z</time>
      </trkpt>
      <trkpt lat="47.90484" lon="7.0938">
        <ele>1255.4</ele>
        <time>1970-01-01T04:06:48.000Z</time>
      </trkpt>
      <trkpt lat="47.90482" lon="7.09367">
        <ele>1254</ele>
        <time>1970-01-01T04:06:57.000Z</time>
      </trkpt>
      <trkpt lat="47.9048" lon="7.09354">
        <ele>1252.8</ele>
        <time>1970-01-01T04:07:05.000Z</time>
      </trkpt>
      <trkpt lat="47.90476" lon="7.0934">
        <ele>1251.7</ele>
        <time>1970-01-01T04:07:14.000Z</time>
      </trkpt>
      <trkpt lat="47.90473" lon="7.09327">
        <ele>1250.5</ele>
        <time>1970-01-01T04:07:23.000Z</time>
      </trkpt>
      <trkpt lat="47.90469" lon="7.09314">
        <ele>1249</ele>
        <time>1970-01-01T04:07:32.000Z</time>
      </trkpt>
      <trkpt lat="47.90466" lon="7.09301">
        <ele>1247.8</ele>
        <time>1970-01-01T04:07:41.000Z</time>
      </trkpt>
      <trkpt lat="47.90464" lon="7.09287">
        <ele>1246.6</ele>
        <time>1970-01-01T04:07:50.000Z</time>
      </trkpt>
      <trkpt lat="47.90462" lon="7.09274">
        <ele>1245.5</ele>
        <time>1970-01-01T04:07:58.000Z</time>
      </trkpt>
      <trkpt lat="47.9046" lon="7.0926">
        <ele>1244.2</ele>
        <time>1970-01-01T04:08:07.000Z</time>
      </trkpt>
      <trkpt lat="47.90458" lon="7.09246">
        <ele>1243.1</ele>
        <time>1970-01-01T04:08:16.000Z</time>
      </trkpt>
      <trkpt lat="47.90456" lon="7.09232">
        <ele>1241.9</ele>
        <time>1970-01-01T04:08:25.000Z</time>
      </trkpt>
      <trkpt lat="47.90455" lon="7.09218">
        <ele>1240.7</ele>
        <time>1970-01-01T04:08:34.000Z</time>
      </trkpt>
      <trkpt lat="47.90455" lon="7.09203">
        <ele>1239.5</ele>
        <time>1970-01-01T04:08:44.000Z</time>
      </trkpt>
      <trkpt lat="47.90454" lon="7.0919">
        <ele>1238.4</ele>
        <time>1970-01-01T04:08:53.000Z</time>
      </trkpt>
      <trkpt lat="47.90453" lon="7.09176">
        <ele>1237.2</ele>
        <time>1970-01-01T04:09:04.000Z</time>
      </trkpt>
      <trkpt lat="47.90452" lon="7.09162">
        <ele>1235.8</ele>
        <time>1970-01-01T04:09:20.000Z</time>
      </trkpt>
      <trkpt lat="47.90453" lon="7.09148">
        <ele>1234.5</ele>
        <time>1970-01-01T04:09:28.000Z</time>
      </trkpt>
      <trkpt lat="47.90453" lon="7.09134">
        <ele>1233.1</ele>
        <time>1970-01-01T04:09:37.000Z</time>
      </trkpt>
      <trkpt lat="47.90455" lon="7.09121">
        <ele>1232.1</ele>
        <time>1970-01-01T04:09:46.000Z</time>
      </trkpt>
      <trkpt lat="47.90458" lon="7.09108">
        <ele>1231.2</ele>
        <time>1970-01-01T04:09:55.000Z</time>
      </trkpt>
      <trkpt lat="47.90463" lon="7.09096">
        <ele>1230.2</ele>
        <time>1970-01-01T04:10:04.000Z</time>
      </trkpt>
      <trkpt lat="47.90469" lon="7.09084">
        <ele>1229.3</ele>
        <time>1970-01-01T04:10:13.000Z</time>
      </trkpt>
      <trkpt lat="47.90476" lon="7.09076">
        <ele>1228.7</ele>
        <time>1970-01-01T04:10:21.000Z</time>
      </trkpt>
      <trkpt lat="47.90483" lon="7.09066">
        <ele>1227.9</ele>
        <time>1970-01-01T04:10:30.000Z</time>
      </trkpt>
      <trkpt lat="47.9049" lon="7.09056">
        <ele>1227.1</ele>
        <time>1970-01-01T04:10:39.000Z</time>
      </trkpt>
      <trkpt lat="47.90497" lon="7.09046">
        <ele>1226</ele>
        <time>1970-01-01T04:10:48.000Z</time>
      </trkpt>
      <trkpt lat="47.90503" lon="7.09037">
        <ele>1224.8</ele>
        <time>1970-01-01T04:11:00.000Z</time>
      </trkpt>
      <trkpt lat="47.90509" lon="7.09025">
        <ele>1224.5</ele>
        <time>1970-01-01T04:11:11.000Z</time>
      </trkpt>
      <trkpt lat="47.90513" lon="7.09014">
        <ele>1224.6</ele>
        <time>1970-01-01T04:11:21.000Z</time>
      </trkpt>
      <trkpt lat="47.90518" lon="7.09002">
        <ele>1225.7</ele>
        <time>1970-01-01T04:11:31.000Z</time>
      </trkpt>
      <trkpt lat="47.9052" lon="7.08988">
        <ele>1226.3</ele>
        <time>1970-01-01T04:11:41.000Z</time>
      </trkpt>
      <trkpt lat="47.90522" lon="7.08974">
        <ele>1226.3</ele>
        <time>1970-01-01T04:11:51.000Z</time>
      </trkpt>
      <trkpt lat="47.90522" lon="7.0896">
        <ele>1226.4</ele>
        <time>1970-01-01T04:12:01.000Z</time>
      </trkpt>
      <trkpt lat="47.90516" lon="7.0895">
        <ele>1226.5</ele>
        <time>1970-01-01T04:12:10.000Z</time>
      </trkpt>
      <trkpt lat="47.90508" lon="7.08942">
        <ele>1226.5</ele>
        <time>1970-01-01T04:12:21.000Z</time>
      </trkpt>
      <trkpt lat="47.905" lon="7.08936">
        <ele>1226.3</ele>
        <time>1970-01-01T04:13:00.000Z</time>
      </trkpt>
      <trkpt lat="47.90495" lon="7.08924">
        <ele>1226.2</ele>
        <time>1970-01-01T04:13:09.000Z</time>
      </trkpt>
      <trkpt lat="47.90492" lon="7.0891">
        <ele>1226.1</ele>
        <time>1970-01-01T04:13:18.000Z</time>
      </trkpt>
      <trkpt lat="47.9049" lon="7.08897">
        <ele>1226</ele>
        <time>1970-01-01T04:13:27.000Z</time>
      </trkpt>
      <trkpt lat="47.90487" lon="7.08884">
        <ele>1226</ele>
        <time>1970-01-01T04:13:36.000Z</time>
      </trkpt>
      <trkpt lat="47.90485" lon="7.08871">
        <ele>1226.1</ele>
        <time>1970-01-01T04:13:45.000Z</time>
      </trkpt>
      <trkpt lat="47.90477" lon="7.08863">
        <ele>1226.5</ele>
        <time>1970-01-01T04:13:55.000Z</time>
      </trkpt>
      <trkpt lat="47.90479" lon="7.0885">
        <ele>1227.2</ele>
        <time>1970-01-01T04:14:10.000Z</time>
      </trkpt>
      <trkpt lat="47.90481" lon="7.08836">
        <ele>1227.9</ele>
        <time>1970-01-01T04:14:28.000Z</time>
      </trkpt>
      <trkpt lat="47.9048" lon="7.08822">
        <ele>1228.3</ele>
        <time>1970-01-01T04:15:31.000Z</time>
      </trkpt>
      <trkpt lat="47.90479" lon="7.08808">
        <ele>1228.4</ele>
        <time>1970-01-01T04:15:44.000Z</time>
      </trkpt>
      <trkpt lat="47.90476" lon="7.08795">
        <ele>1228.5</ele>
        <time>1970-01-01T04:15:55.000Z</time>
      </trkpt>
      <trkpt lat="47.90474" lon="7.08781">
        <ele>1228.5</ele>
        <time>1970-01-01T04:16:05.000Z</time>
      </trkpt>
      <trkpt lat="47.9047" lon="7.08769">
        <ele>1228.5</ele>
        <time>1970-01-01T04:16:15.000Z</time>
      </trkpt>
      <trkpt lat="47.90465" lon="7.08757">
        <ele>1228.5</ele>
        <time>1970-01-01T04:16:24.000Z</time>
      </trkpt>
      <trkpt lat="47.90459" lon="7.08745">
        <ele>1228.5</ele>
        <time>1970-01-01T04:16:34.000Z</time>
      </trkpt>
      <trkpt lat="47.90455" lon="7.08733">
        <ele>1228.6</ele>
        <time>1970-01-01T04:16:44.000Z</time>
      </trkpt>
      <trkpt lat="47.90451" lon="7.0872">
        <ele>1228.9</ele>
        <time>1970-01-01T04:16:54.000Z</time>
      </trkpt>
      <trkpt lat="47.90446" lon="7.08708">
        <ele>1229</ele>
        <time>1970-01-01T04:17:04.000Z</time>
      </trkpt>
      <trkpt lat="47.90442" lon="7.08696">
        <ele>1229.5</ele>
        <time>1970-01-01T04:17:14.000Z</time>
      </trkpt>
      <trkpt lat="47.90437" lon="7.08684">
        <ele>1230.2</ele>
        <time>1970-01-01T04:17:25.000Z</time>
      </trkpt>
      <trkpt lat="47.90433" lon="7.08672">
        <ele>1231.1</ele>
        <time>1970-01-01T04:17:35.000Z</time>
      </trkpt>
      <trkpt lat="47.90429" lon="7.08659">
        <ele>1232.3</ele>
        <time>1970-01-01T04:17:46.000Z</time>
      </trkpt>
      <trkpt lat="47.90426" lon="7.08645">
        <ele>1233.5</ele>
        <time>1970-01-01T04:17:58.000Z</time>
      </trkpt>
      <trkpt lat="47.90422" lon="7.08631">
        <ele>1234.8</ele>
        <time>1970-01-01T04:18:10.000Z</time>
      </trkpt>
      <trkpt lat="47.90418" lon="7.08619">
        <ele>1235.9</ele>
        <time>1970-01-01T04:18:23.000Z</time>
      </trkpt>
      <trkpt lat="47.90413" lon="7.08607">
        <ele>1237.2</ele>
        <time>1970-01-01T04:18:35.000Z</time>
      </trkpt>
      <trkpt lat="47.90407" lon="7.08597">
        <ele>1238.5</ele>
        <time>1970-01-01T04:18:45.000Z</time>
      </trkpt>
      <trkpt lat="47.90402" lon="7.08586">
        <ele>1240</ele>
        <time>1970-01-01T04:18:58.000Z</time>
      </trkpt>
      <trkpt lat="47.90398" lon="7.08573">
        <ele>1241.7</ele>
        <time>1970-01-01T04:19:10.000Z</time>
      </trkpt>
      <trkpt lat="47.90394" lon="7.08561">
        <ele>1243.3</ele>
        <time>1970-01-01T04:19:24.000Z</time>
      </trkpt>
      <trkpt lat="47.9039" lon="7.0855">
        <ele>1245</ele>
        <time>1970-01-01T04:19:36.000Z</time>
      </trkpt>
      <trkpt lat="47.90386" lon="7.08537">
        <ele>1246.5</ele>
        <time>1970-01-01T04:19:50.000Z</time>
      </trkpt>
      <trkpt lat="47.90382" lon="7.08525">
        <ele>1248.7</ele>
        <time>1970-01-01T04:20:05.000Z</time>
      </trkpt>
      <trkpt lat="47.9038" lon="7.08511">
        <ele>1251.3</ele>
        <time>1970-01-01T04:20:21.000Z</time>
      </trkpt>
      <trkpt lat="47.90377" lon="7.085">
        <ele>1253.5</ele>
        <time>1970-01-01T04:21:39.000Z</time>
      </trkpt>
      <trkpt lat="47.90378" lon="7.08488">
        <ele>1255.6</ele>
        <time>1970-01-01T04:22:21.000Z</time>
      </trkpt>
      <trkpt lat="47.9038" lon="7.08476">
        <ele>1257.5</ele>
        <time>1970-01-01T04:22:39.000Z</time>
      </trkpt>
      <trkpt lat="47.90379" lon="7.08462">
        <ele>1259.4</ele>
        <time>1970-01-01T04:22:55.000Z</time>
      </trkpt>
      <trkpt lat="47.90374" lon="7.08451">
        <ele>1261.5</ele>
        <time>1970-01-01T04:23:12.000Z</time>
      </trkpt>
      <trkpt lat="47.90371" lon="7.08438">
        <ele>1263.5</ele>
        <time>1970-01-01T04:23:28.000Z</time>
      </trkpt>
      <trkpt lat="47.9037" lon="7.08423">
        <ele>1265.5</ele>
        <time>1970-01-01T04:23:43.000Z</time>
      </trkpt>
      <trkpt lat="47.90369" lon="7.08409">
        <ele>1267.5</ele>
        <time>1970-01-01T04:23:59.000Z</time>
      </trkpt>
      <trkpt lat="47.90368" lon="7.08396">
        <ele>1269.4</ele>
        <time>1970-01-01T04:24:14.000Z</time>
      </trkpt>
      <trkpt lat="47.90367" lon="7.08383">
        <ele>1271.4</ele>
        <time>1970-01-01T04:24:31.000Z</time>
      </trkpt>
      <trkpt lat="47.90367" lon="7.08369">
        <ele>1273.9</ele>
        <time>1970-01-01T04:24:48.000Z</time>
      </trkpt>
      <trkpt lat="47.90368" lon="7.08357">
        <ele>1276.1</ele>
        <time>1970-01-01T04:25:10.000Z</time>
      </trkpt>
      <trkpt lat="47.90367" lon="7.08347">
        <ele>1278.3</ele>
        <time>1970-01-01T04:25:24.000Z</time>
      </trkpt>
      <trkpt lat="47.90363" lon="7.08335">
        <ele>1280.7</ele>
        <time>1970-01-01T04:25:42.000Z</time>
      </trkpt>
      <trkpt lat="47.90361" lon="7.08322">
        <ele>1283.7</ele>
        <time>1970-01-01T04:26:06.000Z</time>
      </trkpt>
      <trkpt lat="47.90361" lon="7.0831">
        <ele>1286.1</ele>
        <time>1970-01-01T04:26:27.000Z</time>
      </trkpt>
      <trkpt lat="47.90358" lon="7.08297">
        <ele>1289</ele>
        <time>1970-01-01T04:26:51.000Z</time>
      </trkpt>
      <trkpt lat="47.90357" lon="7.08284">
        <ele>1291.9</ele>
        <time>1970-01-01T04:27:11.000Z</time>
      </trkpt>
      <trkpt lat="47.90352" lon="7.08274">
        <ele>1294.7</ele>
        <time>1970-01-01T04:27:30.000Z</time>
      </trkpt>
      <trkpt lat="47.90349" lon="7.08266">
        <ele>1296.5</ele>
        <time>1970-01-01T04:27:46.000Z</time>
      </trkpt>
      <trkpt lat="47.90351" lon="7.08254">
        <ele>1299</ele>
        <time>1970-01-01T04:28:07.000Z</time>
      </trkpt>
      <trkpt lat="47.90348" lon="7.08242">
        <ele>1301.4</ele>
        <time>1970-01-01T04:28:26.000Z</time>
      </trkpt>
      <trkpt lat="47.90346" lon="7.08229">
        <ele>1303.7</ele>
        <time>1970-01-01T04:28:47.000Z</time>
      </trkpt>
      <trkpt lat="47.90345" lon="7.08216">
        <ele>1305.7</ele>
        <time>1970-01-01T04:29:05.000Z</time>
      </trkpt>
      <trkpt lat="47.90346" lon="7.08202">
        <ele>1307.9</ele>
        <time>1970-01-01T04:29:22.000Z</time>
      </trkpt>
      <trkpt lat="47.90345" lon="7.08191">
        <ele>1309.7</ele>
        <time>1970-01-01T04:29:42.000Z</time>
      </trkpt>
      <trkpt lat="47.90343" lon="7.08179">
        <ele>1311.9</ele>
        <time>1970-01-01T04:30:01.000Z</time>
      </trkpt>
      <trkpt lat="47.90344" lon="7.08165">
        <ele>1314.6</ele>
        <time>1970-01-01T04:30:19.000Z</time>
      </trkpt>
      <trkpt lat="47.9034" lon="7.08151">
        <ele>1317.4</ele>
        <time>1970-01-01T04:30:39.000Z</time>
      </trkpt>
      <trkpt lat="47.90337" lon="7.08138">
        <ele>1319.9</ele>
        <time>1970-01-01T04:31:00.000Z</time>
      </trkpt>
      <trkpt lat="47.90334" lon="7.08125">
        <ele>1322.3</ele>
        <time>1970-01-01T04:31:13.000Z</time>
      </trkpt>
      <trkpt lat="47.9033" lon="7.08112">
        <ele>1324</ele>
        <time>1970-01-01T04:31:25.000Z</time>
      </trkpt>
      <trkpt lat="47.90327" lon="7.08098">
        <ele>1325.6</ele>
        <time>1970-01-01T04:31:38.000Z</time>
      </trkpt>
      <trkpt lat="47.90323" lon="7.08086">
        <ele>1326.9</ele>
        <time>1970-01-01T04:31:51.000Z</time>
      </trkpt>
      <trkpt lat="47.90319" lon="7.08073">
        <ele>1327.9</ele>
        <time>1970-01-01T04:32:03.000Z</time>
      </trkpt>
      <trkpt lat="47.90313" lon="7.08062">
        <ele>1328.7</ele>
        <time>1970-01-01T04:32:15.000Z</time>
      </trkpt>
      <trkpt lat="47.90306" lon="7.08055">
        <ele>1329.4</ele>
        <time>1970-01-01T04:32:28.000Z</time>
      </trkpt>
      <trkpt lat="47.90301" lon="7.08042">
        <ele>1330.5</ele>
        <time>1970-01-01T04:33:04.000Z</time>
      </trkpt>
      <trkpt lat="47.90294" lon="7.08033">
        <ele>1331.6</ele>
        <time>1970-01-01T04:33:14.000Z</time>
      </trkpt>
      <trkpt lat="47.90286" lon="7.08023">
        <ele>1332.6</ele>
        <time>1970-01-01T04:33:25.000Z</time>
      </trkpt>
      <trkpt lat="47.90278" lon="7.08016">
        <ele>1333.4</ele>
        <time>1970-01-01T04:33:36.000Z</time>
      </trkpt>
      <trkpt lat="47.90271" lon="7.08007">
        <ele>1334.1</ele>
        <time>1970-01-01T04:33:46.000Z</time>
      </trkpt>
      <trkpt lat="47.90266" lon="7.07995">
        <ele>1334.7</ele>
        <time>1970-01-01T04:33:58.000Z</time>
      </trkpt>
      <trkpt lat="47.90265" lon="7.0798">
        <ele>1334.1</ele>
        <time>1970-01-01T04:35:45.000Z</time>
      </trkpt>
      <trkpt lat="47.90265" lon="7.07966">
        <ele>1333</ele>
        <time>1970-01-01T04:35:56.000Z</time>
      </trkpt>
      <trkpt lat="47.90264" lon="7.07952">
        <ele>1332</ele>
        <time>1970-01-01T04:36:06.000Z</time>
      </trkpt>
      <trkpt lat="47.90263" lon="7.07938">
        <ele>1331</ele>
        <time>1970-01-01T04:36:17.000Z</time>
      </trkpt>
      <trkpt lat="47.90265" lon="7.07925">
        <ele>1330</ele>
        <time>1970-01-01T04:36:26.000Z</time>
      </trkpt>
      <trkpt lat="47.90266" lon="7.07911">
        <ele>1329</ele>
        <time>1970-01-01T04:36:42.000Z</time>
      </trkpt>
      <trkpt lat="47.90269" lon="7.07897">
        <ele>1327.3</ele>
        <time>1970-01-01T04:36:54.000Z</time>
      </trkpt>
      <trkpt lat="47.90274" lon="7.07885">
        <ele>1325.5</ele>
        <time>1970-01-01T04:37:04.000Z</time>
      </trkpt>
      <trkpt lat="47.9028" lon="7.07876">
        <ele>1323.8</ele>
        <time>1970-01-01T04:37:15.000Z</time>
      </trkpt>
      <trkpt lat="47.90288" lon="7.07867">
        <ele>1322.1</ele>
        <time>1970-01-01T04:37:24.000Z</time>
      </trkpt>
      <trkpt lat="47.90295" lon="7.07859">
        <ele>1320.6</ele>
        <time>1970-01-01T04:37:33.000Z</time>
      </trkpt>
      <trkpt lat="47.90302" lon="7.0785">
        <ele>1318.8</ele>
        <time>1970-01-01T04:37:43.000Z</time>
      </trkpt>
      <trkpt lat="47.90308" lon="7.0784">
        <ele>1316.6</ele>
        <time>1970-01-01T04:37:54.000Z</time>
      </trkpt>
      <trkpt lat="47.90311" lon="7.07828">
        <ele>1314.4</ele>
        <time>1970-01-01T04:38:06.000Z</time>
      </trkpt>
      <trkpt lat="47.90318" lon="7.07819">
        <ele>1311.7</ele>
        <time>1970-01-01T04:38:20.000Z</time>
      </trkpt>
      <trkpt lat="47.9032" lon="7.07806">
        <ele>1309.4</ele>
        <time>1970-01-01T04:38:32.000Z</time>
      </trkpt>
      <trkpt lat="47.90324" lon="7.07794">
        <ele>1307.5</ele>
        <time>1970-01-01T04:38:44.000Z</time>
      </trkpt>
      <trkpt lat="47.90329" lon="7.07781">
        <ele>1305.6</ele>
        <time>1970-01-01T04:38:55.000Z</time>
      </trkpt>
      <trkpt lat="47.90336" lon="7.07772">
        <ele>1303.7</ele>
        <time>1970-01-01T04:39:06.000Z</time>
      </trkpt>
      <trkpt lat="47.90338" lon="7.07759">
        <ele>1301.8</ele>
        <time>1970-01-01T04:39:18.000Z</time>
      </trkpt>
      <trkpt lat="47.90345" lon="7.07749">
        <ele>1299.9</ele>
        <time>1970-01-01T04:39:29.000Z</time>
      </trkpt>
      <trkpt lat="47.90348" lon="7.07736">
        <ele>1298.1</ele>
        <time>1970-01-01T04:39:41.000Z</time>
      </trkpt>
      <trkpt lat="47.90355" lon="7.07726">
        <ele>1296.8</ele>
        <time>1970-01-01T04:39:50.000Z</time>
      </trkpt>
      <trkpt lat="47.9036" lon="7.07715">
        <ele>1295.8</ele>
        <time>1970-01-01T04:40:00.000Z</time>
      </trkpt>
      <trkpt lat="47.90367" lon="7.07705">
        <ele>1294.8</ele>
        <time>1970-01-01T04:40:12.000Z</time>
      </trkpt>
      <trkpt lat="47.90374" lon="7.07698">
        <ele>1293.8</ele>
        <time>1970-01-01T04:40:27.000Z</time>
      </trkpt>
      <trkpt lat="47.90377" lon="7.07685">
        <ele>1293.2</ele>
        <time>1970-01-01T04:40:40.000Z</time>
      </trkpt>
      <trkpt lat="47.90386" lon="7.0768">
        <ele>1292.9</ele>
        <time>1970-01-01T04:40:49.000Z</time>
      </trkpt>
      <trkpt lat="47.90395" lon="7.07675">
        <ele>1292.5</ele>
        <time>1970-01-01T04:40:59.000Z</time>
      </trkpt>
      <trkpt lat="47.90399" lon="7.07662">
        <ele>1291.4</ele>
        <time>1970-01-01T04:41:10.000Z</time>
      </trkpt>
      <trkpt lat="47.90404" lon="7.07651">
        <ele>1289.7</ele>
        <time>1970-01-01T04:41:22.000Z</time>
      </trkpt>
      <trkpt lat="47.9041" lon="7.0764">
        <ele>1287.5</ele>
        <time>1970-01-01T04:41:32.000Z</time>
      </trkpt>
      <trkpt lat="47.90414" lon="7.07627">
        <ele>1285.1</ele>
        <time>1970-01-01T04:41:45.000Z</time>
      </trkpt>
      <trkpt lat="47.90418" lon="7.07615">
        <ele>1283</ele>
        <time>1970-01-01T04:41:58.000Z</time>
      </trkpt>
      <trkpt lat="47.90423" lon="7.07603">
        <ele>1281.3</ele>
        <time>1970-01-01T04:42:06.000Z</time>
      </trkpt>
      <trkpt lat="47.90422" lon="7.0759">
        <ele>1280.2</ele>
        <time>1970-01-01T04:42:15.000Z</time>
      </trkpt>
      <trkpt lat="47.90422" lon="7.07575">
        <ele>1279.3</ele>
        <time>1970-01-01T04:42:23.000Z</time>
      </trkpt>
      <trkpt lat="47.90424" lon="7.07562">
        <ele>1278.6</ele>
        <time>1970-01-01T04:42:31.000Z</time>
      </trkpt>
      <trkpt lat="47.90429" lon="7.0755">
        <ele>1277.7</ele>
        <time>1970-01-01T04:42:41.000Z</time>
      </trkpt>
      <trkpt lat="47.90431" lon="7.07537">
        <ele>1276.9</ele>
        <time>1970-01-01T04:42:52.000Z</time>
      </trkpt>
      <trkpt lat="47.90435" lon="7.07523">
        <ele>1275.9</ele>
        <time>1970-01-01T04:43:02.000Z</time>
      </trkpt>
      <trkpt lat="47.90438" lon="7.0751">
        <ele>1275.1</ele>
        <time>1970-01-01T04:43:11.000Z</time>
      </trkpt>
      <trkpt lat="47.9044" lon="7.07496">
        <ele>1274.4</ele>
        <time>1970-01-01T04:43:20.000Z</time>
      </trkpt>
      <trkpt lat="47.90445" lon="7.07485">
        <ele>1273.8</ele>
        <time>1970-01-01T04:43:27.000Z</time>
      </trkpt>
      <trkpt lat="47.90443" lon="7.07471">
        <ele>1273.5</ele>
        <time>1970-01-01T04:43:37.000Z</time>
      </trkpt>
      <trkpt lat="47.90442" lon="7.07457">
        <ele>1273.6</ele>
        <time>1970-01-01T04:43:44.000Z</time>
      </trkpt>
      <trkpt lat="47.90442" lon="7.07443">
        <ele>1274.1</ele>
        <time>1970-01-01T04:43:53.000Z</time>
      </trkpt>
      <trkpt lat="47.90446" lon="7.0743">
        <ele>1274.7</ele>
        <time>1970-01-01T04:44:03.000Z</time>
      </trkpt>
      <trkpt lat="47.90451" lon="7.07419">
        <ele>1275.2</ele>
        <time>1970-01-01T04:44:13.000Z</time>
      </trkpt>
      <trkpt lat="47.90453" lon="7.07405">
        <ele>1275.6</ele>
        <time>1970-01-01T04:44:22.000Z</time>
      </trkpt>
      <trkpt lat="47.90454" lon="7.0739">
        <ele>1275.6</ele>
        <time>1970-01-01T04:44:31.000Z</time>
      </trkpt>
      <trkpt lat="47.90455" lon="7.07376">
        <ele>1275.2</ele>
        <time>1970-01-01T04:44:40.000Z</time>
      </trkpt>
      <trkpt lat="47.90456" lon="7.07362">
        <ele>1274.6</ele>
        <time>1970-01-01T04:44:49.000Z</time>
      </trkpt>
      <trkpt lat="47.90459" lon="7.07348">
        <ele>1273.7</ele>
        <time>1970-01-01T04:44:58.000Z</time>
      </trkpt>
      <trkpt lat="47.9046" lon="7.07335">
        <ele>1272.6</ele>
        <time>1970-01-01T04:45:09.000Z</time>
      </trkpt>
      <trkpt lat="47.90462" lon="7.07321">
        <ele>1271.5</ele>
        <time>1970-01-01T04:45:24.000Z</time>
      </trkpt>
      <trkpt lat="47.90468" lon="7.0731">
        <ele>1270.6</ele>
        <time>1970-01-01T04:45:34.000Z</time>
      </trkpt>
      <trkpt lat="47.90472" lon="7.07298">
        <ele>1269.8</ele>
        <time>1970-01-01T04:45:45.000Z</time>
      </trkpt>
      <trkpt lat="47.90477" lon="7.07286">
        <ele>1269.1</ele>
        <time>1970-01-01T04:45:55.000Z</time>
      </trkpt>
      <trkpt lat="47.90483" lon="7.07275">
        <ele>1268.7</ele>
        <time>1970-01-01T04:46:04.000Z</time>
      </trkpt>
      <trkpt lat="47.90491" lon="7.07267">
        <ele>1268.4</ele>
        <time>1970-01-01T04:46:12.000Z</time>
      </trkpt>
      <trkpt lat="47.90495" lon="7.07253">
        <ele>1268</ele>
        <time>1970-01-01T04:46:22.000Z</time>
      </trkpt>
      <trkpt lat="47.90498" lon="7.0724">
        <ele>1267.3</ele>
        <time>1970-01-01T04:46:33.000Z</time>
      </trkpt>
      <trkpt lat="47.90498" lon="7.07225">
        <ele>1266.2</ele>
        <time>1970-01-01T04:46:44.000Z</time>
      </trkpt>
      <trkpt lat="47.90501" lon="7.07212">
        <ele>1264.7</ele>
        <time>1970-01-01T04:46:57.000Z</time>
      </trkpt>
      <trkpt lat="47.90502" lon="7.07199">
        <ele>1263.1</ele>
        <time>1970-01-01T04:47:10.000Z</time>
      </trkpt>
      <trkpt lat="47.90503" lon="7.07185">
        <ele>1261.5</ele>
        <time>1970-01-01T04:47:23.000Z</time>
      </trkpt>
      <trkpt lat="47.90505" lon="7.07172">
        <ele>1260.3</ele>
        <time>1970-01-01T04:47:32.000Z</time>
      </trkpt>
      <trkpt lat="47.90508" lon="7.0716">
        <ele>1259.3</ele>
        <time>1970-01-01T04:47:42.000Z</time>
      </trkpt>
      <trkpt lat="47.90512" lon="7.07148">
        <ele>1258.1</ele>
        <time>1970-01-01T04:47:53.000Z</time>
      </trkpt>
      <trkpt lat="47.90508" lon="7.07135">
        <ele>1256.8</ele>
        <time>1970-01-01T04:48:03.000Z</time>
      </trkpt>
      <trkpt lat="47.90508" lon="7.07121">
        <ele>1255.5</ele>
        <time>1970-01-01T04:48:13.000Z</time>
      </trkpt>
      <trkpt lat="47.90509" lon="7.07108">
        <ele>1254.1</ele>
        <time>1970-01-01T04:48:22.000Z</time>
      </trkpt>
      <trkpt lat="47.90509" lon="7.07094">
        <ele>1252.2</ele>
        <time>1970-01-01T04:50:16.000Z</time>
      </trkpt>
      <trkpt lat="47.90512" lon="7.07081">
        <ele>1250.1</ele>
        <time>1970-01-01T04:50:29.000Z</time>
      </trkpt>
      <trkpt lat="47.90512" lon="7.07068">
        <ele>1248</ele>
        <time>1970-01-01T04:50:40.000Z</time>
      </trkpt>
      <trkpt lat="47.90514" lon="7.07054">
        <ele>1246.6</ele>
        <time>1970-01-01T04:50:53.000Z</time>
      </trkpt>
      <trkpt lat="47.90521" lon="7.07045">
        <ele>1244.4</ele>
        <time>1970-01-01T04:51:05.000Z</time>
      </trkpt>
      <trkpt lat="47.9053" lon="7.07039">
        <ele>1241.6</ele>
        <time>1970-01-01T04:51:17.000Z</time>
      </trkpt>
      <trkpt lat="47.90539" lon="7.0704">
        <ele>1238.7</ele>
        <time>1970-01-01T04:51:29.000Z</time>
      </trkpt>
      <trkpt lat="47.90545" lon="7.07031">
        <ele>1235.9</ele>
        <time>1970-01-01T04:51:41.000Z</time>
      </trkpt>
      <trkpt lat="47.90551" lon="7.07021">
        <ele>1232.8</ele>
        <time>1970-01-01T04:51:56.000Z</time>
      </trkpt>
      <trkpt lat="47.90559" lon="7.07019">
        <ele>1230.1</ele>
        <time>1970-01-01T04:52:08.000Z</time>
      </trkpt>
      <trkpt lat="47.90568" lon="7.07016">
        <ele>1227.1</ele>
        <time>1970-01-01T04:52:22.000Z</time>
      </trkpt>
      <trkpt lat="47.90576" lon="7.07011">
        <ele>1224.8</ele>
        <time>1970-01-01T04:52:34.000Z</time>
      </trkpt>
      <trkpt lat="47.90585" lon="7.07006">
        <ele>1223</ele>
        <time>1970-01-01T04:52:46.000Z</time>
      </trkpt>
      <trkpt lat="47.90595" lon="7.07004">
        <ele>1221.6</ele>
        <time>1970-01-01T04:52:56.000Z</time>
      </trkpt>
      <trkpt lat="47.90604" lon="7.07003">
        <ele>1220.5</ele>
        <time>1970-01-01T04:53:08.000Z</time>
      </trkpt>
      <trkpt lat="47.90614" lon="7.06999">
        <ele>1219.4</ele>
        <time>1970-01-01T04:53:22.000Z</time>
      </trkpt>
      <trkpt lat="47.90622" lon="7.06995">
        <ele>1218.4</ele>
        <time>1970-01-01T04:53:31.000Z</time>
      </trkpt>
      <trkpt lat="47.90632" lon="7.06991">
        <ele>1217.2</ele>
        <time>1970-01-01T04:53:40.000Z</time>
      </trkpt>
      <trkpt lat="47.9064" lon="7.06988">
        <ele>1215.8</ele>
        <time>1970-01-01T04:53:48.000Z</time>
      </trkpt>
      <trkpt lat="47.9065" lon="7.06984">
        <ele>1214.1</ele>
        <time>1970-01-01T04:53:58.000Z</time>
      </trkpt>
      <trkpt lat="47.90658" lon="7.06979">
        <ele>1212.3</ele>
        <time>1970-01-01T04:54:08.000Z</time>
      </trkpt>
      <trkpt lat="47.90666" lon="7.06971">
        <ele>1210.5</ele>
        <time>1970-01-01T04:54:18.000Z</time>
      </trkpt>
      <trkpt lat="47.90673" lon="7.06964">
        <ele>1208.9</ele>
        <time>1970-01-01T04:54:27.000Z</time>
      </trkpt>
      <trkpt lat="47.90677" lon="7.06952">
        <ele>1207.4</ele>
        <time>1970-01-01T04:54:36.000Z</time>
      </trkpt>
      <trkpt lat="47.90684" lon="7.06941">
        <ele>1205.9</ele>
        <time>1970-01-01T04:54:45.000Z</time>
      </trkpt>
      <trkpt lat="47.9069" lon="7.06929">
        <ele>1204.5</ele>
        <time>1970-01-01T04:54:53.000Z</time>
      </trkpt>
      <trkpt lat="47.90695" lon="7.06919">
        <ele>1203.4</ele>
        <time>1970-01-01T04:55:01.000Z</time>
      </trkpt>
      <trkpt lat="47.907" lon="7.06907">
        <ele>1202.4</ele>
        <time>1970-01-01T04:55:09.000Z</time>
      </trkpt>
      <trkpt lat="47.90707" lon="7.06896">
        <ele>1201.3</ele>
        <time>1970-01-01T04:55:18.000Z</time>
      </trkpt>
      <trkpt lat="47.90714" lon="7.06888">
        <ele>1200.4</ele>
        <time>1970-01-01T04:55:26.000Z</time>
      </trkpt>
      <trkpt lat="47.90722" lon="7.0688">
        <ele>1199.5</ele>
        <time>1970-01-01T04:55:34.000Z</time>
      </trkpt>
      <trkpt lat="47.90729" lon="7.06873">
        <ele>1198.4</ele>
        <time>1970-01-01T04:55:42.000Z</time>
      </trkpt>
      <trkpt lat="47.90737" lon="7.06865">
        <ele>1197.1</ele>
        <time>1970-01-01T04:55:50.000Z</time>
      </trkpt>
      <trkpt lat="47.90745" lon="7.06859">
        <ele>1196</ele>
        <time>1970-01-01T04:55:58.000Z</time>
      </trkpt>
      <trkpt lat="47.90753" lon="7.06852">
        <ele>1194.8</ele>
        <time>1970-01-01T04:56:06.000Z</time>
      </trkpt>
      <trkpt lat="47.90761" lon="7.06844">
        <ele>1193.6</ele>
        <time>1970-01-01T04:56:15.000Z</time>
      </trkpt>
      <trkpt lat="47.9077" lon="7.06836">
        <ele>1192.5</ele>
        <time>1970-01-01T04:56:24.000Z</time>
      </trkpt>
      <trkpt lat="47.90777" lon="7.06828">
        <ele>1191.5</ele>
        <time>1970-01-01T04:56:32.000Z</time>
      </trkpt>
      <trkpt lat="47.90784" lon="7.06819">
        <ele>1190.8</ele>
        <time>1970-01-01T04:56:40.000Z</time>
      </trkpt>
      <trkpt lat="47.90791" lon="7.0681">
        <ele>1190.2</ele>
        <time>1970-01-01T04:56:48.000Z</time>
      </trkpt>
      <trkpt lat="47.90798" lon="7.06799">
        <ele>1189.8</ele>
        <time>1970-01-01T04:56:57.000Z</time>
      </trkpt>
      <trkpt lat="47.90807" lon="7.06797">
        <ele>1189.4</ele>
        <time>1970-01-01T04:57:06.000Z</time>
      </trkpt>
      <trkpt lat="47.90816" lon="7.06794">
        <ele>1189.1</ele>
        <time>1970-01-01T04:57:15.000Z</time>
      </trkpt>
      <trkpt lat="47.90824" lon="7.06787">
        <ele>1188.8</ele>
        <time>1970-01-01T04:57:23.000Z</time>
      </trkpt>
      <trkpt lat="47.90831" lon="7.06778">
        <ele>1188.6</ele>
        <time>1970-01-01T04:57:31.000Z</time>
      </trkpt>
      <trkpt lat="47.90839" lon="7.0677">
        <ele>1188.3</ele>
        <time>1970-01-01T04:57:39.000Z</time>
      </trkpt>
      <trkpt lat="47.90848" lon="7.06768">
        <ele>1188.1</ele>
        <time>1970-01-01T04:57:59.000Z</time>
      </trkpt>
      <trkpt lat="47.90857" lon="7.06765">
        <ele>1188.2</ele>
        <time>1970-01-01T04:58:08.000Z</time>
      </trkpt>
      <trkpt lat="47.90864" lon="7.06758">
        <ele>1188.3</ele>
        <time>1970-01-01T04:58:16.000Z</time>
      </trkpt>
      <trkpt lat="47.90871" lon="7.06749">
        <ele>1188.5</ele>
        <time>1970-01-01T04:58:24.000Z</time>
      </trkpt>
      <trkpt lat="47.90879" lon="7.0674">
        <ele>1188.6</ele>
        <time>1970-01-01T04:58:32.000Z</time>
      </trkpt>
      <trkpt lat="47.90887" lon="7.06732">
        <ele>1188.7</ele>
        <time>1970-01-01T04:58:41.000Z</time>
      </trkpt>
      <trkpt lat="47.90895" lon="7.06726">
        <ele>1188.9</ele>
        <time>1970-01-01T04:58:50.000Z</time>
      </trkpt>
      <trkpt lat="47.90904" lon="7.06721">
        <ele>1189</ele>
        <time>1970-01-01T04:58:59.000Z</time>
      </trkpt>
      <trkpt lat="47.90913" lon="7.06715">
        <ele>1189.1</ele>
        <time>1970-01-01T04:59:08.000Z</time>
      </trkpt>
      <trkpt lat="47.90922" lon="7.06708">
        <ele>1189.3</ele>
        <time>1970-01-01T04:59:16.000Z</time>
      </trkpt>
      <trkpt lat="47.90928" lon="7.06699">
        <ele>1189.4</ele>
        <time>1970-01-01T04:59:24.000Z</time>
      </trkpt>
      <trkpt lat="47.90936" lon="7.06691">
        <ele>1189.9</ele>
        <time>1970-01-01T04:59:32.000Z</time>
      </trkpt>
      <trkpt lat="47.90944" lon="7.06682">
        <ele>1190.7</ele>
        <time>1970-01-01T04:59:41.000Z</time>
      </trkpt>
      <trkpt lat="47.9095" lon="7.06672">
        <ele>1191.9</ele>
        <time>1970-01-01T04:59:50.000Z</time>
      </trkpt>
      <trkpt lat="47.90956" lon="7.06661">
        <ele>1192.6</ele>
        <time>1970-01-01T05:00:00.000Z</time>
      </trkpt>
      <trkpt lat="47.90964" lon="7.06652">
        <ele>1193.3</ele>
        <time>1970-01-01T05:00:14.000Z</time>
      </trkpt>
      <trkpt lat="47.90971" lon="7.06644">
        <ele>1194.1</ele>
        <time>1970-01-01T05:00:24.000Z</time>
      </trkpt>
      <trkpt lat="47.90979" lon="7.06635">
        <ele>1194.9</ele>
        <time>1970-01-01T05:00:35.000Z</time>
      </trkpt>
      <trkpt lat="47.90986" lon="7.06627">
        <ele>1195.7</ele>
        <time>1970-01-01T05:00:45.000Z</time>
      </trkpt>
      <trkpt lat="47.90991" lon="7.06615">
        <ele>1196.4</ele>
        <time>1970-01-01T05:00:56.000Z</time>
      </trkpt>
      <trkpt lat="47.90998" lon="7.06604">
        <ele>1197</ele>
        <time>1970-01-01T05:01:06.000Z</time>
      </trkpt>
      <trkpt lat="47.91005" lon="7.06594">
        <ele>1197.3</ele>
        <time>1970-01-01T05:01:16.000Z</time>
      </trkpt>
      <trkpt lat="47.9101" lon="7.06582">
        <ele>1197.4</ele>
        <time>1970-01-01T05:01:25.000Z</time>
      </trkpt>
      <trkpt lat="47.91017" lon="7.0657">
        <ele>1197.6</ele>
        <time>1970-01-01T05:01:34.000Z</time>
      </trkpt>
      <trkpt lat="47.91023" lon="7.06559">
        <ele>1197.8</ele>
        <time>1970-01-01T05:01:42.000Z</time>
      </trkpt>
      <trkpt lat="47.91029" lon="7.06548">
        <ele>1198</ele>
        <time>1970-01-01T05:01:50.000Z</time>
      </trkpt>
      <trkpt lat="47.91036" lon="7.06538">
        <ele>1198.2</ele>
        <time>1970-01-01T05:01:59.000Z</time>
      </trkpt>
      <trkpt lat="47.91042" lon="7.06527">
        <ele>1198.3</ele>
        <time>1970-01-01T05:02:07.000Z</time>
      </trkpt>
      <trkpt lat="47.91048" lon="7.06516">
        <ele>1198.2</ele>
        <time>1970-01-01T05:02:16.000Z</time>
      </trkpt>
      <trkpt lat="47.91054" lon="7.06505">
        <ele>1198.1</ele>
        <time>1970-01-01T05:02:24.000Z</time>
      </trkpt>
      <trkpt lat="47.91058" lon="7.06491">
        <ele>1198</ele>
        <time>1970-01-01T05:02:33.000Z</time>
      </trkpt>
      <trkpt lat="47.91065" lon="7.06481">
        <ele>1198.1</ele>
        <time>1970-01-01T05:02:43.000Z</time>
      </trkpt>
      <trkpt lat="47.91072" lon="7.06471">
        <ele>1198.2</ele>
        <time>1970-01-01T05:02:54.000Z</time>
      </trkpt>
      <trkpt lat="47.91075" lon="7.06459">
        <ele>1198.3</ele>
        <time>1970-01-01T05:03:04.000Z</time>
      </trkpt>
      <trkpt lat="47.91079" lon="7.06445">
        <ele>1198.3</ele>
        <time>1970-01-01T05:03:13.000Z</time>
      </trkpt>
      <trkpt lat="47.91084" lon="7.06434">
        <ele>1198.3</ele>
        <time>1970-01-01T05:03:23.000Z</time>
      </trkpt>
      <trkpt lat="47.91089" lon="7.06422">
        <ele>1198.3</ele>
        <time>1970-01-01T05:03:32.000Z</time>
      </trkpt>
      <trkpt lat="47.91093" lon="7.06408">
        <ele>1198.3</ele>
        <time>1970-01-01T05:03:41.000Z</time>
      </trkpt>
      <trkpt lat="47.91097" lon="7.06395">
        <ele>1198.5</ele>
        <time>1970-01-01T05:03:50.000Z</time>
      </trkpt>
      <trkpt lat="47.91102" lon="7.06384">
        <ele>1198.8</ele>
        <time>1970-01-01T05:04:00.000Z</time>
      </trkpt>
      <trkpt lat="47.91108" lon="7.06372">
        <ele>1199</ele>
        <time>1970-01-01T05:04:09.000Z</time>
      </trkpt>
      <trkpt lat="47.91112" lon="7.0636">
        <ele>1199.3</ele>
        <time>1970-01-01T05:04:17.000Z</time>
      </trkpt>
      <trkpt lat="47.91116" lon="7.06349">
        <ele>1199.6</ele>
        <time>1970-01-01T05:04:24.000Z</time>
      </trkpt>
      <trkpt lat="47.9112" lon="7.06335">
        <ele>1199.9</ele>
        <time>1970-01-01T05:04:33.000Z</time>
      </trkpt>
      <trkpt lat="47.91121" lon="7.06321">
        <ele>1200.1</ele>
        <time>1970-01-01T05:04:43.000Z</time>
      </trkpt>
      <trkpt lat="47.91123" lon="7.06307">
        <ele>1200.2</ele>
        <time>1970-01-01T05:04:52.000Z</time>
      </trkpt>
      <trkpt lat="47.91122" lon="7.06293">
        <ele>1200.3</ele>
        <time>1970-01-01T05:05:01.000Z</time>
      </trkpt>
      <trkpt lat="47.91123" lon="7.0628">
        <ele>1200.5</ele>
        <time>1970-01-01T05:05:09.000Z</time>
      </trkpt>
      <trkpt lat="47.91124" lon="7.06265">
        <ele>1200.6</ele>
        <time>1970-01-01T05:05:19.000Z</time>
      </trkpt>
      <trkpt lat="47.91123" lon="7.06251">
        <ele>1200.8</ele>
        <time>1970-01-01T05:05:28.000Z</time>
      </trkpt>
      <trkpt lat="47.91123" lon="7.06237">
        <ele>1200.9</ele>
        <time>1970-01-01T05:05:38.000Z</time>
      </trkpt>
      <trkpt lat="47.91127" lon="7.06226">
        <ele>1201</ele>
        <time>1970-01-01T05:05:45.000Z</time>
      </trkpt>
      <trkpt lat="47.9113" lon="7.06213">
        <ele>1201</ele>
        <time>1970-01-01T05:05:55.000Z</time>
      </trkpt>
      <trkpt lat="47.91132" lon="7.06199">
        <ele>1201</ele>
        <time>1970-01-01T05:06:03.000Z</time>
      </trkpt>
      <trkpt lat="47.91135" lon="7.06186">
        <ele>1200.9</ele>
        <time>1970-01-01T05:06:11.000Z</time>
      </trkpt>
      <trkpt lat="47.91138" lon="7.06173">
        <ele>1200.7</ele>
        <time>1970-01-01T05:06:22.000Z</time>
      </trkpt>
      <trkpt lat="47.91141" lon="7.0616">
        <ele>1200.4</ele>
        <time>1970-01-01T05:06:33.000Z</time>
      </trkpt>
      <trkpt lat="47.91143" lon="7.06146">
        <ele>1200.1</ele>
        <time>1970-01-01T05:06:41.000Z</time>
      </trkpt>
      <trkpt lat="47.91146" lon="7.06133">
        <ele>1200</ele>
        <time>1970-01-01T05:06:49.000Z</time>
      </trkpt>
      <trkpt lat="47.91152" lon="7.0612">
        <ele>1200.1</ele>
        <time>1970-01-01T05:06:59.000Z</time>
      </trkpt>
      <trkpt lat="47.91155" lon="7.06107">
        <ele>1200.3</ele>
        <time>1970-01-01T05:07:10.000Z</time>
      </trkpt>
      <trkpt lat="47.91157" lon="7.06092">
        <ele>1200.5</ele>
        <time>1970-01-01T05:07:18.000Z</time>
      </trkpt>
      <trkpt lat="47.91161" lon="7.0608">
        <ele>1200.6</ele>
        <time>1970-01-01T05:07:27.000Z</time>
      </trkpt>
      <trkpt lat="47.9116" lon="7.06067">
        <ele>1200.5</ele>
        <time>1970-01-01T05:07:37.000Z</time>
      </trkpt>
      <trkpt lat="47.91158" lon="7.06053">
        <ele>1200.3</ele>
        <time>1970-01-01T05:07:44.000Z</time>
      </trkpt>
      <trkpt lat="47.91158" lon="7.06039">
        <ele>1200.1</ele>
        <time>1970-01-01T05:07:50.000Z</time>
      </trkpt>
      <trkpt lat="47.91158" lon="7.06025">
        <ele>1200</ele>
        <time>1970-01-01T05:07:58.000Z</time>
      </trkpt>
      <trkpt lat="47.91155" lon="7.06011">
        <ele>1199.9</ele>
        <time>1970-01-01T05:08:09.000Z</time>
      </trkpt>
      <trkpt lat="47.91155" lon="7.05998">
        <ele>1200.2</ele>
        <time>1970-01-01T05:08:18.000Z</time>
      </trkpt>
      <trkpt lat="47.91152" lon="7.05983">
        <ele>1200.7</ele>
        <time>1970-01-01T05:08:28.000Z</time>
      </trkpt>
      <trkpt lat="47.9115" lon="7.0597">
        <ele>1200.9</ele>
        <time>1970-01-01T05:08:38.000Z</time>
      </trkpt>
      <trkpt lat="47.91145" lon="7.05957">
        <ele>1201.1</ele>
        <time>1970-01-01T05:08:48.000Z</time>
      </trkpt>
      <trkpt lat="47.91143" lon="7.05944">
        <ele>1201.2</ele>
        <time>1970-01-01T05:08:57.000Z</time>
      </trkpt>
      <trkpt lat="47.9114" lon="7.05931">
        <ele>1201.2</ele>
        <time>1970-01-01T05:09:08.000Z</time>
      </trkpt>
      <trkpt lat="47.91137" lon="7.05918">
        <ele>1201.1</ele>
        <time>1970-01-01T05:09:19.000Z</time>
      </trkpt>
      <trkpt lat="47.91134" lon="7.05905">
        <ele>1200.7</ele>
        <time>1970-01-01T05:09:29.000Z</time>
      </trkpt>
      <trkpt lat="47.91128" lon="7.05894">
        <ele>1200.2</ele>
        <time>1970-01-01T05:09:40.000Z</time>
      </trkpt>
      <trkpt lat="47.91125" lon="7.05881">
        <ele>1199.6</ele>
        <time>1970-01-01T05:09:52.000Z</time>
      </trkpt>
      <trkpt lat="47.91119" lon="7.0587">
        <ele>1198.9</ele>
        <time>1970-01-01T05:10:06.000Z</time>
      </trkpt>
      <trkpt lat="47.91113" lon="7.0586">
        <ele>1198.2</ele>
        <time>1970-01-01T05:10:17.000Z</time>
      </trkpt>
      <trkpt lat="47.91109" lon="7.05847">
        <ele>1197.7</ele>
        <time>1970-01-01T05:10:30.000Z</time>
      </trkpt>
      <trkpt lat="47.91107" lon="7.05833">
        <ele>1197.4</ele>
        <time>1970-01-01T05:10:38.000Z</time>
      </trkpt>
      <trkpt lat="47.91106" lon="7.05818">
        <ele>1197.4</ele>
        <time>1970-01-01T05:10:47.000Z</time>
      </trkpt>
      <trkpt lat="47.91107" lon="7.05803">
        <ele>1197.7</ele>
        <time>1970-01-01T05:10:56.000Z</time>
      </trkpt>
      <trkpt lat="47.91106" lon="7.0579">
        <ele>1198.3</ele>
        <time>1970-01-01T05:11:08.000Z</time>
      </trkpt>
      <trkpt lat="47.91101" lon="7.05778">
        <ele>1199</ele>
        <time>1970-01-01T05:11:20.000Z</time>
      </trkpt>
      <trkpt lat="47.911" lon="7.05765">
        <ele>1199.8</ele>
        <time>1970-01-01T05:11:30.000Z</time>
      </trkpt>
      <trkpt lat="47.91095" lon="7.05752">
        <ele>1200.4</ele>
        <time>1970-01-01T05:11:43.000Z</time>
      </trkpt>
      <trkpt lat="47.91094" lon="7.05739">
        <ele>1200.9</ele>
        <time>1970-01-01T05:11:54.000Z</time>
      </trkpt>
      <trkpt lat="47.9109" lon="7.05726">
        <ele>1201.2</ele>
        <time>1970-01-01T05:12:04.000Z</time>
      </trkpt>
      <trkpt lat="47.91088" lon="7.05713">
        <ele>1201.3</ele>
        <time>1970-01-01T05:12:16.000Z</time>
      </trkpt>
      <trkpt lat="47.91096" lon="7.05713">
        <ele>1201.3</ele>
        <time>1970-01-01T05:13:19.000Z</time>
      </trkpt>
      <trkpt lat="47.91088" lon="7.05704">
        <ele>1201.3</ele>
        <time>1970-01-01T05:17:46.000Z</time>
      </trkpt>
      <trkpt lat="47.91086" lon="7.05691">
        <ele>1201.3</ele>
        <time>1970-01-01T05:17:57.000Z</time>
      </trkpt>
      <trkpt lat="47.91085" lon="7.05678">
        <ele>1201.3</ele>
        <time>1970-01-01T05:18:06.000Z</time>
      </trkpt>
      <trkpt lat="47.91087" lon="7.05664">
        <ele>1201.2</ele>
        <time>1970-01-01T05:18:15.000Z</time>
      </trkpt>
      <trkpt lat="47.91085" lon="7.0565">
        <ele>1201.1</ele>
        <time>1970-01-01T05:18:23.000Z</time>
      </trkpt>
      <trkpt lat="47.91084" lon="7.05636">
        <ele>1200.8</ele>
        <time>1970-01-01T05:18:31.000Z</time>
      </trkpt>
      <trkpt lat="47.91085" lon="7.05622">
        <ele>1200.4</ele>
        <time>1970-01-01T05:18:38.000Z</time>
      </trkpt>
      <trkpt lat="47.91086" lon="7.05609">
        <ele>1199.8</ele>
        <time>1970-01-01T05:18:44.000Z</time>
      </trkpt>
      <trkpt lat="47.91088" lon="7.05595">
        <ele>1199.2</ele>
        <time>1970-01-01T05:18:51.000Z</time>
      </trkpt>
      <trkpt lat="47.91087" lon="7.0558">
        <ele>1198.2</ele>
        <time>1970-01-01T05:18:57.000Z</time>
      </trkpt>
      <trkpt lat="47.91086" lon="7.05566">
        <ele>1197.1</ele>
        <time>1970-01-01T05:19:03.000Z</time>
      </trkpt>
      <trkpt lat="47.91085" lon="7.0555">
        <ele>1195.9</ele>
        <time>1970-01-01T05:19:10.000Z</time>
      </trkpt>
      <trkpt lat="47.91085" lon="7.05536">
        <ele>1194.8</ele>
        <time>1970-01-01T05:19:17.000Z</time>
      </trkpt>
      <trkpt lat="47.91086" lon="7.05521">
        <ele>1193.1</ele>
        <time>1970-01-01T05:19:26.000Z</time>
      </trkpt>
      <trkpt lat="47.91084" lon="7.05508">
        <ele>1191.1</ele>
        <time>1970-01-01T05:19:34.000Z</time>
      </trkpt>
      <trkpt lat="47.91082" lon="7.05494">
        <ele>1188.8</ele>
        <time>1970-01-01T05:19:40.000Z</time>
      </trkpt>
      <trkpt lat="47.91082" lon="7.05479">
        <ele>1186.1</ele>
        <time>1970-01-01T05:19:48.000Z</time>
      </trkpt>
      <trkpt lat="47.91079" lon="7.05464">
        <ele>1184.1</ele>
        <time>1970-01-01T05:19:57.000Z</time>
      </trkpt>
      <trkpt lat="47.91078" lon="7.05451">
        <ele>1182</ele>
        <time>1970-01-01T05:20:15.000Z</time>
      </trkpt>
      <trkpt lat="47.91077" lon="7.05436">
        <ele>1180</ele>
        <time>1970-01-01T05:20:24.000Z</time>
      </trkpt>
      <trkpt lat="47.91076" lon="7.05423">
        <ele>1178.3</ele>
        <time>1970-01-01T05:20:33.000Z</time>
      </trkpt>
      <trkpt lat="47.91074" lon="7.05409">
        <ele>1177</ele>
        <time>1970-01-01T05:20:41.000Z</time>
      </trkpt>
      <trkpt lat="47.91078" lon="7.05397">
        <ele>1176</ele>
        <time>1970-01-01T05:20:52.000Z</time>
      </trkpt>
      <trkpt lat="47.91073" lon="7.05383">
        <ele>1175.2</ele>
        <time>1970-01-01T05:21:01.000Z</time>
      </trkpt>
      <trkpt lat="47.91071" lon="7.0537">
        <ele>1174.9</ele>
        <time>1970-01-01T05:21:08.000Z</time>
      </trkpt>
      <trkpt lat="47.91069" lon="7.05357">
        <ele>1175.1</ele>
        <time>1970-01-01T05:21:16.000Z</time>
      </trkpt>
      <trkpt lat="47.91068" lon="7.05343">
        <ele>1175.6</ele>
        <time>1970-01-01T05:21:24.000Z</time>
      </trkpt>
      <trkpt lat="47.91069" lon="7.05329">
        <ele>1176.3</ele>
        <time>1970-01-01T05:21:36.000Z</time>
      </trkpt>
      <trkpt lat="47.9107" lon="7.05315">
        <ele>1177.1</ele>
        <time>1970-01-01T05:21:49.000Z</time>
      </trkpt>
      <trkpt lat="47.91069" lon="7.05301">
        <ele>1177.9</ele>
        <time>1970-01-01T05:22:04.000Z</time>
      </trkpt>
      <trkpt lat="47.91064" lon="7.05289">
        <ele>1178.7</ele>
        <time>1970-01-01T05:22:14.000Z</time>
      </trkpt>
      <trkpt lat="47.91063" lon="7.05274">
        <ele>1179.4</ele>
        <time>1970-01-01T05:22:20.000Z</time>
      </trkpt>
      <trkpt lat="47.91063" lon="7.0526">
        <ele>1180.1</ele>
        <time>1970-01-01T05:22:27.000Z</time>
      </trkpt>
      <trkpt lat="47.91063" lon="7.05247">
        <ele>1180.7</ele>
        <time>1970-01-01T05:22:34.000Z</time>
      </trkpt>
      <trkpt lat="47.91062" lon="7.05233">
        <ele>1181.5</ele>
        <time>1970-01-01T05:22:42.000Z</time>
      </trkpt>
      <trkpt lat="47.91061" lon="7.05219">
        <ele>1182.2</ele>
        <time>1970-01-01T05:22:51.000Z</time>
      </trkpt>
      <trkpt lat="47.91065" lon="7.05207">
        <ele>1182.7</ele>
        <time>1970-01-01T05:22:58.000Z</time>
      </trkpt>
      <trkpt lat="47.91066" lon="7.05193">
        <ele>1183.2</ele>
        <time>1970-01-01T05:23:06.000Z</time>
      </trkpt>
      <trkpt lat="47.91068" lon="7.0518">
        <ele>1183.6</ele>
        <time>1970-01-01T05:23:15.000Z</time>
      </trkpt>
      <trkpt lat="47.91069" lon="7.05165">
        <ele>1183.8</ele>
        <time>1970-01-01T05:23:26.000Z</time>
      </trkpt>
      <trkpt lat="47.91071" lon="7.05152">
        <ele>1183.9</ele>
        <time>1970-01-01T05:23:35.000Z</time>
      </trkpt>
      <trkpt lat="47.91071" lon="7.05138">
        <ele>1183.7</ele>
        <time>1970-01-01T05:23:46.000Z</time>
      </trkpt>
      <trkpt lat="47.91072" lon="7.05124">
        <ele>1183.4</ele>
        <time>1970-01-01T05:23:58.000Z</time>
      </trkpt>
      <trkpt lat="47.91073" lon="7.05111">
        <ele>1182.9</ele>
        <time>1970-01-01T05:24:08.000Z</time>
      </trkpt>
      <trkpt lat="47.91074" lon="7.05097">
        <ele>1181.9</ele>
        <time>1970-01-01T05:24:17.000Z</time>
      </trkpt>
      <trkpt lat="47.91077" lon="7.05083">
        <ele>1180.5</ele>
        <time>1970-01-01T05:24:26.000Z</time>
      </trkpt>
      <trkpt lat="47.91083" lon="7.05072">
        <ele>1178.9</ele>
        <time>1970-01-01T05:24:35.000Z</time>
      </trkpt>
      <trkpt lat="47.91089" lon="7.05061">
        <ele>1177.7</ele>
        <time>1970-01-01T05:24:43.000Z</time>
      </trkpt>
      <trkpt lat="47.91096" lon="7.05053">
        <ele>1176.6</ele>
        <time>1970-01-01T05:24:52.000Z</time>
      </trkpt>
      <trkpt lat="47.91103" lon="7.05043">
        <ele>1175.6</ele>
        <time>1970-01-01T05:25:01.000Z</time>
      </trkpt>
      <trkpt lat="47.91111" lon="7.05035">
        <ele>1174.7</ele>
        <time>1970-01-01T05:25:10.000Z</time>
      </trkpt>
      <trkpt lat="47.91116" lon="7.05022">
        <ele>1173.7</ele>
        <time>1970-01-01T05:25:22.000Z</time>
      </trkpt>
      <trkpt lat="47.91124" lon="7.05015">
        <ele>1172.9</ele>
        <time>1970-01-01T05:25:33.000Z</time>
      </trkpt>
      <trkpt lat="47.9113" lon="7.05005">
        <ele>1172</ele>
        <time>1970-01-01T05:26:08.000Z</time>
      </trkpt>
      <trkpt lat="47.91136" lon="7.04996">
        <ele>1171.3</ele>
        <time>1970-01-01T05:26:17.000Z</time>
      </trkpt>
      <trkpt lat="47.91144" lon="7.04986">
        <ele>1170.7</ele>
        <time>1970-01-01T05:26:26.000Z</time>
      </trkpt>
      <trkpt lat="47.91151" lon="7.04978">
        <ele>1170.2</ele>
        <time>1970-01-01T05:26:33.000Z</time>
      </trkpt>
      <trkpt lat="47.91158" lon="7.04969">
        <ele>1169.8</ele>
        <time>1970-01-01T05:26:41.000Z</time>
      </trkpt>
      <trkpt lat="47.91165" lon="7.04959">
        <ele>1169.6</ele>
        <time>1970-01-01T05:26:49.000Z</time>
      </trkpt>
      <trkpt lat="47.91174" lon="7.04951">
        <ele>1169.5</ele>
        <time>1970-01-01T05:26:58.000Z</time>
      </trkpt>
      <trkpt lat="47.9118" lon="7.0494">
        <ele>1169.6</ele>
        <time>1970-01-01T05:27:06.000Z</time>
      </trkpt>
      <trkpt lat="47.91186" lon="7.04931">
        <ele>1170</ele>
        <time>1970-01-01T05:27:14.000Z</time>
      </trkpt>
      <trkpt lat="47.91193" lon="7.04922">
        <ele>1170.5</ele>
        <time>1970-01-01T05:27:22.000Z</time>
      </trkpt>
      <trkpt lat="47.91199" lon="7.0491">
        <ele>1170.9</ele>
        <time>1970-01-01T05:27:31.000Z</time>
      </trkpt>
      <trkpt lat="47.91206" lon="7.04901">
        <ele>1171.2</ele>
        <time>1970-01-01T05:27:45.000Z</time>
      </trkpt>
      <trkpt lat="47.91213" lon="7.0489">
        <ele>1171.5</ele>
        <time>1970-01-01T05:27:55.000Z</time>
      </trkpt>
      <trkpt lat="47.9122" lon="7.04881">
        <ele>1171.8</ele>
        <time>1970-01-01T05:28:04.000Z</time>
      </trkpt>
      <trkpt lat="47.91225" lon="7.04869">
        <ele>1172.1</ele>
        <time>1970-01-01T05:28:12.000Z</time>
      </trkpt>
      <trkpt lat="47.91233" lon="7.04861">
        <ele>1172.6</ele>
        <time>1970-01-01T05:28:22.000Z</time>
      </trkpt>
      <trkpt lat="47.9124" lon="7.04851">
        <ele>1173.6</ele>
        <time>1970-01-01T05:28:31.000Z</time>
      </trkpt>
      <trkpt lat="47.91248" lon="7.04842">
        <ele>1174.9</ele>
        <time>1970-01-01T05:28:40.000Z</time>
      </trkpt>
      <trkpt lat="47.91255" lon="7.04833">
        <ele>1176.5</ele>
        <time>1970-01-01T05:28:49.000Z</time>
      </trkpt>
      <trkpt lat="47.9126" lon="7.0482">
        <ele>1178.2</ele>
        <time>1970-01-01T05:28:58.000Z</time>
      </trkpt>
      <trkpt lat="47.91263" lon="7.04807">
        <ele>1179.9</ele>
        <time>1970-01-01T05:29:07.000Z</time>
      </trkpt>
      <trkpt lat="47.91266" lon="7.04793">
        <ele>1181.1</ele>
        <time>1970-01-01T05:29:18.000Z</time>
      </trkpt>
      <trkpt lat="47.9127" lon="7.04781">
        <ele>1182.3</ele>
        <time>1970-01-01T05:29:28.000Z</time>
      </trkpt>
      <trkpt lat="47.91273" lon="7.04768">
        <ele>1182.7</ele>
        <time>1970-01-01T05:29:40.000Z</time>
      </trkpt>
      <trkpt lat="47.91276" lon="7.04756">
        <ele>1182.7</ele>
        <time>1970-01-01T05:29:55.000Z</time>
      </trkpt>
      <trkpt lat="47.9128" lon="7.04743">
        <ele>1182.7</ele>
        <time>1970-01-01T05:30:11.000Z</time>
      </trkpt>
      <trkpt lat="47.91283" lon="7.04731">
        <ele>1182.4</ele>
        <time>1970-01-01T05:30:25.000Z</time>
      </trkpt>
      <trkpt lat="47.91287" lon="7.04718">
        <ele>1181.7</ele>
        <time>1970-01-01T05:30:39.000Z</time>
      </trkpt>
      <trkpt lat="47.91291" lon="7.04705">
        <ele>1181</ele>
        <time>1970-01-01T05:30:51.000Z</time>
      </trkpt>
      <trkpt lat="47.91296" lon="7.04692">
        <ele>1180.4</ele>
        <time>1970-01-01T05:31:00.000Z</time>
      </trkpt>
      <trkpt lat="47.91299" lon="7.0468">
        <ele>1179.9</ele>
        <time>1970-01-01T05:31:09.000Z</time>
      </trkpt>
      <trkpt lat="47.91302" lon="7.04667">
        <ele>1179.4</ele>
        <time>1970-01-01T05:31:18.000Z</time>
      </trkpt>
      <trkpt lat="47.91304" lon="7.04653">
        <ele>1178.8</ele>
        <time>1970-01-01T05:31:30.000Z</time>
      </trkpt>
      <trkpt lat="47.9131" lon="7.04644">
        <ele>1178.4</ele>
        <time>1970-01-01T05:31:37.000Z</time>
      </trkpt>
      <trkpt lat="47.91316" lon="7.04631">
        <ele>1178.1</ele>
        <time>1970-01-01T05:31:45.000Z</time>
      </trkpt>
      <trkpt lat="47.9132" lon="7.04619">
        <ele>1177.9</ele>
        <time>1970-01-01T05:31:52.000Z</time>
      </trkpt>
      <trkpt lat="47.91325" lon="7.04607">
        <ele>1177.7</ele>
        <time>1970-01-01T05:31:59.000Z</time>
      </trkpt>
      <trkpt lat="47.91331" lon="7.04596">
        <ele>1177.7</ele>
        <time>1970-01-01T05:32:06.000Z</time>
      </trkpt>
      <trkpt lat="47.91336" lon="7.04585">
        <ele>1177.7</ele>
        <time>1970-01-01T05:32:13.000Z</time>
      </trkpt>
      <trkpt lat="47.91342" lon="7.04573">
        <ele>1177.8</ele>
        <time>1970-01-01T05:32:23.000Z</time>
      </trkpt>
      <trkpt lat="47.91346" lon="7.04561">
        <ele>1178</ele>
        <time>1970-01-01T05:32:31.000Z</time>
      </trkpt>
      <trkpt lat="47.91352" lon="7.04549">
        <ele>1178.1</ele>
        <time>1970-01-01T05:32:40.000Z</time>
      </trkpt>
      <trkpt lat="47.91357" lon="7.04537">
        <ele>1178.3</ele>
        <time>1970-01-01T05:32:48.000Z</time>
      </trkpt>
      <trkpt lat="47.91362" lon="7.04526">
        <ele>1178.4</ele>
        <time>1970-01-01T05:32:57.000Z</time>
      </trkpt>
      <trkpt lat="47.91369" lon="7.04515">
        <ele>1178.7</ele>
        <time>1970-01-01T05:33:06.000Z</time>
      </trkpt>
      <trkpt lat="47.91374" lon="7.04504">
        <ele>1179</ele>
        <time>1970-01-01T05:33:16.000Z</time>
      </trkpt>
      <trkpt lat="47.91377" lon="7.04493">
        <ele>1179.3</ele>
        <time>1970-01-01T05:33:27.000Z</time>
      </trkpt>
      <trkpt lat="47.91384" lon="7.04484">
        <ele>1179.6</ele>
        <time>1970-01-01T05:33:38.000Z</time>
      </trkpt>
      <trkpt lat="47.91391" lon="7.04474">
        <ele>1180.2</ele>
        <time>1970-01-01T05:33:46.000Z</time>
      </trkpt>
      <trkpt lat="47.91397" lon="7.04463">
        <ele>1181</ele>
        <time>1970-01-01T05:33:54.000Z</time>
      </trkpt>
      <trkpt lat="47.91404" lon="7.04453">
        <ele>1181.8</ele>
        <time>1970-01-01T05:34:02.000Z</time>
      </trkpt>
      <trkpt lat="47.9141" lon="7.04443">
        <ele>1182.3</ele>
        <time>1970-01-01T05:34:09.000Z</time>
      </trkpt>
      <trkpt lat="47.9142" lon="7.04439">
        <ele>1182.8</ele>
        <time>1970-01-01T05:34:20.000Z</time>
      </trkpt>
      <trkpt lat="47.91428" lon="7.04435">
        <ele>1183.4</ele>
        <time>1970-01-01T05:34:30.000Z</time>
      </trkpt>
      <trkpt lat="47.91437" lon="7.04431">
        <ele>1183.7</ele>
        <time>1970-01-01T05:34:42.000Z</time>
      </trkpt>
      <trkpt lat="47.91447" lon="7.0443">
        <ele>1184.1</ele>
        <time>1970-01-01T05:34:54.000Z</time>
      </trkpt>
      <trkpt lat="47.91456" lon="7.04426">
        <ele>1184.5</ele>
        <time>1970-01-01T05:35:01.000Z</time>
      </trkpt>
      <trkpt lat="47.91466" lon="7.04424">
        <ele>1184.9</ele>
        <time>1970-01-01T05:35:09.000Z</time>
      </trkpt>
      <trkpt lat="47.91475" lon="7.04423">
        <ele>1185.4</ele>
        <time>1970-01-01T05:35:18.000Z</time>
      </trkpt>
      <trkpt lat="47.91485" lon="7.04422">
        <ele>1185.6</ele>
        <time>1970-01-01T05:35:26.000Z</time>
      </trkpt>
      <trkpt lat="47.91494" lon="7.04421">
        <ele>1185.8</ele>
        <time>1970-01-01T05:35:35.000Z</time>
      </trkpt>
      <trkpt lat="47.91503" lon="7.04419">
        <ele>1186.1</ele>
        <time>1970-01-01T05:35:43.000Z</time>
      </trkpt>
      <trkpt lat="47.91513" lon="7.04419">
        <ele>1186.2</ele>
        <time>1970-01-01T05:35:53.000Z</time>
      </trkpt>
      <trkpt lat="47.91523" lon="7.04419">
        <ele>1186.2</ele>
        <time>1970-01-01T05:36:03.000Z</time>
      </trkpt>
      <trkpt lat="47.91532" lon="7.04414">
        <ele>1186.3</ele>
        <time>1970-01-01T05:36:14.000Z</time>
      </trkpt>
      <trkpt lat="47.91542" lon="7.04411">
        <ele>1186.2</ele>
        <time>1970-01-01T05:36:24.000Z</time>
      </trkpt>
      <trkpt lat="47.91552" lon="7.04408">
        <ele>1186.2</ele>
        <time>1970-01-01T05:36:32.000Z</time>
      </trkpt>
      <trkpt lat="47.91561" lon="7.04403">
        <ele>1186.2</ele>
        <time>1970-01-01T05:36:41.000Z</time>
      </trkpt>
      <trkpt lat="47.9157" lon="7.04398">
        <ele>1186.2</ele>
        <time>1970-01-01T05:36:49.000Z</time>
      </trkpt>
      <trkpt lat="47.91579" lon="7.04393">
        <ele>1186.4</ele>
        <time>1970-01-01T05:36:57.000Z</time>
      </trkpt>
      <trkpt lat="47.91587" lon="7.04389">
        <ele>1186.6</ele>
        <time>1970-01-01T05:37:05.000Z</time>
      </trkpt>
      <trkpt lat="47.91596" lon="7.04382">
        <ele>1186.9</ele>
        <time>1970-01-01T05:37:14.000Z</time>
      </trkpt>
      <trkpt lat="47.91605" lon="7.04376">
        <ele>1187</ele>
        <time>1970-01-01T05:37:23.000Z</time>
      </trkpt>
      <trkpt lat="47.91613" lon="7.04373">
        <ele>1186.9</ele>
        <time>1970-01-01T05:37:33.000Z</time>
      </trkpt>
      <trkpt lat="47.91622" lon="7.0437">
        <ele>1186.7</ele>
        <time>1970-01-01T05:37:45.000Z</time>
      </trkpt>
      <trkpt lat="47.9163" lon="7.04363">
        <ele>1186.5</ele>
        <time>1970-01-01T05:37:54.000Z</time>
      </trkpt>
      <trkpt lat="47.91638" lon="7.04357">
        <ele>1186.1</ele>
        <time>1970-01-01T05:38:02.000Z</time>
      </trkpt>
      <trkpt lat="47.91645" lon="7.0435">
        <ele>1185.6</ele>
        <time>1970-01-01T05:38:10.000Z</time>
      </trkpt>
      <trkpt lat="47.91653" lon="7.04341">
        <ele>1185.1</ele>
        <time>1970-01-01T05:38:22.000Z</time>
      </trkpt>
      <trkpt lat="47.91661" lon="7.04334">
        <ele>1184.5</ele>
        <time>1970-01-01T05:38:33.000Z</time>
      </trkpt>
      <trkpt lat="47.91667" lon="7.04324">
        <ele>1183.8</ele>
        <time>1970-01-01T05:38:41.000Z</time>
      </trkpt>
      <trkpt lat="47.91673" lon="7.04315">
        <ele>1183</ele>
        <time>1970-01-01T05:38:50.000Z</time>
      </trkpt>
      <trkpt lat="47.91679" lon="7.04303">
        <ele>1182.2</ele>
        <time>1970-01-01T05:38:57.000Z</time>
      </trkpt>
      <trkpt lat="47.91685" lon="7.04293">
        <ele>1181.1</ele>
        <time>1970-01-01T05:39:05.000Z</time>
      </trkpt>
      <trkpt lat="47.91693" lon="7.04285">
        <ele>1179.9</ele>
        <time>1970-01-01T05:39:15.000Z</time>
      </trkpt>
      <trkpt lat="47.91698" lon="7.04274">
        <ele>1178.7</ele>
        <time>1970-01-01T05:39:26.000Z</time>
      </trkpt>
      <trkpt lat="47.91704" lon="7.04263">
        <ele>1177.6</ele>
        <time>1970-01-01T05:39:34.000Z</time>
      </trkpt>
      <trkpt lat="47.91708" lon="7.0425">
        <ele>1176.2</ele>
        <time>1970-01-01T05:39:46.000Z</time>
      </trkpt>
      <trkpt lat="47.91713" lon="7.04239">
        <ele>1175.1</ele>
        <time>1970-01-01T05:39:56.000Z</time>
      </trkpt>
      <trkpt lat="47.91719" lon="7.04228">
        <ele>1174.6</ele>
        <time>1970-01-01T05:40:03.000Z</time>
      </trkpt>
      <trkpt lat="47.91724" lon="7.04217">
        <ele>1174.3</ele>
        <time>1970-01-01T05:40:13.000Z</time>
      </trkpt>
      <trkpt lat="47.91733" lon="7.0421">
        <ele>1174.5</ele>
        <time>1970-01-01T05:40:24.000Z</time>
      </trkpt>
      <trkpt lat="47.9174" lon="7.04201">
        <ele>1174.9</ele>
        <time>1970-01-01T05:40:34.000Z</time>
      </trkpt>
      <trkpt lat="47.91748" lon="7.04194">
        <ele>1175.6</ele>
        <time>1970-01-01T05:40:45.000Z</time>
      </trkpt>
      <trkpt lat="47.91756" lon="7.04187">
        <ele>1176.3</ele>
        <time>1970-01-01T05:40:56.000Z</time>
      </trkpt>
      <trkpt lat="47.91764" lon="7.04179">
        <ele>1177.1</ele>
        <time>1970-01-01T05:41:05.000Z</time>
      </trkpt>
      <trkpt lat="47.91771" lon="7.04172">
        <ele>1177.8</ele>
        <time>1970-01-01T05:41:13.000Z</time>
      </trkpt>
      <trkpt lat="47.9178" lon="7.04165">
        <ele>1178.3</ele>
        <time>1970-01-01T05:41:23.000Z</time>
      </trkpt>
      <trkpt lat="47.91789" lon="7.04159">
        <ele>1178.8</ele>
        <time>1970-01-01T05:41:33.000Z</time>
      </trkpt>
      <trkpt lat="47.91797" lon="7.04151">
        <ele>1179</ele>
        <time>1970-01-01T05:41:43.000Z</time>
      </trkpt>
      <trkpt lat="47.91806" lon="7.04145">
        <ele>1179.2</ele>
        <time>1970-01-01T05:41:54.000Z</time>
      </trkpt>
      <trkpt lat="47.91814" lon="7.04141">
        <ele>1179.1</ele>
        <time>1970-01-01T05:42:02.000Z</time>
      </trkpt>
      <trkpt lat="47.91822" lon="7.04136">
        <ele>1179</ele>
        <time>1970-01-01T05:42:08.000Z</time>
      </trkpt>
      <trkpt lat="47.91832" lon="7.04132">
        <ele>1178.9</ele>
        <time>1970-01-01T05:42:17.000Z</time>
      </trkpt>
      <trkpt lat="47.91842" lon="7.04128">
        <ele>1178.8</ele>
        <time>1970-01-01T05:42:26.000Z</time>
      </trkpt>
      <trkpt lat="47.9185" lon="7.04124">
        <ele>1178.8</ele>
        <time>1970-01-01T05:42:34.000Z</time>
      </trkpt>
      <trkpt lat="47.91859" lon="7.04119">
        <ele>1179</ele>
        <time>1970-01-01T05:42:42.000Z</time>
      </trkpt>
      <trkpt lat="47.91868" lon="7.04114">
        <ele>1179.2</ele>
        <time>1970-01-01T05:42:52.000Z</time>
      </trkpt>
      <trkpt lat="47.91877" lon="7.0411">
        <ele>1179.4</ele>
        <time>1970-01-01T05:43:01.000Z</time>
      </trkpt>
      <trkpt lat="47.91885" lon="7.04105">
        <ele>1179.5</ele>
        <time>1970-01-01T05:43:10.000Z</time>
      </trkpt>
      <trkpt lat="47.91894" lon="7.041">
        <ele>1179.6</ele>
        <time>1970-01-01T05:43:19.000Z</time>
      </trkpt>
      <trkpt lat="47.91901" lon="7.04093">
        <ele>1179.7</ele>
        <time>1970-01-01T05:43:24.000Z</time>
      </trkpt>
      <trkpt lat="47.9191" lon="7.0409">
        <ele>1179.8</ele>
        <time>1970-01-01T05:43:31.000Z</time>
      </trkpt>
      <trkpt lat="47.91919" lon="7.04088">
        <ele>1180</ele>
        <time>1970-01-01T05:43:40.000Z</time>
      </trkpt>
      <trkpt lat="47.91928" lon="7.04085">
        <ele>1180.2</ele>
        <time>1970-01-01T05:43:51.000Z</time>
      </trkpt>
      <trkpt lat="47.91936" lon="7.04081">
        <ele>1180.3</ele>
        <time>1970-01-01T05:44:00.000Z</time>
      </trkpt>
      <trkpt lat="47.91943" lon="7.04074">
        <ele>1180.4</ele>
        <time>1970-01-01T05:44:09.000Z</time>
      </trkpt>
      <trkpt lat="47.91952" lon="7.04069">
        <ele>1180.7</ele>
        <time>1970-01-01T05:44:19.000Z</time>
      </trkpt>
      <trkpt lat="47.9196" lon="7.04063">
        <ele>1181</ele>
        <time>1970-01-01T05:44:28.000Z</time>
      </trkpt>
      <trkpt lat="47.91967" lon="7.04057">
        <ele>1181.2</ele>
        <time>1970-01-01T05:44:34.000Z</time>
      </trkpt>
      <trkpt lat="47.91974" lon="7.04053">
        <ele>1181.4</ele>
        <time>1970-01-01T05:44:41.000Z</time>
      </trkpt>
      <trkpt lat="47.91983" lon="7.04049">
        <ele>1181.8</ele>
        <time>1970-01-01T05:44:48.000Z</time>
      </trkpt>
      <trkpt lat="47.91991" lon="7.04042">
        <ele>1181.9</ele>
        <time>1970-01-01T05:44:55.000Z</time>
      </trkpt>
      <trkpt lat="47.92" lon="7.04036">
        <ele>1182</ele>
        <time>1970-01-01T05:45:05.000Z</time>
      </trkpt>
      <trkpt lat="47.92009" lon="7.04032">
        <ele>1181.9</ele>
        <time>1970-01-01T05:45:15.000Z</time>
      </trkpt>
      <trkpt lat="47.92018" lon="7.04028">
        <ele>1181.5</ele>
        <time>1970-01-01T05:45:25.000Z</time>
      </trkpt>
      <trkpt lat="47.92025" lon="7.04022">
        <ele>1181.2</ele>
        <time>1970-01-01T05:45:33.000Z</time>
      </trkpt>
      <trkpt lat="47.92032" lon="7.04013">
        <ele>1180.9</ele>
        <time>1970-01-01T05:45:41.000Z</time>
      </trkpt>
      <trkpt lat="47.92041" lon="7.04004">
        <ele>1180.7</ele>
        <time>1970-01-01T05:45:51.000Z</time>
      </trkpt>
      <trkpt lat="47.92049" lon="7.03996">
        <ele>1180.6</ele>
        <time>1970-01-01T05:45:55.000Z</time>
      </trkpt>
      <trkpt lat="47.92056" lon="7.03989">
        <ele>1180.5</ele>
        <time>1970-01-01T05:46:01.000Z</time>
      </trkpt>
      <trkpt lat="47.92063" lon="7.03991">
        <ele>1180.3</ele>
        <time>1970-01-01T05:46:10.000Z</time>
      </trkpt>
      <trkpt lat="47.92072" lon="7.03986">
        <ele>1180.1</ele>
        <time>1970-01-01T05:46:20.000Z</time>
      </trkpt>
      <trkpt lat="47.92081" lon="7.0398">
        <ele>1179.9</ele>
        <time>1970-01-01T05:46:29.000Z</time>
      </trkpt>
      <trkpt lat="47.92089" lon="7.03977">
        <ele>1179.6</ele>
        <time>1970-01-01T05:46:37.000Z</time>
      </trkpt>
      <trkpt lat="47.92097" lon="7.03972">
        <ele>1179.4</ele>
        <time>1970-01-01T05:46:46.000Z</time>
      </trkpt>
      <trkpt lat="47.92106" lon="7.03966">
        <ele>1179.2</ele>
        <time>1970-01-01T05:46:56.000Z</time>
      </trkpt>
      <trkpt lat="47.92114" lon="7.0396">
        <ele>1179.1</ele>
        <time>1970-01-01T05:47:04.000Z</time>
      </trkpt>
      <trkpt lat="47.92121" lon="7.03952">
        <ele>1179</ele>
        <time>1970-01-01T05:47:12.000Z</time>
      </trkpt>
      <trkpt lat="47.92128" lon="7.03943">
        <ele>1178.9</ele>
        <time>1970-01-01T05:47:21.000Z</time>
      </trkpt>
      <trkpt lat="47.92135" lon="7.03933">
        <ele>1178.8</ele>
        <time>1970-01-01T05:47:32.000Z</time>
      </trkpt>
      <trkpt lat="47.9214" lon="7.03923">
        <ele>1178.6</ele>
        <time>1970-01-01T05:47:42.000Z</time>
      </trkpt>
      <trkpt lat="47.92145" lon="7.03911">
        <ele>1178.4</ele>
        <time>1970-01-01T05:47:51.000Z</time>
      </trkpt>
      <trkpt lat="47.92151" lon="7.03902">
        <ele>1178.2</ele>
        <time>1970-01-01T05:47:59.000Z</time>
      </trkpt>
      <trkpt lat="47.92157" lon="7.03892">
        <ele>1177.9</ele>
        <time>1970-01-01T05:48:08.000Z</time>
      </trkpt>
      <trkpt lat="47.92164" lon="7.03883">
        <ele>1177.6</ele>
        <time>1970-01-01T05:48:16.000Z</time>
      </trkpt>
      <trkpt lat="47.92171" lon="7.03874">
        <ele>1177.3</ele>
        <time>1970-01-01T05:48:23.000Z</time>
      </trkpt>
      <trkpt lat="47.92178" lon="7.03863">
        <ele>1177</ele>
        <time>1970-01-01T05:48:31.000Z</time>
      </trkpt>
      <trkpt lat="47.92184" lon="7.03853">
        <ele>1176.8</ele>
        <time>1970-01-01T05:48:38.000Z</time>
      </trkpt>
      <trkpt lat="47.92191" lon="7.03843">
        <ele>1176.5</ele>
        <time>1970-01-01T05:48:46.000Z</time>
      </trkpt>
      <trkpt lat="47.92198" lon="7.03833">
        <ele>1176.3</ele>
        <time>1970-01-01T05:48:55.000Z</time>
      </trkpt>
      <trkpt lat="47.92206" lon="7.03824">
        <ele>1176</ele>
        <time>1970-01-01T05:49:04.000Z</time>
      </trkpt>
      <trkpt lat="47.92214" lon="7.03815">
        <ele>1175.7</ele>
        <time>1970-01-01T05:49:13.000Z</time>
      </trkpt>
      <trkpt lat="47.92221" lon="7.03806">
        <ele>1175.5</ele>
        <time>1970-01-01T05:49:21.000Z</time>
      </trkpt>
      <trkpt lat="47.92228" lon="7.03795">
        <ele>1175.3</ele>
        <time>1970-01-01T05:49:30.000Z</time>
      </trkpt>
      <trkpt lat="47.92234" lon="7.03784">
        <ele>1175.1</ele>
        <time>1970-01-01T05:49:38.000Z</time>
      </trkpt>
      <trkpt lat="47.92239" lon="7.03773">
        <ele>1174.8</ele>
        <time>1970-01-01T05:49:46.000Z</time>
      </trkpt>
      <trkpt lat="47.92245" lon="7.03762">
        <ele>1174.5</ele>
        <time>1970-01-01T05:49:55.000Z</time>
      </trkpt>
      <trkpt lat="47.9225" lon="7.0375">
        <ele>1174.2</ele>
        <time>1970-01-01T05:50:03.000Z</time>
      </trkpt>
      <trkpt lat="47.92254" lon="7.03737">
        <ele>1173.7</ele>
        <time>1970-01-01T05:50:12.000Z</time>
      </trkpt>
      <trkpt lat="47.9226" lon="7.03727">
        <ele>1173.3</ele>
        <time>1970-01-01T05:50:20.000Z</time>
      </trkpt>
      <trkpt lat="47.92264" lon="7.03715">
        <ele>1173</ele>
        <time>1970-01-01T05:50:28.000Z</time>
      </trkpt>
      <trkpt lat="47.9227" lon="7.03704">
        <ele>1173</ele>
        <time>1970-01-01T05:50:36.000Z</time>
      </trkpt>
      <trkpt lat="47.92275" lon="7.03693">
        <ele>1173</ele>
        <time>1970-01-01T05:50:45.000Z</time>
      </trkpt>
      <trkpt lat="47.92281" lon="7.03682">
        <ele>1173</ele>
        <time>1970-01-01T05:50:53.000Z</time>
      </trkpt>
      <trkpt lat="47.92287" lon="7.03671">
        <ele>1173</ele>
        <time>1970-01-01T05:51:01.000Z</time>
      </trkpt>
      <trkpt lat="47.92291" lon="7.03659">
        <ele>1173</ele>
        <time>1970-01-01T05:51:09.000Z</time>
      </trkpt>
      <trkpt lat="47.92293" lon="7.03646">
        <ele>1173</ele>
        <time>1970-01-01T05:51:17.000Z</time>
      </trkpt>
      <trkpt lat="47.92295" lon="7.03632">
        <ele>1173</ele>
        <time>1970-01-01T05:51:26.000Z</time>
      </trkpt>
      <trkpt lat="47.92296" lon="7.03618">
        <ele>1173</ele>
        <time>1970-01-01T05:51:35.000Z</time>
      </trkpt>
      <trkpt lat="47.92296" lon="7.03603">
        <ele>1173</ele>
        <time>1970-01-01T05:51:44.000Z</time>
      </trkpt>
      <trkpt lat="47.92296" lon="7.03589">
        <ele>1173</ele>
        <time>1970-01-01T05:51:52.000Z</time>
      </trkpt>
      <trkpt lat="47.92296" lon="7.03575">
        <ele>1173</ele>
        <time>1970-01-01T05:52:01.000Z</time>
      </trkpt>
      <trkpt lat="47.92295" lon="7.0356">
        <ele>1173</ele>
        <time>1970-01-01T05:52:10.000Z</time>
      </trkpt>
      <trkpt lat="47.92294" lon="7.03546">
        <ele>1173</ele>
        <time>1970-01-01T05:52:19.000Z</time>
      </trkpt>
      <trkpt lat="47.92292" lon="7.03531">
        <ele>1173</ele>
        <time>1970-01-01T05:52:27.000Z</time>
      </trkpt>
      <trkpt lat="47.9229" lon="7.03518">
        <ele>1173</ele>
        <time>1970-01-01T05:52:35.000Z</time>
      </trkpt>
      <trkpt lat="47.92288" lon="7.03503">
        <ele>1173</ele>
        <time>1970-01-01T05:52:43.000Z</time>
      </trkpt>
      <trkpt lat="47.92286" lon="7.03488">
        <ele>1173</ele>
        <time>1970-01-01T05:52:52.000Z</time>
      </trkpt>
      <trkpt lat="47.92285" lon="7.03475">
        <ele>1173</ele>
        <time>1970-01-01T05:53:00.000Z</time>
      </trkpt>
      <trkpt lat="47.92283" lon="7.0346">
        <ele>1173</ele>
        <time>1970-01-01T05:53:09.000Z</time>
      </trkpt>
      <trkpt lat="47.92284" lon="7.03445">
        <ele>1173</ele>
        <time>1970-01-01T05:53:17.000Z</time>
      </trkpt>
      <trkpt lat="47.92284" lon="7.03431">
        <ele>1173</ele>
        <time>1970-01-01T05:53:27.000Z</time>
      </trkpt>
      <trkpt lat="47.92279" lon="7.03418">
        <ele>1173.2</ele>
        <time>1970-01-01T05:53:36.000Z</time>
      </trkpt>
      <trkpt lat="47.92273" lon="7.03408">
        <ele>1173.3</ele>
        <time>1970-01-01T05:53:45.000Z</time>
      </trkpt>
      <trkpt lat="47.92269" lon="7.03395">
        <ele>1174</ele>
        <time>1970-01-01T05:53:56.000Z</time>
      </trkpt>
      <trkpt lat="47.92273" lon="7.03382">
        <ele>1174.8</ele>
        <time>1970-01-01T05:54:04.000Z</time>
      </trkpt>
      <trkpt lat="47.92275" lon="7.03368">
        <ele>1175.5</ele>
        <time>1970-01-01T05:54:13.000Z</time>
      </trkpt>
      <trkpt lat="47.92278" lon="7.03355">
        <ele>1176.2</ele>
        <time>1970-01-01T05:54:22.000Z</time>
      </trkpt>
      <trkpt lat="47.92281" lon="7.03342">
        <ele>1176.9</ele>
        <time>1970-01-01T05:54:31.000Z</time>
      </trkpt>
      <trkpt lat="47.92284" lon="7.03328">
        <ele>1177.7</ele>
        <time>1970-01-01T05:54:40.000Z</time>
      </trkpt>
      <trkpt lat="47.92286" lon="7.03315">
        <ele>1178.3</ele>
        <time>1970-01-01T05:54:49.000Z</time>
      </trkpt>
      <trkpt lat="47.92288" lon="7.03302">
        <ele>1178.6</ele>
        <time>1970-01-01T05:54:58.000Z</time>
      </trkpt>
      <trkpt lat="47.92291" lon="7.03289">
        <ele>1179</ele>
        <time>1970-01-01T05:55:07.000Z</time>
      </trkpt>
      <trkpt lat="47.92294" lon="7.03276">
        <ele>1179.4</ele>
        <time>1970-01-01T05:55:16.000Z</time>
      </trkpt>
      <trkpt lat="47.92296" lon="7.03263">
        <ele>1179.8</ele>
        <time>1970-01-01T05:55:25.000Z</time>
      </trkpt>
      <trkpt lat="47.92299" lon="7.0325">
        <ele>1180.1</ele>
        <time>1970-01-01T05:55:34.000Z</time>
      </trkpt>
      <trkpt lat="47.92301" lon="7.03236">
        <ele>1180.3</ele>
        <time>1970-01-01T05:55:43.000Z</time>
      </trkpt>
      <trkpt lat="47.92303" lon="7.03222">
        <ele>1180.5</ele>
        <time>1970-01-01T05:55:52.000Z</time>
      </trkpt>
      <trkpt lat="47.92306" lon="7.03207">
        <ele>1180.8</ele>
        <time>1970-01-01T05:56:01.000Z</time>
      </trkpt>
      <trkpt lat="47.92309" lon="7.03194">
        <ele>1181.8</ele>
        <time>1970-01-01T05:56:10.000Z</time>
      </trkpt>
      <trkpt lat="47.92311" lon="7.0318">
        <ele>1182.8</ele>
        <time>1970-01-01T05:56:19.000Z</time>
      </trkpt>
      <trkpt lat="47.92315" lon="7.03166">
        <ele>1183.6</ele>
        <time>1970-01-01T05:56:28.000Z</time>
      </trkpt>
      <trkpt lat="47.92316" lon="7.03154">
        <ele>1184.1</ele>
        <time>1970-01-01T05:56:37.000Z</time>
      </trkpt>
      <trkpt lat="47.92318" lon="7.03139">
        <ele>1184.5</ele>
        <time>1970-01-01T05:56:46.000Z</time>
      </trkpt>
      <trkpt lat="47.92321" lon="7.03125">
        <ele>1184.8</ele>
        <time>1970-01-01T05:56:55.000Z</time>
      </trkpt>
      <trkpt lat="47.92324" lon="7.03111">
        <ele>1185</ele>
        <time>1970-01-01T05:57:04.000Z</time>
      </trkpt>
      <trkpt lat="47.92328" lon="7.03099">
        <ele>1185.2</ele>
        <time>1970-01-01T05:57:12.000Z</time>
      </trkpt>
      <trkpt lat="47.9233" lon="7.03085">
        <ele>1185.5</ele>
        <time>1970-01-01T05:57:21.000Z</time>
      </trkpt>
      <trkpt lat="47.92334" lon="7.03072">
        <ele>1185.7</ele>
        <time>1970-01-01T05:57:30.000Z</time>
      </trkpt>
      <trkpt lat="47.92339" lon="7.0306">
        <ele>1186</ele>
        <time>1970-01-01T05:57:38.000Z</time>
      </trkpt>
      <trkpt lat="47.92343" lon="7.03048">
        <ele>1186.3</ele>
        <time>1970-01-01T05:57:47.000Z</time>
      </trkpt>
    </trkseg>
  </trk>
</gpx>